<?xml version="1.0" encoding="UTF-8" standalone="no" ?>
<gpx xmlns="http://www.topografix.com/GPX/1/1" xmlns:xsi="http://www.w3.org/2001/XMLSchema-instance" xsi:schemaLocation="http://www.topografix.com/GPX/1/1 http://www.topografix.com/GPX/1/1/gpx.xsd" version="1.1" creator="VisuGPX - https://www.visugpx.com">
  <metadata>
    <name>Ballade à Ablain-Saint-Nazaire - 06/05/2016</name>
    <desc><![CDATA[Ballade à Ablain-Saint-Nazaire - 06/05/2016]]></desc>
  </metadata>
  <trk>
    <name><![CDATA[2016-05-06 13:36:26]]></name>
    <trkseg>
      <trkpt lat="50.39675" lon="2.69659">
        <ele>84.25</ele>
        <time>2016-05-06T07:14:08Z</time>
      </trkpt>
      <trkpt lat="50.39674" lon="2.69659">
        <ele>84.25</ele>
        <time>2016-05-06T07:14:10Z</time>
      </trkpt>
      <trkpt lat="50.39674" lon="2.6966">
        <ele>103</ele>
        <time>2016-05-06T07:14:12Z</time>
      </trkpt>
      <trkpt lat="50.39675" lon="2.6966">
        <ele>103</ele>
        <time>2016-05-06T07:14:14Z</time>
      </trkpt>
      <trkpt lat="50.39678" lon="2.69654">
        <ele>103</ele>
        <time>2016-05-06T07:14:18Z</time>
      </trkpt>
      <trkpt lat="50.39687" lon="2.69627">
        <ele>103</ele>
        <time>2016-05-06T07:14:35Z</time>
      </trkpt>
      <trkpt lat="50.39697" lon="2.6959">
        <ele>102.52</ele>
        <time>2016-05-06T07:14:54Z</time>
      </trkpt>
      <trkpt lat="50.39712" lon="2.69564">
        <ele>104.44</ele>
        <time>2016-05-06T07:15:12Z</time>
      </trkpt>
      <trkpt lat="50.39719" lon="2.69549">
        <ele>103.96</ele>
        <time>2016-05-06T07:15:26Z</time>
      </trkpt>
      <trkpt lat="50.39732" lon="2.69526">
        <ele>103.96</ele>
        <time>2016-05-06T07:15:40Z</time>
      </trkpt>
      <trkpt lat="50.39742" lon="2.69494">
        <ele>104.44</ele>
        <time>2016-05-06T07:15:56Z</time>
      </trkpt>
      <trkpt lat="50.39748" lon="2.69447">
        <ele>104.44</ele>
        <time>2016-05-06T07:16:16Z</time>
      </trkpt>
      <trkpt lat="50.3975" lon="2.69399">
        <ele>104.44</ele>
        <time>2016-05-06T07:16:37Z</time>
      </trkpt>
      <trkpt lat="50.39751" lon="2.6936">
        <ele>104.44</ele>
        <time>2016-05-06T07:16:55Z</time>
      </trkpt>
      <trkpt lat="50.39756" lon="2.69355">
        <ele>105.4</ele>
        <time>2016-05-06T07:17:06Z</time>
      </trkpt>
      <trkpt lat="50.39753" lon="2.69348">
        <ele>105.4</ele>
        <time>2016-05-06T07:17:22Z</time>
      </trkpt>
      <trkpt lat="50.39756" lon="2.69347">
        <ele>105.4</ele>
        <time>2016-05-06T07:17:33Z</time>
      </trkpt>
      <trkpt lat="50.39758" lon="2.69345">
        <ele>105.4</ele>
        <time>2016-05-06T07:17:53Z</time>
      </trkpt>
      <trkpt lat="50.3976" lon="2.69343">
        <ele>105.88</ele>
        <time>2016-05-06T07:18:10Z</time>
      </trkpt>
      <trkpt lat="50.3976" lon="2.69347">
        <ele>105.88</ele>
        <time>2016-05-06T07:18:38Z</time>
      </trkpt>
      <trkpt lat="50.39761" lon="2.69345">
        <ele>105.88</ele>
        <time>2016-05-06T07:19:09Z</time>
      </trkpt>
      <trkpt lat="50.3976" lon="2.69343">
        <ele>105.88</ele>
        <time>2016-05-06T07:19:37Z</time>
      </trkpt>
      <trkpt lat="50.3976" lon="2.69346">
        <ele>105.4</ele>
        <time>2016-05-06T07:20:08Z</time>
      </trkpt>
      <trkpt lat="50.39755" lon="2.69345">
        <ele>104.44</ele>
        <time>2016-05-06T07:20:21Z</time>
      </trkpt>
      <trkpt lat="50.39754" lon="2.69317">
        <ele>104.44</ele>
        <time>2016-05-06T07:20:37Z</time>
      </trkpt>
      <trkpt lat="50.39754" lon="2.69305">
        <ele>104.44</ele>
        <time>2016-05-06T07:20:43Z</time>
      </trkpt>
      <trkpt lat="50.39756" lon="2.69297">
        <ele>104.44</ele>
        <time>2016-05-06T07:20:47Z</time>
      </trkpt>
      <trkpt lat="50.39758" lon="2.69263">
        <ele>105.4</ele>
        <time>2016-05-06T07:21:01Z</time>
      </trkpt>
      <trkpt lat="50.39762" lon="2.69231">
        <ele>105.4</ele>
        <time>2016-05-06T07:21:15Z</time>
      </trkpt>
      <trkpt lat="50.39768" lon="2.69181">
        <ele>105.4</ele>
        <time>2016-05-06T07:21:35Z</time>
      </trkpt>
      <trkpt lat="50.3977" lon="2.6917">
        <ele>105.4</ele>
        <time>2016-05-06T07:21:40Z</time>
      </trkpt>
      <trkpt lat="50.39773" lon="2.69157">
        <ele>105.4</ele>
        <time>2016-05-06T07:21:45Z</time>
      </trkpt>
      <trkpt lat="50.39783" lon="2.69112">
        <ele>106.84</ele>
        <time>2016-05-06T07:22:04Z</time>
      </trkpt>
      <trkpt lat="50.39797" lon="2.69073">
        <ele>106.84</ele>
        <time>2016-05-06T07:22:23Z</time>
      </trkpt>
      <trkpt lat="50.39803" lon="2.69054">
        <ele>107.81</ele>
        <time>2016-05-06T07:22:32Z</time>
      </trkpt>
      <trkpt lat="50.39809" lon="2.69061">
        <ele>108.29</ele>
        <time>2016-05-06T07:22:45Z</time>
      </trkpt>
      <trkpt lat="50.39809" lon="2.69061">
        <ele>108.29</ele>
        <time>2016-05-06T07:23:01Z</time>
      </trkpt>
      <trkpt lat="50.39809" lon="2.69063">
        <ele>108.29</ele>
        <time>2016-05-06T07:23:18Z</time>
      </trkpt>
      <trkpt lat="50.39812" lon="2.69061">
        <ele>107.81</ele>
        <time>2016-05-06T07:23:30Z</time>
      </trkpt>
      <trkpt lat="50.39811" lon="2.69059">
        <ele>108.77</ele>
        <time>2016-05-06T07:23:49Z</time>
      </trkpt>
      <trkpt lat="50.39811" lon="2.69058">
        <ele>109.73</ele>
        <time>2016-05-06T07:24:09Z</time>
      </trkpt>
      <trkpt lat="50.39809" lon="2.69056">
        <ele>110.21</ele>
        <time>2016-05-06T07:24:36Z</time>
      </trkpt>
      <trkpt lat="50.39805" lon="2.6905">
        <ele>109.73</ele>
        <time>2016-05-06T07:25:03Z</time>
      </trkpt>
      <trkpt lat="50.39808" lon="2.69059">
        <ele>108.77</ele>
        <time>2016-05-06T07:25:29Z</time>
      </trkpt>
      <trkpt lat="50.39808" lon="2.69061">
        <ele>108.77</ele>
        <time>2016-05-06T07:25:43Z</time>
      </trkpt>
      <trkpt lat="50.39811" lon="2.6906">
        <ele>107.32</ele>
        <time>2016-05-06T07:25:57Z</time>
      </trkpt>
      <trkpt lat="50.3981" lon="2.69055">
        <ele>107.32</ele>
        <time>2016-05-06T07:26:11Z</time>
      </trkpt>
      <trkpt lat="50.39812" lon="2.69038">
        <ele>107.32</ele>
        <time>2016-05-06T07:26:21Z</time>
      </trkpt>
      <trkpt lat="50.39817" lon="2.6903">
        <ele>107.32</ele>
        <time>2016-05-06T07:26:28Z</time>
      </trkpt>
      <trkpt lat="50.39818" lon="2.69024">
        <ele>107.32</ele>
        <time>2016-05-06T07:26:32Z</time>
      </trkpt>
      <trkpt lat="50.3982" lon="2.69014">
        <ele>107.32</ele>
        <time>2016-05-06T07:26:37Z</time>
      </trkpt>
      <trkpt lat="50.39822" lon="2.69009">
        <ele>107.32</ele>
        <time>2016-05-06T07:26:40Z</time>
      </trkpt>
      <trkpt lat="50.39829" lon="2.68977">
        <ele>106.36</ele>
        <time>2016-05-06T07:26:56Z</time>
      </trkpt>
      <trkpt lat="50.39832" lon="2.68961">
        <ele>106.36</ele>
        <time>2016-05-06T07:27:00Z</time>
      </trkpt>
      <trkpt lat="50.39842" lon="2.68913">
        <ele>106.36</ele>
        <time>2016-05-06T07:27:17Z</time>
      </trkpt>
      <trkpt lat="50.39842" lon="2.6891">
        <ele>106.36</ele>
        <time>2016-05-06T07:27:18Z</time>
      </trkpt>
      <trkpt lat="50.39848" lon="2.68886">
        <ele>106.36</ele>
        <time>2016-05-06T07:27:32Z</time>
      </trkpt>
      <trkpt lat="50.39848" lon="2.68874">
        <ele>106.36</ele>
        <time>2016-05-06T07:27:39Z</time>
      </trkpt>
      <trkpt lat="50.3985" lon="2.68863">
        <ele>106.36</ele>
        <time>2016-05-06T07:27:43Z</time>
      </trkpt>
      <trkpt lat="50.39853" lon="2.68829">
        <ele>107.32</ele>
        <time>2016-05-06T07:27:57Z</time>
      </trkpt>
      <trkpt lat="50.39856" lon="2.68805">
        <ele>107.32</ele>
        <time>2016-05-06T07:28:10Z</time>
      </trkpt>
      <trkpt lat="50.39856" lon="2.68803">
        <ele>107.32</ele>
        <time>2016-05-06T07:28:11Z</time>
      </trkpt>
      <trkpt lat="50.39855" lon="2.68778">
        <ele>107.32</ele>
        <time>2016-05-06T07:28:20Z</time>
      </trkpt>
      <trkpt lat="50.39861" lon="2.68778">
        <ele>110.21</ele>
        <time>2016-05-06T07:28:34Z</time>
      </trkpt>
      <trkpt lat="50.39861" lon="2.68778">
        <ele>110.69</ele>
        <time>2016-05-06T07:28:49Z</time>
      </trkpt>
      <trkpt lat="50.39862" lon="2.68775">
        <ele>111.65</ele>
        <time>2016-05-06T07:29:02Z</time>
      </trkpt>
      <trkpt lat="50.39863" lon="2.68783">
        <ele>111.65</ele>
        <time>2016-05-06T07:29:12Z</time>
      </trkpt>
      <trkpt lat="50.39863" lon="2.68778">
        <ele>111.65</ele>
        <time>2016-05-06T07:29:27Z</time>
      </trkpt>
      <trkpt lat="50.39862" lon="2.68776">
        <ele>110.21</ele>
        <time>2016-05-06T07:29:38Z</time>
      </trkpt>
      <trkpt lat="50.39863" lon="2.68778">
        <ele>109.73</ele>
        <time>2016-05-06T07:30:00Z</time>
      </trkpt>
      <trkpt lat="50.39866" lon="2.68789">
        <ele>109.73</ele>
        <time>2016-05-06T07:30:27Z</time>
      </trkpt>
      <trkpt lat="50.39863" lon="2.68789">
        <ele>110.21</ele>
        <time>2016-05-06T07:31:00Z</time>
      </trkpt>
      <trkpt lat="50.39867" lon="2.68785">
        <ele>109.73</ele>
        <time>2016-05-06T07:31:36Z</time>
      </trkpt>
      <trkpt lat="50.3987" lon="2.68784">
        <ele>109.25</ele>
        <time>2016-05-06T07:31:59Z</time>
      </trkpt>
      <trkpt lat="50.39866" lon="2.6878">
        <ele>109.25</ele>
        <time>2016-05-06T07:32:05Z</time>
      </trkpt>
      <trkpt lat="50.39856" lon="2.6876">
        <ele>107.81</ele>
        <time>2016-05-06T07:32:14Z</time>
      </trkpt>
      <trkpt lat="50.39855" lon="2.68732">
        <ele>107.81</ele>
        <time>2016-05-06T07:32:29Z</time>
      </trkpt>
      <trkpt lat="50.39856" lon="2.68728">
        <ele>107.81</ele>
        <time>2016-05-06T07:32:32Z</time>
      </trkpt>
      <trkpt lat="50.39856" lon="2.68725">
        <ele>107.81</ele>
        <time>2016-05-06T07:32:34Z</time>
      </trkpt>
      <trkpt lat="50.39854" lon="2.68712">
        <ele>107.81</ele>
        <time>2016-05-06T07:32:41Z</time>
      </trkpt>
      <trkpt lat="50.39854" lon="2.68706">
        <ele>107.81</ele>
        <time>2016-05-06T07:32:45Z</time>
      </trkpt>
      <trkpt lat="50.39854" lon="2.68691">
        <ele>107.81</ele>
        <time>2016-05-06T07:32:50Z</time>
      </trkpt>
      <trkpt lat="50.39853" lon="2.68647">
        <ele>107.81</ele>
        <time>2016-05-06T07:33:05Z</time>
      </trkpt>
      <trkpt lat="50.39854" lon="2.68638">
        <ele>107.81</ele>
        <time>2016-05-06T07:33:11Z</time>
      </trkpt>
      <trkpt lat="50.39853" lon="2.68633">
        <ele>107.81</ele>
        <time>2016-05-06T07:33:14Z</time>
      </trkpt>
      <trkpt lat="50.39852" lon="2.68621">
        <ele>107.81</ele>
        <time>2016-05-06T07:33:19Z</time>
      </trkpt>
      <trkpt lat="50.39852" lon="2.68607">
        <ele>109.25</ele>
        <time>2016-05-06T07:33:25Z</time>
      </trkpt>
      <trkpt lat="50.39852" lon="2.68605">
        <ele>109.25</ele>
        <time>2016-05-06T07:33:26Z</time>
      </trkpt>
      <trkpt lat="50.39856" lon="2.68576">
        <ele>109.25</ele>
        <time>2016-05-06T07:33:40Z</time>
      </trkpt>
      <trkpt lat="50.39859" lon="2.68562">
        <ele>109.25</ele>
        <time>2016-05-06T07:33:45Z</time>
      </trkpt>
      <trkpt lat="50.39863" lon="2.68543">
        <ele>109.25</ele>
        <time>2016-05-06T07:33:54Z</time>
      </trkpt>
      <trkpt lat="50.39869" lon="2.68518">
        <ele>109.73</ele>
        <time>2016-05-06T07:34:07Z</time>
      </trkpt>
      <trkpt lat="50.39871" lon="2.68505">
        <ele>110.21</ele>
        <time>2016-05-06T07:34:13Z</time>
      </trkpt>
      <trkpt lat="50.39869" lon="2.68487">
        <ele>110.69</ele>
        <time>2016-05-06T07:34:22Z</time>
      </trkpt>
      <trkpt lat="50.3987" lon="2.68458">
        <ele>111.65</ele>
        <time>2016-05-06T07:34:38Z</time>
      </trkpt>
      <trkpt lat="50.39876" lon="2.68449">
        <ele>114.05</ele>
        <time>2016-05-06T07:34:53Z</time>
      </trkpt>
      <trkpt lat="50.39878" lon="2.68453">
        <ele>114.53</ele>
        <time>2016-05-06T07:35:07Z</time>
      </trkpt>
      <trkpt lat="50.39881" lon="2.68448">
        <ele>114.53</ele>
        <time>2016-05-06T07:35:21Z</time>
      </trkpt>
      <trkpt lat="50.3988" lon="2.68444">
        <ele>114.05</ele>
        <time>2016-05-06T07:35:49Z</time>
      </trkpt>
      <trkpt lat="50.3988" lon="2.68446">
        <ele>112.61</ele>
        <time>2016-05-06T07:35:52Z</time>
      </trkpt>
      <trkpt lat="50.39882" lon="2.6845">
        <ele>112.61</ele>
        <time>2016-05-06T07:36:08Z</time>
      </trkpt>
      <trkpt lat="50.39881" lon="2.6845">
        <ele>112.13</ele>
        <time>2016-05-06T07:36:22Z</time>
      </trkpt>
      <trkpt lat="50.39883" lon="2.68441">
        <ele>110.69</ele>
        <time>2016-05-06T07:36:39Z</time>
      </trkpt>
      <trkpt lat="50.39883" lon="2.6845">
        <ele>111.17</ele>
        <time>2016-05-06T07:36:57Z</time>
      </trkpt>
      <trkpt lat="50.3988" lon="2.68462">
        <ele>110.21</ele>
        <time>2016-05-06T07:37:13Z</time>
      </trkpt>
      <trkpt lat="50.3988" lon="2.68465">
        <ele>111.17</ele>
        <time>2016-05-06T07:37:19Z</time>
      </trkpt>
      <trkpt lat="50.39882" lon="2.68464">
        <ele>112.13</ele>
        <time>2016-05-06T07:37:32Z</time>
      </trkpt>
      <trkpt lat="50.39879" lon="2.68465">
        <ele>112.13</ele>
        <time>2016-05-06T07:37:49Z</time>
      </trkpt>
      <trkpt lat="50.39873" lon="2.68455">
        <ele>110.21</ele>
        <time>2016-05-06T07:38:02Z</time>
      </trkpt>
      <trkpt lat="50.39873" lon="2.68457">
        <ele>110.69</ele>
        <time>2016-05-06T07:38:22Z</time>
      </trkpt>
      <trkpt lat="50.39877" lon="2.6845">
        <ele>110.69</ele>
        <time>2016-05-06T07:38:42Z</time>
      </trkpt>
      <trkpt lat="50.39875" lon="2.68465">
        <ele>110.69</ele>
        <time>2016-05-06T07:38:55Z</time>
      </trkpt>
      <trkpt lat="50.39876" lon="2.68465">
        <ele>111.17</ele>
        <time>2016-05-06T07:39:10Z</time>
      </trkpt>
      <trkpt lat="50.39876" lon="2.68466">
        <ele>112.61</ele>
        <time>2016-05-06T07:39:26Z</time>
      </trkpt>
      <trkpt lat="50.39876" lon="2.68471">
        <ele>112.61</ele>
        <time>2016-05-06T07:39:52Z</time>
      </trkpt>
      <trkpt lat="50.39879" lon="2.68482">
        <ele>112.61</ele>
        <time>2016-05-06T07:40:17Z</time>
      </trkpt>
      <trkpt lat="50.39879" lon="2.68484">
        <ele>113.09</ele>
        <time>2016-05-06T07:40:35Z</time>
      </trkpt>
      <trkpt lat="50.39875" lon="2.68478">
        <ele>113.09</ele>
        <time>2016-05-06T07:41:08Z</time>
      </trkpt>
      <trkpt lat="50.39876" lon="2.68477">
        <ele>113.57</ele>
        <time>2016-05-06T07:41:25Z</time>
      </trkpt>
      <trkpt lat="50.3987" lon="2.68468">
        <ele>111.65</ele>
        <time>2016-05-06T07:41:46Z</time>
      </trkpt>
      <trkpt lat="50.3987" lon="2.68446">
        <ele>111.17</ele>
        <time>2016-05-06T07:42:01Z</time>
      </trkpt>
      <trkpt lat="50.39873" lon="2.6842">
        <ele>111.65</ele>
        <time>2016-05-06T07:42:15Z</time>
      </trkpt>
      <trkpt lat="50.39874" lon="2.68395">
        <ele>111.65</ele>
        <time>2016-05-06T07:42:26Z</time>
      </trkpt>
      <trkpt lat="50.39877" lon="2.68382">
        <ele>111.65</ele>
        <time>2016-05-06T07:42:45Z</time>
      </trkpt>
      <trkpt lat="50.39876" lon="2.68356">
        <ele>111.65</ele>
        <time>2016-05-06T07:42:56Z</time>
      </trkpt>
      <trkpt lat="50.39875" lon="2.68353">
        <ele>111.65</ele>
        <time>2016-05-06T07:42:58Z</time>
      </trkpt>
      <trkpt lat="50.39877" lon="2.68346">
        <ele>111.65</ele>
        <time>2016-05-06T07:43:02Z</time>
      </trkpt>
      <trkpt lat="50.39877" lon="2.68341">
        <ele>111.65</ele>
        <time>2016-05-06T07:43:04Z</time>
      </trkpt>
      <trkpt lat="50.39881" lon="2.68314">
        <ele>112.61</ele>
        <time>2016-05-06T07:43:17Z</time>
      </trkpt>
      <trkpt lat="50.39891" lon="2.68282">
        <ele>113.09</ele>
        <time>2016-05-06T07:43:33Z</time>
      </trkpt>
      <trkpt lat="50.39896" lon="2.68264">
        <ele>113.09</ele>
        <time>2016-05-06T07:43:41Z</time>
      </trkpt>
      <trkpt lat="50.39906" lon="2.68228">
        <ele>113.57</ele>
        <time>2016-05-06T07:43:57Z</time>
      </trkpt>
      <trkpt lat="50.39906" lon="2.68227">
        <ele>113.57</ele>
        <time>2016-05-06T07:43:58Z</time>
      </trkpt>
      <trkpt lat="50.39907" lon="2.68223">
        <ele>113.57</ele>
        <time>2016-05-06T07:44:00Z</time>
      </trkpt>
      <trkpt lat="50.39914" lon="2.68201">
        <ele>113.57</ele>
        <time>2016-05-06T07:44:10Z</time>
      </trkpt>
      <trkpt lat="50.3992" lon="2.68177">
        <ele>113.57</ele>
        <time>2016-05-06T07:44:21Z</time>
      </trkpt>
      <trkpt lat="50.39928" lon="2.68142">
        <ele>113.57</ele>
        <time>2016-05-06T07:44:36Z</time>
      </trkpt>
      <trkpt lat="50.39929" lon="2.68139">
        <ele>113.57</ele>
        <time>2016-05-06T07:44:41Z</time>
      </trkpt>
      <trkpt lat="50.3993" lon="2.68134">
        <ele>113.57</ele>
        <time>2016-05-06T07:44:44Z</time>
      </trkpt>
      <trkpt lat="50.39936" lon="2.68122">
        <ele>115.5</ele>
        <time>2016-05-06T07:44:57Z</time>
      </trkpt>
      <trkpt lat="50.39939" lon="2.68121">
        <ele>116.94</ele>
        <time>2016-05-06T07:45:09Z</time>
      </trkpt>
      <trkpt lat="50.3994" lon="2.68112">
        <ele>117.9</ele>
        <time>2016-05-06T07:45:26Z</time>
      </trkpt>
      <trkpt lat="50.39937" lon="2.681">
        <ele>118.38</ele>
        <time>2016-05-06T07:45:59Z</time>
      </trkpt>
      <trkpt lat="50.39942" lon="2.68092">
        <ele>118.38</ele>
        <time>2016-05-06T07:46:30Z</time>
      </trkpt>
      <trkpt lat="50.39941" lon="2.6809">
        <ele>118.38</ele>
        <time>2016-05-06T07:47:00Z</time>
      </trkpt>
      <trkpt lat="50.39935" lon="2.68095">
        <ele>118.38</ele>
        <time>2016-05-06T07:47:31Z</time>
      </trkpt>
      <trkpt lat="50.39929" lon="2.68097">
        <ele>118.86</ele>
        <time>2016-05-06T07:47:56Z</time>
      </trkpt>
      <trkpt lat="50.39929" lon="2.68097">
        <ele>119.34</ele>
        <time>2016-05-06T07:48:37Z</time>
      </trkpt>
      <trkpt lat="50.39939" lon="2.68117">
        <ele>117.9</ele>
        <time>2016-05-06T07:48:51Z</time>
      </trkpt>
      <trkpt lat="50.39938" lon="2.68116">
        <ele>115.98</ele>
        <time>2016-05-06T07:48:54Z</time>
      </trkpt>
      <trkpt lat="50.39937" lon="2.68115">
        <ele>115.01</ele>
        <time>2016-05-06T07:49:08Z</time>
      </trkpt>
      <trkpt lat="50.39937" lon="2.68108">
        <ele>115.01</ele>
        <time>2016-05-06T07:49:13Z</time>
      </trkpt>
      <trkpt lat="50.39944" lon="2.68079">
        <ele>115.01</ele>
        <time>2016-05-06T07:49:26Z</time>
      </trkpt>
      <trkpt lat="50.39944" lon="2.68077">
        <ele>115.01</ele>
        <time>2016-05-06T07:49:27Z</time>
      </trkpt>
      <trkpt lat="50.39944" lon="2.68071">
        <ele>115.5</ele>
        <time>2016-05-06T07:49:30Z</time>
      </trkpt>
      <trkpt lat="50.39947" lon="2.68048">
        <ele>116.46</ele>
        <time>2016-05-06T07:49:42Z</time>
      </trkpt>
      <trkpt lat="50.39951" lon="2.6802">
        <ele>116.46</ele>
        <time>2016-05-06T07:49:54Z</time>
      </trkpt>
      <trkpt lat="50.39956" lon="2.67993">
        <ele>117.42</ele>
        <time>2016-05-06T07:50:07Z</time>
      </trkpt>
      <trkpt lat="50.39959" lon="2.67979">
        <ele>117.42</ele>
        <time>2016-05-06T07:50:15Z</time>
      </trkpt>
      <trkpt lat="50.39959" lon="2.67968">
        <ele>117.9</ele>
        <time>2016-05-06T07:50:18Z</time>
      </trkpt>
      <trkpt lat="50.39966" lon="2.67929">
        <ele>117.9</ele>
        <time>2016-05-06T07:50:32Z</time>
      </trkpt>
      <trkpt lat="50.39968" lon="2.67921">
        <ele>117.9</ele>
        <time>2016-05-06T07:50:37Z</time>
      </trkpt>
      <trkpt lat="50.39972" lon="2.67901">
        <ele>118.38</ele>
        <time>2016-05-06T07:50:47Z</time>
      </trkpt>
      <trkpt lat="50.39978" lon="2.67876">
        <ele>118.86</ele>
        <time>2016-05-06T07:51:01Z</time>
      </trkpt>
      <trkpt lat="50.39981" lon="2.67873">
        <ele>121.74</ele>
        <time>2016-05-06T07:51:13Z</time>
      </trkpt>
      <trkpt lat="50.39983" lon="2.67878">
        <ele>123.19</ele>
        <time>2016-05-06T07:51:22Z</time>
      </trkpt>
      <trkpt lat="50.39994" lon="2.67879">
        <ele>124.15</ele>
        <time>2016-05-06T07:51:29Z</time>
      </trkpt>
      <trkpt lat="50.39996" lon="2.67879">
        <ele>124.63</ele>
        <time>2016-05-06T07:51:31Z</time>
      </trkpt>
      <trkpt lat="50.40007" lon="2.67865">
        <ele>125.59</ele>
        <time>2016-05-06T07:51:45Z</time>
      </trkpt>
      <trkpt lat="50.40013" lon="2.67866">
        <ele>125.59</ele>
        <time>2016-05-06T07:51:58Z</time>
      </trkpt>
      <trkpt lat="50.40019" lon="2.67867">
        <ele>127.03</ele>
        <time>2016-05-06T07:52:11Z</time>
      </trkpt>
      <trkpt lat="50.40019" lon="2.67874">
        <ele>128.95</ele>
        <time>2016-05-06T07:52:23Z</time>
      </trkpt>
      <trkpt lat="50.40024" lon="2.67872">
        <ele>130.4</ele>
        <time>2016-05-06T07:52:38Z</time>
      </trkpt>
      <trkpt lat="50.40025" lon="2.67876">
        <ele>130.88</ele>
        <time>2016-05-06T07:52:54Z</time>
      </trkpt>
      <trkpt lat="50.40025" lon="2.67883">
        <ele>131.36</ele>
        <time>2016-05-06T07:53:18Z</time>
      </trkpt>
      <trkpt lat="50.40022" lon="2.67872">
        <ele>129.43</ele>
        <time>2016-05-06T07:53:33Z</time>
      </trkpt>
      <trkpt lat="50.40019" lon="2.67874">
        <ele>128.95</ele>
        <time>2016-05-06T07:53:38Z</time>
      </trkpt>
      <trkpt lat="50.40018" lon="2.67875">
        <ele>128.95</ele>
        <time>2016-05-06T07:53:50Z</time>
      </trkpt>
      <trkpt lat="50.40017" lon="2.67876">
        <ele>128.47</ele>
        <time>2016-05-06T07:54:06Z</time>
      </trkpt>
      <trkpt lat="50.40015" lon="2.67875">
        <ele>128.47</ele>
        <time>2016-05-06T07:54:25Z</time>
      </trkpt>
      <trkpt lat="50.40013" lon="2.67873">
        <ele>128.47</ele>
        <time>2016-05-06T07:54:53Z</time>
      </trkpt>
      <trkpt lat="50.40015" lon="2.67872">
        <ele>128.47</ele>
        <time>2016-05-06T07:55:18Z</time>
      </trkpt>
      <trkpt lat="50.40017" lon="2.67875">
        <ele>128.47</ele>
        <time>2016-05-06T07:55:33Z</time>
      </trkpt>
      <trkpt lat="50.40017" lon="2.67876">
        <ele>128.47</ele>
        <time>2016-05-06T07:55:52Z</time>
      </trkpt>
      <trkpt lat="50.40017" lon="2.67878">
        <ele>129.92</ele>
        <time>2016-05-06T07:56:13Z</time>
      </trkpt>
      <trkpt lat="50.40014" lon="2.67872">
        <ele>129.92</ele>
        <time>2016-05-06T07:56:31Z</time>
      </trkpt>
      <trkpt lat="50.40016" lon="2.67873">
        <ele>129.92</ele>
        <time>2016-05-06T07:56:45Z</time>
      </trkpt>
      <trkpt lat="50.40018" lon="2.67874">
        <ele>129.92</ele>
        <time>2016-05-06T07:57:00Z</time>
      </trkpt>
      <trkpt lat="50.40017" lon="2.67876">
        <ele>130.4</ele>
        <time>2016-05-06T07:57:18Z</time>
      </trkpt>
      <trkpt lat="50.40018" lon="2.67872">
        <ele>130.4</ele>
        <time>2016-05-06T07:57:33Z</time>
      </trkpt>
      <trkpt lat="50.40019" lon="2.67874">
        <ele>131.36</ele>
        <time>2016-05-06T07:57:36Z</time>
      </trkpt>
      <trkpt lat="50.40021" lon="2.67877">
        <ele>133.28</ele>
        <time>2016-05-06T07:57:51Z</time>
      </trkpt>
      <trkpt lat="50.4002" lon="2.67876">
        <ele>133.28</ele>
        <time>2016-05-06T07:58:08Z</time>
      </trkpt>
      <trkpt lat="50.40024" lon="2.67881">
        <ele>133.76</ele>
        <time>2016-05-06T07:58:26Z</time>
      </trkpt>
      <trkpt lat="50.40029" lon="2.67882">
        <ele>135.68</ele>
        <time>2016-05-06T07:58:37Z</time>
      </trkpt>
      <trkpt lat="50.40027" lon="2.67879">
        <ele>134.72</ele>
        <time>2016-05-06T07:58:55Z</time>
      </trkpt>
      <trkpt lat="50.40024" lon="2.67878">
        <ele>136.16</ele>
        <time>2016-05-06T07:59:20Z</time>
      </trkpt>
      <trkpt lat="50.40024" lon="2.67884">
        <ele>136.64</ele>
        <time>2016-05-06T07:59:51Z</time>
      </trkpt>
      <trkpt lat="50.40025" lon="2.67884">
        <ele>135.2</ele>
        <time>2016-05-06T08:00:04Z</time>
      </trkpt>
      <trkpt lat="50.40023" lon="2.67877">
        <ele>134.24</ele>
        <time>2016-05-06T08:00:17Z</time>
      </trkpt>
      <trkpt lat="50.40022" lon="2.67878">
        <ele>133.28</ele>
        <time>2016-05-06T08:00:33Z</time>
      </trkpt>
      <trkpt lat="50.40023" lon="2.67874">
        <ele>132.8</ele>
        <time>2016-05-06T08:00:52Z</time>
      </trkpt>
      <trkpt lat="50.40016" lon="2.67859">
        <ele>131.36</ele>
        <time>2016-05-06T08:01:06Z</time>
      </trkpt>
      <trkpt lat="50.40022" lon="2.6785">
        <ele>131.36</ele>
        <time>2016-05-06T08:01:29Z</time>
      </trkpt>
      <trkpt lat="50.40021" lon="2.67862">
        <ele>131.84</ele>
        <time>2016-05-06T08:01:53Z</time>
      </trkpt>
      <trkpt lat="50.40018" lon="2.67855">
        <ele>130.88</ele>
        <time>2016-05-06T08:02:21Z</time>
      </trkpt>
      <trkpt lat="50.40013" lon="2.67872">
        <ele>130.88</ele>
        <time>2016-05-06T08:02:39Z</time>
      </trkpt>
      <trkpt lat="50.4001" lon="2.67869">
        <ele>129.43</ele>
        <time>2016-05-06T08:02:43Z</time>
      </trkpt>
      <trkpt lat="50.40007" lon="2.67865">
        <ele>128.95</ele>
        <time>2016-05-06T08:02:59Z</time>
      </trkpt>
      <trkpt lat="50.40011" lon="2.67856">
        <ele>129.92</ele>
        <time>2016-05-06T08:03:16Z</time>
      </trkpt>
      <trkpt lat="50.40012" lon="2.67853">
        <ele>129.92</ele>
        <time>2016-05-06T08:03:18Z</time>
      </trkpt>
      <trkpt lat="50.40013" lon="2.67839">
        <ele>129.92</ele>
        <time>2016-05-06T08:03:31Z</time>
      </trkpt>
      <trkpt lat="50.40012" lon="2.67839">
        <ele>129.92</ele>
        <time>2016-05-06T08:03:32Z</time>
      </trkpt>
      <trkpt lat="50.40004" lon="2.67841">
        <ele>127.99</ele>
        <time>2016-05-06T08:03:47Z</time>
      </trkpt>
      <trkpt lat="50.39994" lon="2.67849">
        <ele>125.11</ele>
        <time>2016-05-06T08:04:03Z</time>
      </trkpt>
      <trkpt lat="50.39991" lon="2.67848">
        <ele>124.15</ele>
        <time>2016-05-06T08:04:06Z</time>
      </trkpt>
      <trkpt lat="50.39991" lon="2.6784">
        <ele>123.67</ele>
        <time>2016-05-06T08:04:11Z</time>
      </trkpt>
      <trkpt lat="50.39996" lon="2.67813">
        <ele>123.67</ele>
        <time>2016-05-06T08:04:25Z</time>
      </trkpt>
      <trkpt lat="50.39997" lon="2.67811">
        <ele>123.67</ele>
        <time>2016-05-06T08:04:26Z</time>
      </trkpt>
      <trkpt lat="50.40007" lon="2.67786">
        <ele>123.67</ele>
        <time>2016-05-06T08:04:39Z</time>
      </trkpt>
      <trkpt lat="50.40009" lon="2.67783">
        <ele>123.67</ele>
        <time>2016-05-06T08:04:41Z</time>
      </trkpt>
      <trkpt lat="50.40017" lon="2.67764">
        <ele>123.67</ele>
        <time>2016-05-06T08:04:50Z</time>
      </trkpt>
      <trkpt lat="50.40028" lon="2.6773">
        <ele>124.63</ele>
        <time>2016-05-06T08:05:04Z</time>
      </trkpt>
      <trkpt lat="50.40029" lon="2.67722">
        <ele>124.63</ele>
        <time>2016-05-06T08:05:08Z</time>
      </trkpt>
      <trkpt lat="50.40042" lon="2.67696">
        <ele>126.07</ele>
        <time>2016-05-06T08:05:25Z</time>
      </trkpt>
      <trkpt lat="50.40052" lon="2.67669">
        <ele>126.07</ele>
        <time>2016-05-06T08:05:38Z</time>
      </trkpt>
      <trkpt lat="50.40062" lon="2.67642">
        <ele>126.55</ele>
        <time>2016-05-06T08:05:52Z</time>
      </trkpt>
      <trkpt lat="50.4007" lon="2.67618">
        <ele>126.55</ele>
        <time>2016-05-06T08:06:04Z</time>
      </trkpt>
      <trkpt lat="50.40073" lon="2.67612">
        <ele>128.47</ele>
        <time>2016-05-06T08:06:16Z</time>
      </trkpt>
      <trkpt lat="50.40075" lon="2.67609">
        <ele>131.36</ele>
        <time>2016-05-06T08:06:32Z</time>
      </trkpt>
      <trkpt lat="50.40077" lon="2.67611">
        <ele>133.28</ele>
        <time>2016-05-06T08:06:45Z</time>
      </trkpt>
      <trkpt lat="50.40087" lon="2.6761">
        <ele>133.76</ele>
        <time>2016-05-06T08:06:59Z</time>
      </trkpt>
      <trkpt lat="50.40093" lon="2.67614">
        <ele>136.16</ele>
        <time>2016-05-06T08:07:11Z</time>
      </trkpt>
      <trkpt lat="50.40101" lon="2.67615">
        <ele>138.09</ele>
        <time>2016-05-06T08:07:26Z</time>
      </trkpt>
      <trkpt lat="50.40101" lon="2.67621">
        <ele>139.53</ele>
        <time>2016-05-06T08:07:39Z</time>
      </trkpt>
      <trkpt lat="50.401" lon="2.67622">
        <ele>138.09</ele>
        <time>2016-05-06T08:07:42Z</time>
      </trkpt>
      <trkpt lat="50.40102" lon="2.67626">
        <ele>139.53</ele>
        <time>2016-05-06T08:07:56Z</time>
      </trkpt>
      <trkpt lat="50.40103" lon="2.67618">
        <ele>139.53</ele>
        <time>2016-05-06T08:08:16Z</time>
      </trkpt>
      <trkpt lat="50.4011" lon="2.67623">
        <ele>141.93</ele>
        <time>2016-05-06T08:08:30Z</time>
      </trkpt>
      <trkpt lat="50.40109" lon="2.67622">
        <ele>142.89</ele>
        <time>2016-05-06T08:08:47Z</time>
      </trkpt>
      <trkpt lat="50.40108" lon="2.67618">
        <ele>141.45</ele>
        <time>2016-05-06T08:08:59Z</time>
      </trkpt>
      <trkpt lat="50.40104" lon="2.67612">
        <ele>141.45</ele>
        <time>2016-05-06T08:09:15Z</time>
      </trkpt>
      <trkpt lat="50.40108" lon="2.67608">
        <ele>141.45</ele>
        <time>2016-05-06T08:09:32Z</time>
      </trkpt>
      <trkpt lat="50.4011" lon="2.67613">
        <ele>141.45</ele>
        <time>2016-05-06T08:09:55Z</time>
      </trkpt>
      <trkpt lat="50.40106" lon="2.67608">
        <ele>141.45</ele>
        <time>2016-05-06T08:10:27Z</time>
      </trkpt>
      <trkpt lat="50.40108" lon="2.67615">
        <ele>142.89</ele>
        <time>2016-05-06T08:10:42Z</time>
      </trkpt>
      <trkpt lat="50.40105" lon="2.6761">
        <ele>141.45</ele>
        <time>2016-05-06T08:10:59Z</time>
      </trkpt>
      <trkpt lat="50.40107" lon="2.67595">
        <ele>138.57</ele>
        <time>2016-05-06T08:11:11Z</time>
      </trkpt>
      <trkpt lat="50.40105" lon="2.67578">
        <ele>135.68</ele>
        <time>2016-05-06T08:11:21Z</time>
      </trkpt>
      <trkpt lat="50.40104" lon="2.67563">
        <ele>134.72</ele>
        <time>2016-05-06T08:11:34Z</time>
      </trkpt>
      <trkpt lat="50.40108" lon="2.67553">
        <ele>134.72</ele>
        <time>2016-05-06T08:11:41Z</time>
      </trkpt>
      <trkpt lat="50.4011" lon="2.67546">
        <ele>134.72</ele>
        <time>2016-05-06T08:11:45Z</time>
      </trkpt>
      <trkpt lat="50.40118" lon="2.6752">
        <ele>134.72</ele>
        <time>2016-05-06T08:12:00Z</time>
      </trkpt>
      <trkpt lat="50.40123" lon="2.67492">
        <ele>134.72</ele>
        <time>2016-05-06T08:12:14Z</time>
      </trkpt>
      <trkpt lat="50.40132" lon="2.67457">
        <ele>134.72</ele>
        <time>2016-05-06T08:12:28Z</time>
      </trkpt>
      <trkpt lat="50.40139" lon="2.67436">
        <ele>136.16</ele>
        <time>2016-05-06T08:12:39Z</time>
      </trkpt>
      <trkpt lat="50.40149" lon="2.67409">
        <ele>136.64</ele>
        <time>2016-05-06T08:12:52Z</time>
      </trkpt>
      <trkpt lat="50.40149" lon="2.67407">
        <ele>136.64</ele>
        <time>2016-05-06T08:12:53Z</time>
      </trkpt>
      <trkpt lat="50.40149" lon="2.6739">
        <ele>137.13</ele>
        <time>2016-05-06T08:13:07Z</time>
      </trkpt>
      <trkpt lat="50.4015" lon="2.67373">
        <ele>137.61</ele>
        <time>2016-05-06T08:13:19Z</time>
      </trkpt>
      <trkpt lat="50.40155" lon="2.67362">
        <ele>137.61</ele>
        <time>2016-05-06T08:13:33Z</time>
      </trkpt>
      <trkpt lat="50.40163" lon="2.67349">
        <ele>138.09</ele>
        <time>2016-05-06T08:13:45Z</time>
      </trkpt>
      <trkpt lat="50.40164" lon="2.67345">
        <ele>138.09</ele>
        <time>2016-05-06T08:13:58Z</time>
      </trkpt>
      <trkpt lat="50.40166" lon="2.67348">
        <ele>138.09</ele>
        <time>2016-05-06T08:14:16Z</time>
      </trkpt>
      <trkpt lat="50.40165" lon="2.67345">
        <ele>138.57</ele>
        <time>2016-05-06T08:14:30Z</time>
      </trkpt>
      <trkpt lat="50.40162" lon="2.6734">
        <ele>139.05</ele>
        <time>2016-05-06T08:14:47Z</time>
      </trkpt>
      <trkpt lat="50.40164" lon="2.6733">
        <ele>139.53</ele>
        <time>2016-05-06T08:15:13Z</time>
      </trkpt>
      <trkpt lat="50.40163" lon="2.67338">
        <ele>138.09</ele>
        <time>2016-05-06T08:15:28Z</time>
      </trkpt>
      <trkpt lat="50.40163" lon="2.67351">
        <ele>139.05</ele>
        <time>2016-05-06T08:15:42Z</time>
      </trkpt>
      <trkpt lat="50.40163" lon="2.67348">
        <ele>139.05</ele>
        <time>2016-05-06T08:16:11Z</time>
      </trkpt>
      <trkpt lat="50.40165" lon="2.67346">
        <ele>139.05</ele>
        <time>2016-05-06T08:16:32Z</time>
      </trkpt>
      <trkpt lat="50.40161" lon="2.67345">
        <ele>139.05</ele>
        <time>2016-05-06T08:16:59Z</time>
      </trkpt>
      <trkpt lat="50.40158" lon="2.6735">
        <ele>139.05</ele>
        <time>2016-05-06T08:17:23Z</time>
      </trkpt>
      <trkpt lat="50.40158" lon="2.67352">
        <ele>139.53</ele>
        <time>2016-05-06T08:17:42Z</time>
      </trkpt>
      <trkpt lat="50.40161" lon="2.67357">
        <ele>139.53</ele>
        <time>2016-05-06T08:18:09Z</time>
      </trkpt>
      <trkpt lat="50.40161" lon="2.67354">
        <ele>139.53</ele>
        <time>2016-05-06T08:18:26Z</time>
      </trkpt>
      <trkpt lat="50.4016" lon="2.67351">
        <ele>139.53</ele>
        <time>2016-05-06T08:18:47Z</time>
      </trkpt>
      <trkpt lat="50.40164" lon="2.67333">
        <ele>139.53</ele>
        <time>2016-05-06T08:18:59Z</time>
      </trkpt>
      <trkpt lat="50.40174" lon="2.67306">
        <ele>140.97</ele>
        <time>2016-05-06T08:19:14Z</time>
      </trkpt>
      <trkpt lat="50.40176" lon="2.67288">
        <ele>141.45</ele>
        <time>2016-05-06T08:19:27Z</time>
      </trkpt>
      <trkpt lat="50.40181" lon="2.67266">
        <ele>141.45</ele>
        <time>2016-05-06T08:19:41Z</time>
      </trkpt>
      <trkpt lat="50.40187" lon="2.6725">
        <ele>141.93</ele>
        <time>2016-05-06T08:19:51Z</time>
      </trkpt>
      <trkpt lat="50.40194" lon="2.67229">
        <ele>142.41</ele>
        <time>2016-05-06T08:20:02Z</time>
      </trkpt>
      <trkpt lat="50.40197" lon="2.67223">
        <ele>142.89</ele>
        <time>2016-05-06T08:20:05Z</time>
      </trkpt>
      <trkpt lat="50.40201" lon="2.67206">
        <ele>143.85</ele>
        <time>2016-05-06T08:20:15Z</time>
      </trkpt>
      <trkpt lat="50.40206" lon="2.67181">
        <ele>143.85</ele>
        <time>2016-05-06T08:20:28Z</time>
      </trkpt>
      <trkpt lat="50.40209" lon="2.6717">
        <ele>144.34</ele>
        <time>2016-05-06T08:20:35Z</time>
      </trkpt>
      <trkpt lat="50.40216" lon="2.67142">
        <ele>144.34</ele>
        <time>2016-05-06T08:20:50Z</time>
      </trkpt>
      <trkpt lat="50.40218" lon="2.67138">
        <ele>145.3</ele>
        <time>2016-05-06T08:20:54Z</time>
      </trkpt>
      <trkpt lat="50.40221" lon="2.67132">
        <ele>145.3</ele>
        <time>2016-05-06T08:20:58Z</time>
      </trkpt>
      <trkpt lat="50.40227" lon="2.67109">
        <ele>145.3</ele>
        <time>2016-05-06T08:21:10Z</time>
      </trkpt>
      <trkpt lat="50.40234" lon="2.67091">
        <ele>145.78</ele>
        <time>2016-05-06T08:21:18Z</time>
      </trkpt>
      <trkpt lat="50.40235" lon="2.67082">
        <ele>145.78</ele>
        <time>2016-05-06T08:21:30Z</time>
      </trkpt>
      <trkpt lat="50.40233" lon="2.67098">
        <ele>145.78</ele>
        <time>2016-05-06T08:21:41Z</time>
      </trkpt>
      <trkpt lat="50.40229" lon="2.67091">
        <ele>142.41</ele>
        <time>2016-05-06T08:21:54Z</time>
      </trkpt>
      <trkpt lat="50.40229" lon="2.67084">
        <ele>140.97</ele>
        <time>2016-05-06T08:22:02Z</time>
      </trkpt>
      <trkpt lat="50.40229" lon="2.67076">
        <ele>139.05</ele>
        <time>2016-05-06T08:22:05Z</time>
      </trkpt>
      <trkpt lat="50.40229" lon="2.67074">
        <ele>139.05</ele>
        <time>2016-05-06T08:22:09Z</time>
      </trkpt>
      <trkpt lat="50.40235" lon="2.67067">
        <ele>140.01</ele>
        <time>2016-05-06T08:22:19Z</time>
      </trkpt>
      <trkpt lat="50.40228" lon="2.67053">
        <ele>141.93</ele>
        <time>2016-05-06T08:22:32Z</time>
      </trkpt>
      <trkpt lat="50.40222" lon="2.67046">
        <ele>143.85</ele>
        <time>2016-05-06T08:22:46Z</time>
      </trkpt>
      <trkpt lat="50.4022" lon="2.67051">
        <ele>144.82</ele>
        <time>2016-05-06T08:22:58Z</time>
      </trkpt>
      <trkpt lat="50.40219" lon="2.6705">
        <ele>145.3</ele>
        <time>2016-05-06T08:23:11Z</time>
      </trkpt>
      <trkpt lat="50.40222" lon="2.67048">
        <ele>144.82</ele>
        <time>2016-05-06T08:23:32Z</time>
      </trkpt>
      <trkpt lat="50.40223" lon="2.67053">
        <ele>143.85</ele>
        <time>2016-05-06T08:23:44Z</time>
      </trkpt>
      <trkpt lat="50.40219" lon="2.67056">
        <ele>145.78</ele>
        <time>2016-05-06T08:23:59Z</time>
      </trkpt>
      <trkpt lat="50.40221" lon="2.67045">
        <ele>146.26</ele>
        <time>2016-05-06T08:24:24Z</time>
      </trkpt>
      <trkpt lat="50.40221" lon="2.67044">
        <ele>144.82</ele>
        <time>2016-05-06T08:24:29Z</time>
      </trkpt>
      <trkpt lat="50.40221" lon="2.67036">
        <ele>143.37</ele>
        <time>2016-05-06T08:24:42Z</time>
      </trkpt>
      <trkpt lat="50.40222" lon="2.67036">
        <ele>143.37</ele>
        <time>2016-05-06T08:24:52Z</time>
      </trkpt>
      <trkpt lat="50.40226" lon="2.67047">
        <ele>142.41</ele>
        <time>2016-05-06T08:25:06Z</time>
      </trkpt>
      <trkpt lat="50.40224" lon="2.67033">
        <ele>141.45</ele>
        <time>2016-05-06T08:25:36Z</time>
      </trkpt>
      <trkpt lat="50.40225" lon="2.67053">
        <ele>141.45</ele>
        <time>2016-05-06T08:25:49Z</time>
      </trkpt>
      <trkpt lat="50.40222" lon="2.67057">
        <ele>144.82</ele>
        <time>2016-05-06T08:25:55Z</time>
      </trkpt>
      <trkpt lat="50.4022" lon="2.67059">
        <ele>145.78</ele>
        <time>2016-05-06T08:26:09Z</time>
      </trkpt>
      <trkpt lat="50.40224" lon="2.67056">
        <ele>142.41</ele>
        <time>2016-05-06T08:26:19Z</time>
      </trkpt>
      <trkpt lat="50.40231" lon="2.6705">
        <ele>141.93</ele>
        <time>2016-05-06T08:26:30Z</time>
      </trkpt>
      <trkpt lat="50.40237" lon="2.67044">
        <ele>143.37</ele>
        <time>2016-05-06T08:26:40Z</time>
      </trkpt>
      <trkpt lat="50.40242" lon="2.67045">
        <ele>143.85</ele>
        <time>2016-05-06T08:26:59Z</time>
      </trkpt>
      <trkpt lat="50.40238" lon="2.67051">
        <ele>142.41</ele>
        <time>2016-05-06T08:27:15Z</time>
      </trkpt>
      <trkpt lat="50.40232" lon="2.6704">
        <ele>143.37</ele>
        <time>2016-05-06T08:27:25Z</time>
      </trkpt>
      <trkpt lat="50.40226" lon="2.67045">
        <ele>143.37</ele>
        <time>2016-05-06T08:27:41Z</time>
      </trkpt>
      <trkpt lat="50.40223" lon="2.67047">
        <ele>143.37</ele>
        <time>2016-05-06T08:27:58Z</time>
      </trkpt>
      <trkpt lat="50.40231" lon="2.67046">
        <ele>143.37</ele>
        <time>2016-05-06T08:28:16Z</time>
      </trkpt>
      <trkpt lat="50.40222" lon="2.6704">
        <ele>145.78</ele>
        <time>2016-05-06T08:28:31Z</time>
      </trkpt>
      <trkpt lat="50.40223" lon="2.67045">
        <ele>144.34</ele>
        <time>2016-05-06T08:28:46Z</time>
      </trkpt>
      <trkpt lat="50.4023" lon="2.67039">
        <ele>145.78</ele>
        <time>2016-05-06T08:29:02Z</time>
      </trkpt>
      <trkpt lat="50.40231" lon="2.67045">
        <ele>142.89</ele>
        <time>2016-05-06T08:29:18Z</time>
      </trkpt>
      <trkpt lat="50.40226" lon="2.67047">
        <ele>144.82</ele>
        <time>2016-05-06T08:29:32Z</time>
      </trkpt>
      <trkpt lat="50.40221" lon="2.67046">
        <ele>145.3</ele>
        <time>2016-05-06T08:29:49Z</time>
      </trkpt>
      <trkpt lat="50.40222" lon="2.67043">
        <ele>144.82</ele>
        <time>2016-05-06T08:30:11Z</time>
      </trkpt>
      <trkpt lat="50.40219" lon="2.67047">
        <ele>144.82</ele>
        <time>2016-05-06T08:30:39Z</time>
      </trkpt>
      <trkpt lat="50.40219" lon="2.67041">
        <ele>144.82</ele>
        <time>2016-05-06T08:30:55Z</time>
      </trkpt>
      <trkpt lat="50.40219" lon="2.67038">
        <ele>145.3</ele>
        <time>2016-05-06T08:31:22Z</time>
      </trkpt>
      <trkpt lat="50.40222" lon="2.67031">
        <ele>145.78</ele>
        <time>2016-05-06T08:31:49Z</time>
      </trkpt>
      <trkpt lat="50.40223" lon="2.67035">
        <ele>142.41</ele>
        <time>2016-05-06T08:32:12Z</time>
      </trkpt>
      <trkpt lat="50.40235" lon="2.67046">
        <ele>141.45</ele>
        <time>2016-05-06T08:32:25Z</time>
      </trkpt>
      <trkpt lat="50.40239" lon="2.67048">
        <ele>140.97</ele>
        <time>2016-05-06T08:32:32Z</time>
      </trkpt>
      <trkpt lat="50.40249" lon="2.67048">
        <ele>140.49</ele>
        <time>2016-05-06T08:32:39Z</time>
      </trkpt>
      <trkpt lat="50.40259" lon="2.67043">
        <ele>140.49</ele>
        <time>2016-05-06T08:32:49Z</time>
      </trkpt>
      <trkpt lat="50.40263" lon="2.67042">
        <ele>141.45</ele>
        <time>2016-05-06T08:32:52Z</time>
      </trkpt>
      <trkpt lat="50.40268" lon="2.67035">
        <ele>142.89</ele>
        <time>2016-05-06T08:32:56Z</time>
      </trkpt>
      <trkpt lat="50.40275" lon="2.67008">
        <ele>141.93</ele>
        <time>2016-05-06T08:33:10Z</time>
      </trkpt>
      <trkpt lat="50.40277" lon="2.66996">
        <ele>141.93</ele>
        <time>2016-05-06T08:33:16Z</time>
      </trkpt>
      <trkpt lat="50.40281" lon="2.6697">
        <ele>141.93</ele>
        <time>2016-05-06T08:33:29Z</time>
      </trkpt>
      <trkpt lat="50.40282" lon="2.66965">
        <ele>141.93</ele>
        <time>2016-05-06T08:33:31Z</time>
      </trkpt>
      <trkpt lat="50.40285" lon="2.66939">
        <ele>142.89</ele>
        <time>2016-05-06T08:33:42Z</time>
      </trkpt>
      <trkpt lat="50.40287" lon="2.66909">
        <ele>144.34</ele>
        <time>2016-05-06T08:33:56Z</time>
      </trkpt>
      <trkpt lat="50.40289" lon="2.66877">
        <ele>144.82</ele>
        <time>2016-05-06T08:34:08Z</time>
      </trkpt>
      <trkpt lat="50.4029" lon="2.66862">
        <ele>145.78</ele>
        <time>2016-05-06T08:34:13Z</time>
      </trkpt>
      <trkpt lat="50.4029" lon="2.66848">
        <ele>146.26</ele>
        <time>2016-05-06T08:34:19Z</time>
      </trkpt>
      <trkpt lat="50.40288" lon="2.66841">
        <ele>146.74</ele>
        <time>2016-05-06T08:34:24Z</time>
      </trkpt>
      <trkpt lat="50.40287" lon="2.66836">
        <ele>146.74</ele>
        <time>2016-05-06T08:34:26Z</time>
      </trkpt>
      <trkpt lat="50.40283" lon="2.66809">
        <ele>147.22</ele>
        <time>2016-05-06T08:34:41Z</time>
      </trkpt>
      <trkpt lat="50.40277" lon="2.66783">
        <ele>147.7</ele>
        <time>2016-05-06T08:34:56Z</time>
      </trkpt>
      <trkpt lat="50.40273" lon="2.66774">
        <ele>147.7</ele>
        <time>2016-05-06T08:35:01Z</time>
      </trkpt>
      <trkpt lat="50.40265" lon="2.66756">
        <ele>148.18</ele>
        <time>2016-05-06T08:35:16Z</time>
      </trkpt>
      <trkpt lat="50.40262" lon="2.66752">
        <ele>148.18</ele>
        <time>2016-05-06T08:35:26Z</time>
      </trkpt>
      <trkpt lat="50.4026" lon="2.66753">
        <ele>149.14</ele>
        <time>2016-05-06T08:35:40Z</time>
      </trkpt>
      <trkpt lat="50.40256" lon="2.66755">
        <ele>150.58</ele>
        <time>2016-05-06T08:35:52Z</time>
      </trkpt>
      <trkpt lat="50.40259" lon="2.66759">
        <ele>151.06</ele>
        <time>2016-05-06T08:36:07Z</time>
      </trkpt>
      <trkpt lat="50.40262" lon="2.66757">
        <ele>149.62</ele>
        <time>2016-05-06T08:36:12Z</time>
      </trkpt>
      <trkpt lat="50.40263" lon="2.66756">
        <ele>149.14</ele>
        <time>2016-05-06T08:36:29Z</time>
      </trkpt>
      <trkpt lat="50.40265" lon="2.66754">
        <ele>148.18</ele>
        <time>2016-05-06T08:36:47Z</time>
      </trkpt>
      <trkpt lat="50.40266" lon="2.66756">
        <ele>149.62</ele>
        <time>2016-05-06T08:37:11Z</time>
      </trkpt>
      <trkpt lat="50.40267" lon="2.66756">
        <ele>148.66</ele>
        <time>2016-05-06T08:37:25Z</time>
      </trkpt>
      <trkpt lat="50.40269" lon="2.66756">
        <ele>147.7</ele>
        <time>2016-05-06T08:37:54Z</time>
      </trkpt>
      <trkpt lat="50.40268" lon="2.66757">
        <ele>147.7</ele>
        <time>2016-05-06T08:38:11Z</time>
      </trkpt>
      <trkpt lat="50.40259" lon="2.66752">
        <ele>150.1</ele>
        <time>2016-05-06T08:38:25Z</time>
      </trkpt>
      <trkpt lat="50.40257" lon="2.66749">
        <ele>150.1</ele>
        <time>2016-05-06T08:38:31Z</time>
      </trkpt>
      <trkpt lat="50.40257" lon="2.66743">
        <ele>147.22</ele>
        <time>2016-05-06T08:38:34Z</time>
      </trkpt>
      <trkpt lat="50.40254" lon="2.66728">
        <ele>146.74</ele>
        <time>2016-05-06T08:38:46Z</time>
      </trkpt>
      <trkpt lat="50.40256" lon="2.667">
        <ele>146.26</ele>
        <time>2016-05-06T08:39:00Z</time>
      </trkpt>
      <trkpt lat="50.40266" lon="2.66668">
        <ele>146.26</ele>
        <time>2016-05-06T08:39:14Z</time>
      </trkpt>
      <trkpt lat="50.40272" lon="2.66654">
        <ele>146.26</ele>
        <time>2016-05-06T08:39:21Z</time>
      </trkpt>
      <trkpt lat="50.40282" lon="2.66619">
        <ele>147.22</ele>
        <time>2016-05-06T08:39:37Z</time>
      </trkpt>
      <trkpt lat="50.40296" lon="2.66587">
        <ele>147.7</ele>
        <time>2016-05-06T08:39:54Z</time>
      </trkpt>
      <trkpt lat="50.40311" lon="2.66563">
        <ele>148.18</ele>
        <time>2016-05-06T08:40:09Z</time>
      </trkpt>
      <trkpt lat="50.40326" lon="2.66536">
        <ele>148.18</ele>
        <time>2016-05-06T08:40:23Z</time>
      </trkpt>
      <trkpt lat="50.40345" lon="2.66506">
        <ele>149.14</ele>
        <time>2016-05-06T08:40:40Z</time>
      </trkpt>
      <trkpt lat="50.40346" lon="2.66497">
        <ele>150.1</ele>
        <time>2016-05-06T08:40:51Z</time>
      </trkpt>
      <trkpt lat="50.40346" lon="2.66496">
        <ele>151.06</ele>
        <time>2016-05-06T08:41:02Z</time>
      </trkpt>
      <trkpt lat="50.40347" lon="2.66496">
        <ele>151.06</ele>
        <time>2016-05-06T08:41:05Z</time>
      </trkpt>
      <trkpt lat="50.40349" lon="2.66495">
        <ele>149.62</ele>
        <time>2016-05-06T08:41:08Z</time>
      </trkpt>
      <trkpt lat="50.4035" lon="2.66486">
        <ele>150.58</ele>
        <time>2016-05-06T08:41:20Z</time>
      </trkpt>
      <trkpt lat="50.4035" lon="2.66485">
        <ele>151.06</ele>
        <time>2016-05-06T08:41:36Z</time>
      </trkpt>
      <trkpt lat="50.40352" lon="2.66481">
        <ele>152.03</ele>
        <time>2016-05-06T08:41:49Z</time>
      </trkpt>
      <trkpt lat="50.40348" lon="2.66485">
        <ele>151.54</ele>
        <time>2016-05-06T08:42:02Z</time>
      </trkpt>
      <trkpt lat="50.40347" lon="2.66488">
        <ele>151.54</ele>
        <time>2016-05-06T08:42:16Z</time>
      </trkpt>
      <trkpt lat="50.40348" lon="2.66487">
        <ele>151.54</ele>
        <time>2016-05-06T08:42:32Z</time>
      </trkpt>
      <trkpt lat="50.40351" lon="2.66487">
        <ele>150.58</ele>
        <time>2016-05-06T08:42:38Z</time>
      </trkpt>
      <trkpt lat="50.40351" lon="2.66489">
        <ele>149.62</ele>
        <time>2016-05-06T08:43:05Z</time>
      </trkpt>
      <trkpt lat="50.40349" lon="2.6649">
        <ele>149.14</ele>
        <time>2016-05-06T08:43:32Z</time>
      </trkpt>
      <trkpt lat="50.40349" lon="2.66491">
        <ele>150.58</ele>
        <time>2016-05-06T08:43:43Z</time>
      </trkpt>
      <trkpt lat="50.40352" lon="2.6649">
        <ele>150.1</ele>
        <time>2016-05-06T08:44:26Z</time>
      </trkpt>
      <trkpt lat="50.4035" lon="2.66495">
        <ele>148.66</ele>
        <time>2016-05-06T08:44:36Z</time>
      </trkpt>
      <trkpt lat="50.40357" lon="2.6649">
        <ele>147.7</ele>
        <time>2016-05-06T08:44:47Z</time>
      </trkpt>
      <trkpt lat="50.40365" lon="2.66476">
        <ele>147.7</ele>
        <time>2016-05-06T08:44:59Z</time>
      </trkpt>
      <trkpt lat="50.4037" lon="2.66467">
        <ele>147.7</ele>
        <time>2016-05-06T08:45:04Z</time>
      </trkpt>
      <trkpt lat="50.40378" lon="2.66449">
        <ele>148.66</ele>
        <time>2016-05-06T08:45:14Z</time>
      </trkpt>
      <trkpt lat="50.40369" lon="2.66436">
        <ele>149.14</ele>
        <time>2016-05-06T08:45:23Z</time>
      </trkpt>
      <trkpt lat="50.40365" lon="2.66431">
        <ele>150.1</ele>
        <time>2016-05-06T08:45:28Z</time>
      </trkpt>
      <trkpt lat="50.40361" lon="2.66423">
        <ele>151.06</ele>
        <time>2016-05-06T08:45:33Z</time>
      </trkpt>
      <trkpt lat="50.40363" lon="2.66399">
        <ele>151.54</ele>
        <time>2016-05-06T08:45:43Z</time>
      </trkpt>
      <trkpt lat="50.40375" lon="2.66386">
        <ele>152.51</ele>
        <time>2016-05-06T08:45:53Z</time>
      </trkpt>
      <trkpt lat="50.40394" lon="2.66372">
        <ele>152.51</ele>
        <time>2016-05-06T08:46:07Z</time>
      </trkpt>
      <trkpt lat="50.40416" lon="2.66357">
        <ele>152.51</ele>
        <time>2016-05-06T08:46:21Z</time>
      </trkpt>
      <trkpt lat="50.40421" lon="2.66352">
        <ele>152.51</ele>
        <time>2016-05-06T08:46:25Z</time>
      </trkpt>
      <trkpt lat="50.40437" lon="2.66337">
        <ele>152.99</ele>
        <time>2016-05-06T08:46:37Z</time>
      </trkpt>
      <trkpt lat="50.40434" lon="2.66354">
        <ele>152.99</ele>
        <time>2016-05-06T08:46:45Z</time>
      </trkpt>
      <trkpt lat="50.40425" lon="2.66378">
        <ele>152.51</ele>
        <time>2016-05-06T08:46:57Z</time>
      </trkpt>
      <trkpt lat="50.40421" lon="2.66411">
        <ele>152.03</ele>
        <time>2016-05-06T08:47:11Z</time>
      </trkpt>
      <trkpt lat="50.40413" lon="2.66442">
        <ele>152.03</ele>
        <time>2016-05-06T08:47:23Z</time>
      </trkpt>
      <trkpt lat="50.40405" lon="2.66478">
        <ele>153.47</ele>
        <time>2016-05-06T08:47:39Z</time>
      </trkpt>
      <trkpt lat="50.40398" lon="2.66516">
        <ele>155.87</ele>
        <time>2016-05-06T08:47:57Z</time>
      </trkpt>
      <trkpt lat="50.4039" lon="2.66558">
        <ele>156.83</ele>
        <time>2016-05-06T08:48:15Z</time>
      </trkpt>
      <trkpt lat="50.40381" lon="2.66593">
        <ele>156.83</ele>
        <time>2016-05-06T08:48:30Z</time>
      </trkpt>
      <trkpt lat="50.40379" lon="2.66627">
        <ele>156.83</ele>
        <time>2016-05-06T08:48:45Z</time>
      </trkpt>
      <trkpt lat="50.40401" lon="2.66644">
        <ele>157.31</ele>
        <time>2016-05-06T08:49:01Z</time>
      </trkpt>
      <trkpt lat="50.40423" lon="2.66656">
        <ele>158.27</ele>
        <time>2016-05-06T08:49:16Z</time>
      </trkpt>
      <trkpt lat="50.40445" lon="2.66668">
        <ele>159.24</ele>
        <time>2016-05-06T08:49:31Z</time>
      </trkpt>
      <trkpt lat="50.40469" lon="2.66681">
        <ele>159.24</ele>
        <time>2016-05-06T08:49:48Z</time>
      </trkpt>
      <trkpt lat="50.40496" lon="2.66696">
        <ele>160.2</ele>
        <time>2016-05-06T08:50:07Z</time>
      </trkpt>
      <trkpt lat="50.40518" lon="2.6671">
        <ele>160.68</ele>
        <time>2016-05-06T08:50:23Z</time>
      </trkpt>
      <trkpt lat="50.40537" lon="2.66722">
        <ele>160.68</ele>
        <time>2016-05-06T08:50:37Z</time>
      </trkpt>
      <trkpt lat="50.40547" lon="2.66729">
        <ele>161.16</ele>
        <time>2016-05-06T08:50:45Z</time>
      </trkpt>
      <trkpt lat="50.40548" lon="2.6673">
        <ele>161.16</ele>
        <time>2016-05-06T08:50:46Z</time>
      </trkpt>
      <trkpt lat="50.40577" lon="2.66745">
        <ele>161.64</ele>
        <time>2016-05-06T08:51:05Z</time>
      </trkpt>
      <trkpt lat="50.40591" lon="2.66752">
        <ele>162.12</ele>
        <time>2016-05-06T08:51:15Z</time>
      </trkpt>
      <trkpt lat="50.40593" lon="2.66753">
        <ele>162.12</ele>
        <time>2016-05-06T08:51:16Z</time>
      </trkpt>
      <trkpt lat="50.40616" lon="2.66768">
        <ele>162.12</ele>
        <time>2016-05-06T08:51:33Z</time>
      </trkpt>
      <trkpt lat="50.4064" lon="2.66783">
        <ele>163.08</ele>
        <time>2016-05-06T08:51:50Z</time>
      </trkpt>
      <trkpt lat="50.40663" lon="2.66796">
        <ele>163.56</ele>
        <time>2016-05-06T08:52:05Z</time>
      </trkpt>
      <trkpt lat="50.40671" lon="2.66803">
        <ele>163.56</ele>
        <time>2016-05-06T08:52:12Z</time>
      </trkpt>
      <trkpt lat="50.40692" lon="2.66814">
        <ele>164.04</ele>
        <time>2016-05-06T08:52:26Z</time>
      </trkpt>
      <trkpt lat="50.40714" lon="2.66825">
        <ele>165</ele>
        <time>2016-05-06T08:52:40Z</time>
      </trkpt>
      <trkpt lat="50.40732" lon="2.66836">
        <ele>165.48</ele>
        <time>2016-05-06T08:52:53Z</time>
      </trkpt>
      <trkpt lat="50.40742" lon="2.66841">
        <ele>165.48</ele>
        <time>2016-05-06T08:53:00Z</time>
      </trkpt>
      <trkpt lat="50.40742" lon="2.66843">
        <ele>166.45</ele>
        <time>2016-05-06T08:53:01Z</time>
      </trkpt>
      <trkpt lat="50.40743" lon="2.66845">
        <ele>166.45</ele>
        <time>2016-05-06T08:53:02Z</time>
      </trkpt>
      <trkpt lat="50.40744" lon="2.66847">
        <ele>166.45</ele>
        <time>2016-05-06T08:53:03Z</time>
      </trkpt>
      <trkpt lat="50.40744" lon="2.66849">
        <ele>166.45</ele>
        <time>2016-05-06T08:53:04Z</time>
      </trkpt>
      <trkpt lat="50.40744" lon="2.66851">
        <ele>165.96</ele>
        <time>2016-05-06T08:53:05Z</time>
      </trkpt>
      <trkpt lat="50.40744" lon="2.66853">
        <ele>165.96</ele>
        <time>2016-05-06T08:53:06Z</time>
      </trkpt>
      <trkpt lat="50.40744" lon="2.66855">
        <ele>165.96</ele>
        <time>2016-05-06T08:53:07Z</time>
      </trkpt>
      <trkpt lat="50.40743" lon="2.66858">
        <ele>166.45</ele>
        <time>2016-05-06T08:53:08Z</time>
      </trkpt>
      <trkpt lat="50.40743" lon="2.6686">
        <ele>166.45</ele>
        <time>2016-05-06T08:53:09Z</time>
      </trkpt>
      <trkpt lat="50.40743" lon="2.66863">
        <ele>166.45</ele>
        <time>2016-05-06T08:53:10Z</time>
      </trkpt>
      <trkpt lat="50.40742" lon="2.66865">
        <ele>166.45</ele>
        <time>2016-05-06T08:53:11Z</time>
      </trkpt>
      <trkpt lat="50.40742" lon="2.66867">
        <ele>166.45</ele>
        <time>2016-05-06T08:53:12Z</time>
      </trkpt>
      <trkpt lat="50.40742" lon="2.66869">
        <ele>166.45</ele>
        <time>2016-05-06T08:53:13Z</time>
      </trkpt>
      <trkpt lat="50.40741" lon="2.66871">
        <ele>166.45</ele>
        <time>2016-05-06T08:53:14Z</time>
      </trkpt>
      <trkpt lat="50.40741" lon="2.66873">
        <ele>166.45</ele>
        <time>2016-05-06T08:53:15Z</time>
      </trkpt>
      <trkpt lat="50.4074" lon="2.66878">
        <ele>165</ele>
        <time>2016-05-06T08:53:17Z</time>
      </trkpt>
      <trkpt lat="50.40734" lon="2.66914">
        <ele>165</ele>
        <time>2016-05-06T08:53:32Z</time>
      </trkpt>
      <trkpt lat="50.40727" lon="2.66952">
        <ele>164.52</ele>
        <time>2016-05-06T08:53:48Z</time>
      </trkpt>
      <trkpt lat="50.40722" lon="2.66987">
        <ele>165.96</ele>
        <time>2016-05-06T08:54:03Z</time>
      </trkpt>
      <trkpt lat="50.40714" lon="2.67027">
        <ele>166.93</ele>
        <time>2016-05-06T08:54:21Z</time>
      </trkpt>
      <trkpt lat="50.40705" lon="2.67072">
        <ele>167.41</ele>
        <time>2016-05-06T08:54:41Z</time>
      </trkpt>
      <trkpt lat="50.40697" lon="2.67121">
        <ele>167.41</ele>
        <time>2016-05-06T08:55:02Z</time>
      </trkpt>
      <trkpt lat="50.40688" lon="2.67173">
        <ele>167.41</ele>
        <time>2016-05-06T08:55:24Z</time>
      </trkpt>
      <trkpt lat="50.40679" lon="2.67219">
        <ele>165.48</ele>
        <time>2016-05-06T08:55:44Z</time>
      </trkpt>
      <trkpt lat="50.4067" lon="2.67267">
        <ele>165</ele>
        <time>2016-05-06T08:56:05Z</time>
      </trkpt>
      <trkpt lat="50.40662" lon="2.67317">
        <ele>164.04</ele>
        <time>2016-05-06T08:56:27Z</time>
      </trkpt>
      <trkpt lat="50.40657" lon="2.67351">
        <ele>164.04</ele>
        <time>2016-05-06T08:56:42Z</time>
      </trkpt>
      <trkpt lat="50.40652" lon="2.67389">
        <ele>164.04</ele>
        <time>2016-05-06T08:57:00Z</time>
      </trkpt>
      <trkpt lat="50.40646" lon="2.67417">
        <ele>164.04</ele>
        <time>2016-05-06T08:57:15Z</time>
      </trkpt>
      <trkpt lat="50.4064" lon="2.67423">
        <ele>164.04</ele>
        <time>2016-05-06T08:57:29Z</time>
      </trkpt>
      <trkpt lat="50.40637" lon="2.67432">
        <ele>164.04</ele>
        <time>2016-05-06T08:57:42Z</time>
      </trkpt>
      <trkpt lat="50.40634" lon="2.67434">
        <ele>163.08</ele>
        <time>2016-05-06T08:57:57Z</time>
      </trkpt>
      <trkpt lat="50.40635" lon="2.67437">
        <ele>163.08</ele>
        <time>2016-05-06T08:58:18Z</time>
      </trkpt>
      <trkpt lat="50.40632" lon="2.67442">
        <ele>163.08</ele>
        <time>2016-05-06T08:58:41Z</time>
      </trkpt>
      <trkpt lat="50.40629" lon="2.67441">
        <ele>162.6</ele>
        <time>2016-05-06T08:59:09Z</time>
      </trkpt>
      <trkpt lat="50.4063" lon="2.67441">
        <ele>162.6</ele>
        <time>2016-05-06T08:59:27Z</time>
      </trkpt>
      <trkpt lat="50.4063" lon="2.67437">
        <ele>162.6</ele>
        <time>2016-05-06T08:59:43Z</time>
      </trkpt>
      <trkpt lat="50.40637" lon="2.67433">
        <ele>162.6</ele>
        <time>2016-05-06T09:00:25Z</time>
      </trkpt>
      <trkpt lat="50.40639" lon="2.67439">
        <ele>163.56</ele>
        <time>2016-05-06T09:00:57Z</time>
      </trkpt>
      <trkpt lat="50.40637" lon="2.6744">
        <ele>162.6</ele>
        <time>2016-05-06T09:01:35Z</time>
      </trkpt>
      <trkpt lat="50.4063" lon="2.67439">
        <ele>162.6</ele>
        <time>2016-05-06T09:01:53Z</time>
      </trkpt>
      <trkpt lat="50.40631" lon="2.67442">
        <ele>162.6</ele>
        <time>2016-05-06T09:02:10Z</time>
      </trkpt>
      <trkpt lat="50.40627" lon="2.67456">
        <ele>162.12</ele>
        <time>2016-05-06T09:02:49Z</time>
      </trkpt>
      <trkpt lat="50.40627" lon="2.67452">
        <ele>162.12</ele>
        <time>2016-05-06T09:03:13Z</time>
      </trkpt>
      <trkpt lat="50.40627" lon="2.67449">
        <ele>162.12</ele>
        <time>2016-05-06T09:03:30Z</time>
      </trkpt>
      <trkpt lat="50.4063" lon="2.6744">
        <ele>162.12</ele>
        <time>2016-05-06T09:03:55Z</time>
      </trkpt>
      <trkpt lat="50.4064" lon="2.67424">
        <ele>162.12</ele>
        <time>2016-05-06T09:04:04Z</time>
      </trkpt>
      <trkpt lat="50.40646" lon="2.67413">
        <ele>163.08</ele>
        <time>2016-05-06T09:04:13Z</time>
      </trkpt>
      <trkpt lat="50.40651" lon="2.67383">
        <ele>163.08</ele>
        <time>2016-05-06T09:04:30Z</time>
      </trkpt>
      <trkpt lat="50.40652" lon="2.67375">
        <ele>161.64</ele>
        <time>2016-05-06T09:04:34Z</time>
      </trkpt>
      <trkpt lat="50.40655" lon="2.67344">
        <ele>161.64</ele>
        <time>2016-05-06T09:04:48Z</time>
      </trkpt>
      <trkpt lat="50.40657" lon="2.67331">
        <ele>163.56</ele>
        <time>2016-05-06T09:04:54Z</time>
      </trkpt>
      <trkpt lat="50.4067" lon="2.67288">
        <ele>163.56</ele>
        <time>2016-05-06T09:05:15Z</time>
      </trkpt>
      <trkpt lat="50.4068" lon="2.67237">
        <ele>164.52</ele>
        <time>2016-05-06T09:05:38Z</time>
      </trkpt>
      <trkpt lat="50.40687" lon="2.67199">
        <ele>164.52</ele>
        <time>2016-05-06T09:05:53Z</time>
      </trkpt>
      <trkpt lat="50.40694" lon="2.67165">
        <ele>165.48</ele>
        <time>2016-05-06T09:06:08Z</time>
      </trkpt>
      <trkpt lat="50.407" lon="2.67129">
        <ele>165.48</ele>
        <time>2016-05-06T09:06:23Z</time>
      </trkpt>
      <trkpt lat="50.40708" lon="2.67083">
        <ele>165.96</ele>
        <time>2016-05-06T09:06:42Z</time>
      </trkpt>
      <trkpt lat="50.40709" lon="2.67071">
        <ele>165.96</ele>
        <time>2016-05-06T09:06:47Z</time>
      </trkpt>
      <trkpt lat="50.4071" lon="2.67069">
        <ele>165.96</ele>
        <time>2016-05-06T09:06:48Z</time>
      </trkpt>
      <trkpt lat="50.40711" lon="2.67066">
        <ele>165.96</ele>
        <time>2016-05-06T09:06:49Z</time>
      </trkpt>
      <trkpt lat="50.40711" lon="2.67064">
        <ele>165.96</ele>
        <time>2016-05-06T09:06:50Z</time>
      </trkpt>
      <trkpt lat="50.40711" lon="2.67061">
        <ele>165.96</ele>
        <time>2016-05-06T09:06:51Z</time>
      </trkpt>
      <trkpt lat="50.40715" lon="2.67038">
        <ele>165.96</ele>
        <time>2016-05-06T09:07:06Z</time>
      </trkpt>
      <trkpt lat="50.40715" lon="2.67038">
        <ele>165.96</ele>
        <time>2016-05-06T09:07:11Z</time>
      </trkpt>
      <trkpt lat="50.40715" lon="2.67036">
        <ele>165.48</ele>
        <time>2016-05-06T09:07:12Z</time>
      </trkpt>
      <trkpt lat="50.40715" lon="2.67033">
        <ele>165.48</ele>
        <time>2016-05-06T09:07:13Z</time>
      </trkpt>
      <trkpt lat="50.40723" lon="2.66998">
        <ele>165.48</ele>
        <time>2016-05-06T09:07:28Z</time>
      </trkpt>
      <trkpt lat="50.40729" lon="2.66964">
        <ele>164.04</ele>
        <time>2016-05-06T09:07:42Z</time>
      </trkpt>
      <trkpt lat="50.40735" lon="2.66931">
        <ele>163.08</ele>
        <time>2016-05-06T09:07:56Z</time>
      </trkpt>
      <trkpt lat="50.40741" lon="2.66896">
        <ele>163.08</ele>
        <time>2016-05-06T09:08:11Z</time>
      </trkpt>
      <trkpt lat="50.40747" lon="2.66861">
        <ele>163.08</ele>
        <time>2016-05-06T09:08:27Z</time>
      </trkpt>
      <trkpt lat="50.40734" lon="2.6684">
        <ele>161.64</ele>
        <time>2016-05-06T09:08:40Z</time>
      </trkpt>
      <trkpt lat="50.40716" lon="2.66827">
        <ele>161.64</ele>
        <time>2016-05-06T09:08:53Z</time>
      </trkpt>
      <trkpt lat="50.40694" lon="2.66815">
        <ele>161.16</ele>
        <time>2016-05-06T09:09:08Z</time>
      </trkpt>
      <trkpt lat="50.40673" lon="2.66803">
        <ele>160.2</ele>
        <time>2016-05-06T09:09:22Z</time>
      </trkpt>
      <trkpt lat="50.40653" lon="2.66791">
        <ele>159.24</ele>
        <time>2016-05-06T09:09:36Z</time>
      </trkpt>
      <trkpt lat="50.40632" lon="2.66779">
        <ele>158.75</ele>
        <time>2016-05-06T09:09:50Z</time>
      </trkpt>
      <trkpt lat="50.40627" lon="2.66775">
        <ele>158.75</ele>
        <time>2016-05-06T09:09:54Z</time>
      </trkpt>
      <trkpt lat="50.40626" lon="2.66774">
        <ele>158.75</ele>
        <time>2016-05-06T09:09:55Z</time>
      </trkpt>
      <trkpt lat="50.40612" lon="2.66766">
        <ele>158.75</ele>
        <time>2016-05-06T09:10:05Z</time>
      </trkpt>
      <trkpt lat="50.4061" lon="2.66764">
        <ele>158.75</ele>
        <time>2016-05-06T09:10:06Z</time>
      </trkpt>
      <trkpt lat="50.40585" lon="2.66749">
        <ele>157.79</ele>
        <time>2016-05-06T09:10:23Z</time>
      </trkpt>
      <trkpt lat="50.40566" lon="2.66739">
        <ele>157.31</ele>
        <time>2016-05-06T09:10:36Z</time>
      </trkpt>
      <trkpt lat="50.40547" lon="2.66729">
        <ele>156.83</ele>
        <time>2016-05-06T09:10:49Z</time>
      </trkpt>
      <trkpt lat="50.40525" lon="2.66715">
        <ele>156.35</ele>
        <time>2016-05-06T09:11:04Z</time>
      </trkpt>
      <trkpt lat="50.40504" lon="2.66703">
        <ele>155.39</ele>
        <time>2016-05-06T09:11:18Z</time>
      </trkpt>
      <trkpt lat="50.40483" lon="2.66691">
        <ele>154.43</ele>
        <time>2016-05-06T09:11:33Z</time>
      </trkpt>
      <trkpt lat="50.40458" lon="2.66676">
        <ele>153.47</ele>
        <time>2016-05-06T09:11:50Z</time>
      </trkpt>
      <trkpt lat="50.40435" lon="2.66663">
        <ele>152.99</ele>
        <time>2016-05-06T09:12:06Z</time>
      </trkpt>
      <trkpt lat="50.40408" lon="2.66648">
        <ele>152.03</ele>
        <time>2016-05-06T09:12:24Z</time>
      </trkpt>
      <trkpt lat="50.40389" lon="2.66637">
        <ele>151.06</ele>
        <time>2016-05-06T09:12:37Z</time>
      </trkpt>
      <trkpt lat="50.40377" lon="2.66614">
        <ele>151.06</ele>
        <time>2016-05-06T09:12:50Z</time>
      </trkpt>
      <trkpt lat="50.40384" lon="2.66587">
        <ele>151.06</ele>
        <time>2016-05-06T09:13:03Z</time>
      </trkpt>
      <trkpt lat="50.40385" lon="2.6658">
        <ele>150.58</ele>
        <time>2016-05-06T09:13:06Z</time>
      </trkpt>
      <trkpt lat="50.40386" lon="2.66578">
        <ele>150.58</ele>
        <time>2016-05-06T09:13:07Z</time>
      </trkpt>
      <trkpt lat="50.40386" lon="2.66575">
        <ele>150.58</ele>
        <time>2016-05-06T09:13:08Z</time>
      </trkpt>
      <trkpt lat="50.40387" lon="2.66573">
        <ele>150.58</ele>
        <time>2016-05-06T09:13:09Z</time>
      </trkpt>
      <trkpt lat="50.40387" lon="2.66571">
        <ele>150.58</ele>
        <time>2016-05-06T09:13:10Z</time>
      </trkpt>
      <trkpt lat="50.40388" lon="2.66569">
        <ele>150.1</ele>
        <time>2016-05-06T09:13:11Z</time>
      </trkpt>
      <trkpt lat="50.40395" lon="2.66533">
        <ele>150.1</ele>
        <time>2016-05-06T09:13:26Z</time>
      </trkpt>
      <trkpt lat="50.40397" lon="2.66527">
        <ele>149.62</ele>
        <time>2016-05-06T09:13:29Z</time>
      </trkpt>
      <trkpt lat="50.40398" lon="2.66525">
        <ele>149.62</ele>
        <time>2016-05-06T09:13:30Z</time>
      </trkpt>
      <trkpt lat="50.40404" lon="2.66499">
        <ele>147.7</ele>
        <time>2016-05-06T09:13:43Z</time>
      </trkpt>
      <trkpt lat="50.40412" lon="2.66466">
        <ele>145.78</ele>
        <time>2016-05-06T09:13:58Z</time>
      </trkpt>
      <trkpt lat="50.4042" lon="2.66426">
        <ele>145.78</ele>
        <time>2016-05-06T09:14:13Z</time>
      </trkpt>
      <trkpt lat="50.40422" lon="2.66413">
        <ele>145.78</ele>
        <time>2016-05-06T09:14:20Z</time>
      </trkpt>
      <trkpt lat="50.40422" lon="2.6641">
        <ele>145.78</ele>
        <time>2016-05-06T09:14:21Z</time>
      </trkpt>
      <trkpt lat="50.40429" lon="2.66376">
        <ele>145.78</ele>
        <time>2016-05-06T09:14:36Z</time>
      </trkpt>
      <trkpt lat="50.40436" lon="2.66355">
        <ele>145.78</ele>
        <time>2016-05-06T09:14:45Z</time>
      </trkpt>
      <trkpt lat="50.40436" lon="2.66353">
        <ele>145.78</ele>
        <time>2016-05-06T09:14:46Z</time>
      </trkpt>
      <trkpt lat="50.40436" lon="2.66351">
        <ele>145.78</ele>
        <time>2016-05-06T09:14:47Z</time>
      </trkpt>
      <trkpt lat="50.40434" lon="2.66349">
        <ele>145.78</ele>
        <time>2016-05-06T09:14:48Z</time>
      </trkpt>
      <trkpt lat="50.40433" lon="2.66348">
        <ele>145.78</ele>
        <time>2016-05-06T09:14:49Z</time>
      </trkpt>
      <trkpt lat="50.40428" lon="2.66347">
        <ele>145.3</ele>
        <time>2016-05-06T09:14:52Z</time>
      </trkpt>
      <trkpt lat="50.40427" lon="2.66348">
        <ele>145.3</ele>
        <time>2016-05-06T09:14:53Z</time>
      </trkpt>
      <trkpt lat="50.40414" lon="2.66354">
        <ele>144.34</ele>
        <time>2016-05-06T09:15:02Z</time>
      </trkpt>
      <trkpt lat="50.40413" lon="2.66354">
        <ele>144.34</ele>
        <time>2016-05-06T09:15:03Z</time>
      </trkpt>
      <trkpt lat="50.40411" lon="2.66355">
        <ele>144.34</ele>
        <time>2016-05-06T09:15:04Z</time>
      </trkpt>
      <trkpt lat="50.4041" lon="2.66356">
        <ele>144.34</ele>
        <time>2016-05-06T09:15:05Z</time>
      </trkpt>
      <trkpt lat="50.40394" lon="2.66369">
        <ele>144.34</ele>
        <time>2016-05-06T09:15:16Z</time>
      </trkpt>
      <trkpt lat="50.40373" lon="2.6638">
        <ele>143.85</ele>
        <time>2016-05-06T09:15:31Z</time>
      </trkpt>
      <trkpt lat="50.40361" lon="2.66397">
        <ele>143.37</ele>
        <time>2016-05-06T09:15:44Z</time>
      </trkpt>
      <trkpt lat="50.40361" lon="2.66399">
        <ele>143.37</ele>
        <time>2016-05-06T09:15:45Z</time>
      </trkpt>
      <trkpt lat="50.4036" lon="2.66401">
        <ele>142.89</ele>
        <time>2016-05-06T09:15:46Z</time>
      </trkpt>
      <trkpt lat="50.4036" lon="2.66403">
        <ele>142.89</ele>
        <time>2016-05-06T09:15:47Z</time>
      </trkpt>
      <trkpt lat="50.40359" lon="2.66405">
        <ele>142.89</ele>
        <time>2016-05-06T09:15:48Z</time>
      </trkpt>
      <trkpt lat="50.40359" lon="2.6641">
        <ele>142.89</ele>
        <time>2016-05-06T09:15:51Z</time>
      </trkpt>
      <trkpt lat="50.40359" lon="2.66412">
        <ele>142.89</ele>
        <time>2016-05-06T09:15:52Z</time>
      </trkpt>
      <trkpt lat="50.4036" lon="2.66414">
        <ele>142.89</ele>
        <time>2016-05-06T09:15:53Z</time>
      </trkpt>
      <trkpt lat="50.40362" lon="2.66419">
        <ele>142.41</ele>
        <time>2016-05-06T09:15:56Z</time>
      </trkpt>
      <trkpt lat="50.40377" lon="2.66433">
        <ele>140.97</ele>
        <time>2016-05-06T09:16:08Z</time>
      </trkpt>
      <trkpt lat="50.40377" lon="2.66438">
        <ele>140.01</ele>
        <time>2016-05-06T09:16:11Z</time>
      </trkpt>
      <trkpt lat="50.40372" lon="2.66453">
        <ele>140.01</ele>
        <time>2016-05-06T09:16:20Z</time>
      </trkpt>
      <trkpt lat="50.40371" lon="2.66455">
        <ele>140.01</ele>
        <time>2016-05-06T09:16:21Z</time>
      </trkpt>
      <trkpt lat="50.4037" lon="2.66457">
        <ele>140.01</ele>
        <time>2016-05-06T09:16:22Z</time>
      </trkpt>
      <trkpt lat="50.40368" lon="2.6646">
        <ele>140.01</ele>
        <time>2016-05-06T09:16:24Z</time>
      </trkpt>
      <trkpt lat="50.40367" lon="2.66462">
        <ele>140.01</ele>
        <time>2016-05-06T09:16:25Z</time>
      </trkpt>
      <trkpt lat="50.40365" lon="2.66465">
        <ele>140.01</ele>
        <time>2016-05-06T09:16:26Z</time>
      </trkpt>
      <trkpt lat="50.4036" lon="2.66475">
        <ele>140.01</ele>
        <time>2016-05-06T09:16:32Z</time>
      </trkpt>
      <trkpt lat="50.40359" lon="2.66477">
        <ele>140.01</ele>
        <time>2016-05-06T09:16:33Z</time>
      </trkpt>
      <trkpt lat="50.40349" lon="2.66497">
        <ele>139.05</ele>
        <time>2016-05-06T09:16:45Z</time>
      </trkpt>
      <trkpt lat="50.40348" lon="2.66499">
        <ele>139.05</ele>
        <time>2016-05-06T09:16:46Z</time>
      </trkpt>
      <trkpt lat="50.40347" lon="2.66501">
        <ele>139.05</ele>
        <time>2016-05-06T09:16:47Z</time>
      </trkpt>
      <trkpt lat="50.40345" lon="2.66503">
        <ele>139.05</ele>
        <time>2016-05-06T09:16:48Z</time>
      </trkpt>
      <trkpt lat="50.40344" lon="2.66505">
        <ele>139.05</ele>
        <time>2016-05-06T09:16:49Z</time>
      </trkpt>
      <trkpt lat="50.40331" lon="2.66528">
        <ele>139.05</ele>
        <time>2016-05-06T09:17:01Z</time>
      </trkpt>
      <trkpt lat="50.40315" lon="2.66553">
        <ele>139.05</ele>
        <time>2016-05-06T09:17:17Z</time>
      </trkpt>
      <trkpt lat="50.40299" lon="2.66579">
        <ele>138.09</ele>
        <time>2016-05-06T09:17:32Z</time>
      </trkpt>
      <trkpt lat="50.40287" lon="2.66605">
        <ele>137.13</ele>
        <time>2016-05-06T09:17:45Z</time>
      </trkpt>
      <trkpt lat="50.40279" lon="2.66633">
        <ele>137.13</ele>
        <time>2016-05-06T09:17:59Z</time>
      </trkpt>
      <trkpt lat="50.40274" lon="2.66649">
        <ele>137.13</ele>
        <time>2016-05-06T09:18:07Z</time>
      </trkpt>
      <trkpt lat="50.40262" lon="2.66674">
        <ele>137.13</ele>
        <time>2016-05-06T09:18:21Z</time>
      </trkpt>
      <trkpt lat="50.4026" lon="2.66685">
        <ele>136.64</ele>
        <time>2016-05-06T09:18:26Z</time>
      </trkpt>
      <trkpt lat="50.40254" lon="2.66702">
        <ele>136.64</ele>
        <time>2016-05-06T09:18:33Z</time>
      </trkpt>
      <trkpt lat="50.40254" lon="2.66732">
        <ele>136.16</ele>
        <time>2016-05-06T09:18:46Z</time>
      </trkpt>
      <trkpt lat="50.40258" lon="2.66757">
        <ele>136.16</ele>
        <time>2016-05-06T09:18:59Z</time>
      </trkpt>
      <trkpt lat="50.40262" lon="2.66774">
        <ele>135.2</ele>
        <time>2016-05-06T09:19:07Z</time>
      </trkpt>
      <trkpt lat="50.40268" lon="2.66797">
        <ele>134.72</ele>
        <time>2016-05-06T09:19:20Z</time>
      </trkpt>
      <trkpt lat="50.40271" lon="2.66809">
        <ele>134.72</ele>
        <time>2016-05-06T09:19:25Z</time>
      </trkpt>
      <trkpt lat="50.40272" lon="2.66814">
        <ele>134.72</ele>
        <time>2016-05-06T09:19:27Z</time>
      </trkpt>
      <trkpt lat="50.40284" lon="2.66834">
        <ele>133.76</ele>
        <time>2016-05-06T09:19:39Z</time>
      </trkpt>
      <trkpt lat="50.40289" lon="2.66863">
        <ele>131.36</ele>
        <time>2016-05-06T09:19:54Z</time>
      </trkpt>
      <trkpt lat="50.40291" lon="2.66878">
        <ele>130.88</ele>
        <time>2016-05-06T09:20:01Z</time>
      </trkpt>
      <trkpt lat="50.40291" lon="2.66901">
        <ele>129.92</ele>
        <time>2016-05-06T09:20:10Z</time>
      </trkpt>
      <trkpt lat="50.40291" lon="2.66903">
        <ele>129.92</ele>
        <time>2016-05-06T09:20:11Z</time>
      </trkpt>
      <trkpt lat="50.40291" lon="2.66935">
        <ele>129.43</ele>
        <time>2016-05-06T09:20:24Z</time>
      </trkpt>
      <trkpt lat="50.40287" lon="2.66963">
        <ele>128.95</ele>
        <time>2016-05-06T09:20:36Z</time>
      </trkpt>
      <trkpt lat="50.40284" lon="2.66995">
        <ele>127.99</ele>
        <time>2016-05-06T09:20:53Z</time>
      </trkpt>
      <trkpt lat="50.4028" lon="2.67031">
        <ele>127.03</ele>
        <time>2016-05-06T09:21:06Z</time>
      </trkpt>
      <trkpt lat="50.40274" lon="2.67045">
        <ele>125.59</ele>
        <time>2016-05-06T09:21:13Z</time>
      </trkpt>
      <trkpt lat="50.40259" lon="2.67055">
        <ele>125.59</ele>
        <time>2016-05-06T09:21:25Z</time>
      </trkpt>
      <trkpt lat="50.40247" lon="2.67068">
        <ele>123.67</ele>
        <time>2016-05-06T09:21:35Z</time>
      </trkpt>
      <trkpt lat="50.40239" lon="2.67088">
        <ele>122.71</ele>
        <time>2016-05-06T09:21:48Z</time>
      </trkpt>
      <trkpt lat="50.40227" lon="2.67113">
        <ele>122.22</ele>
        <time>2016-05-06T09:22:01Z</time>
      </trkpt>
      <trkpt lat="50.40217" lon="2.67136">
        <ele>121.74</ele>
        <time>2016-05-06T09:22:14Z</time>
      </trkpt>
      <trkpt lat="50.40211" lon="2.67157">
        <ele>121.74</ele>
        <time>2016-05-06T09:22:25Z</time>
      </trkpt>
      <trkpt lat="50.40205" lon="2.67192">
        <ele>120.3</ele>
        <time>2016-05-06T09:22:39Z</time>
      </trkpt>
      <trkpt lat="50.40197" lon="2.6722">
        <ele>120.3</ele>
        <time>2016-05-06T09:22:52Z</time>
      </trkpt>
      <trkpt lat="50.40188" lon="2.67243">
        <ele>120.3</ele>
        <time>2016-05-06T09:23:08Z</time>
      </trkpt>
      <trkpt lat="50.40168" lon="2.67271">
        <ele>119.34</ele>
        <time>2016-05-06T09:23:22Z</time>
      </trkpt>
      <trkpt lat="50.40167" lon="2.67273">
        <ele>119.34</ele>
        <time>2016-05-06T09:23:23Z</time>
      </trkpt>
      <trkpt lat="50.40156" lon="2.67294">
        <ele>119.34</ele>
        <time>2016-05-06T09:23:34Z</time>
      </trkpt>
      <trkpt lat="50.40147" lon="2.67315">
        <ele>118.38</ele>
        <time>2016-05-06T09:23:44Z</time>
      </trkpt>
      <trkpt lat="50.40142" lon="2.6734">
        <ele>118.38</ele>
        <time>2016-05-06T09:23:55Z</time>
      </trkpt>
      <trkpt lat="50.40139" lon="2.67361">
        <ele>117.9</ele>
        <time>2016-05-06T09:24:07Z</time>
      </trkpt>
      <trkpt lat="50.40137" lon="2.67367">
        <ele>117.9</ele>
        <time>2016-05-06T09:24:09Z</time>
      </trkpt>
      <trkpt lat="50.40137" lon="2.67389">
        <ele>117.9</ele>
        <time>2016-05-06T09:24:19Z</time>
      </trkpt>
      <trkpt lat="50.40134" lon="2.67412">
        <ele>117.9</ele>
        <time>2016-05-06T09:24:30Z</time>
      </trkpt>
      <trkpt lat="50.4013" lon="2.67418">
        <ele>117.42</ele>
        <time>2016-05-06T09:24:34Z</time>
      </trkpt>
      <trkpt lat="50.40122" lon="2.6744">
        <ele>117.42</ele>
        <time>2016-05-06T09:24:45Z</time>
      </trkpt>
      <trkpt lat="50.40118" lon="2.67466">
        <ele>117.42</ele>
        <time>2016-05-06T09:24:59Z</time>
      </trkpt>
      <trkpt lat="50.40113" lon="2.67495">
        <ele>115.98</ele>
        <time>2016-05-06T09:25:12Z</time>
      </trkpt>
      <trkpt lat="50.40112" lon="2.67496">
        <ele>115.98</ele>
        <time>2016-05-06T09:25:13Z</time>
      </trkpt>
      <trkpt lat="50.40104" lon="2.67531">
        <ele>115.98</ele>
        <time>2016-05-06T09:25:27Z</time>
      </trkpt>
      <trkpt lat="50.401" lon="2.67556">
        <ele>115.5</ele>
        <time>2016-05-06T09:25:39Z</time>
      </trkpt>
      <trkpt lat="50.40092" lon="2.67584">
        <ele>115.01</ele>
        <time>2016-05-06T09:25:50Z</time>
      </trkpt>
      <trkpt lat="50.40091" lon="2.67589">
        <ele>115.01</ele>
        <time>2016-05-06T09:25:52Z</time>
      </trkpt>
      <trkpt lat="50.40082" lon="2.67613">
        <ele>115.01</ele>
        <time>2016-05-06T09:26:05Z</time>
      </trkpt>
      <trkpt lat="50.40074" lon="2.67636">
        <ele>115.01</ele>
        <time>2016-05-06T09:26:16Z</time>
      </trkpt>
      <trkpt lat="50.40067" lon="2.67659">
        <ele>114.53</ele>
        <time>2016-05-06T09:26:25Z</time>
      </trkpt>
      <trkpt lat="50.40066" lon="2.67662">
        <ele>114.53</ele>
        <time>2016-05-06T09:26:26Z</time>
      </trkpt>
      <trkpt lat="50.40065" lon="2.67668">
        <ele>114.53</ele>
        <time>2016-05-06T09:26:28Z</time>
      </trkpt>
      <trkpt lat="50.40061" lon="2.67681">
        <ele>114.53</ele>
        <time>2016-05-06T09:26:33Z</time>
      </trkpt>
      <trkpt lat="50.40058" lon="2.67686">
        <ele>114.05</ele>
        <time>2016-05-06T09:26:35Z</time>
      </trkpt>
      <trkpt lat="50.4005" lon="2.67704">
        <ele>114.05</ele>
        <time>2016-05-06T09:26:45Z</time>
      </trkpt>
      <trkpt lat="50.40043" lon="2.67723">
        <ele>113.57</ele>
        <time>2016-05-06T09:26:57Z</time>
      </trkpt>
      <trkpt lat="50.4003" lon="2.67752">
        <ele>113.09</ele>
        <time>2016-05-06T09:27:11Z</time>
      </trkpt>
      <trkpt lat="50.40027" lon="2.67763">
        <ele>113.09</ele>
        <time>2016-05-06T09:27:16Z</time>
      </trkpt>
      <trkpt lat="50.40021" lon="2.67774">
        <ele>113.09</ele>
        <time>2016-05-06T09:27:21Z</time>
      </trkpt>
      <trkpt lat="50.40008" lon="2.67803">
        <ele>113.09</ele>
        <time>2016-05-06T09:27:36Z</time>
      </trkpt>
      <trkpt lat="50.40004" lon="2.67819">
        <ele>112.61</ele>
        <time>2016-05-06T09:27:47Z</time>
      </trkpt>
      <trkpt lat="50.4" lon="2.67838">
        <ele>112.61</ele>
        <time>2016-05-06T09:27:57Z</time>
      </trkpt>
      <trkpt lat="50.39999" lon="2.67842">
        <ele>112.13</ele>
        <time>2016-05-06T09:27:58Z</time>
      </trkpt>
      <trkpt lat="50.39997" lon="2.67846">
        <ele>112.13</ele>
        <time>2016-05-06T09:27:59Z</time>
      </trkpt>
      <trkpt lat="50.39995" lon="2.67852">
        <ele>112.13</ele>
        <time>2016-05-06T09:28:00Z</time>
      </trkpt>
      <trkpt lat="50.39993" lon="2.67856">
        <ele>112.13</ele>
        <time>2016-05-06T09:28:01Z</time>
      </trkpt>
      <trkpt lat="50.39992" lon="2.67871">
        <ele>111.65</ele>
        <time>2016-05-06T09:28:11Z</time>
      </trkpt>
      <trkpt lat="50.39985" lon="2.67893">
        <ele>111.65</ele>
        <time>2016-05-06T09:28:23Z</time>
      </trkpt>
      <trkpt lat="50.39978" lon="2.67914">
        <ele>111.17</ele>
        <time>2016-05-06T09:28:35Z</time>
      </trkpt>
      <trkpt lat="50.39977" lon="2.67947">
        <ele>111.17</ele>
        <time>2016-05-06T09:28:49Z</time>
      </trkpt>
      <trkpt lat="50.3997" lon="2.67975">
        <ele>111.17</ele>
        <time>2016-05-06T09:29:01Z</time>
      </trkpt>
      <trkpt lat="50.39966" lon="2.67998">
        <ele>111.17</ele>
        <time>2016-05-06T09:29:09Z</time>
      </trkpt>
      <trkpt lat="50.39964" lon="2.68017">
        <ele>110.69</ele>
        <time>2016-05-06T09:29:19Z</time>
      </trkpt>
      <trkpt lat="50.39961" lon="2.68029">
        <ele>110.69</ele>
        <time>2016-05-06T09:29:24Z</time>
      </trkpt>
      <trkpt lat="50.39959" lon="2.68056">
        <ele>110.21</ele>
        <time>2016-05-06T09:29:36Z</time>
      </trkpt>
      <trkpt lat="50.39956" lon="2.68078">
        <ele>109.73</ele>
        <time>2016-05-06T09:29:47Z</time>
      </trkpt>
      <trkpt lat="50.39955" lon="2.68082">
        <ele>109.73</ele>
        <time>2016-05-06T09:29:49Z</time>
      </trkpt>
      <trkpt lat="50.39947" lon="2.68112">
        <ele>109.25</ele>
        <time>2016-05-06T09:30:02Z</time>
      </trkpt>
      <trkpt lat="50.39942" lon="2.68135">
        <ele>109.25</ele>
        <time>2016-05-06T09:30:13Z</time>
      </trkpt>
      <trkpt lat="50.39934" lon="2.68164">
        <ele>108.77</ele>
        <time>2016-05-06T09:30:26Z</time>
      </trkpt>
      <trkpt lat="50.39927" lon="2.68193">
        <ele>108.77</ele>
        <time>2016-05-06T09:30:38Z</time>
      </trkpt>
      <trkpt lat="50.39922" lon="2.68209">
        <ele>108.77</ele>
        <time>2016-05-06T09:30:44Z</time>
      </trkpt>
      <trkpt lat="50.39921" lon="2.68213">
        <ele>108.77</ele>
        <time>2016-05-06T09:30:45Z</time>
      </trkpt>
      <trkpt lat="50.39917" lon="2.68225">
        <ele>108.77</ele>
        <time>2016-05-06T09:30:50Z</time>
      </trkpt>
      <trkpt lat="50.39912" lon="2.68242">
        <ele>108.29</ele>
        <time>2016-05-06T09:30:59Z</time>
      </trkpt>
      <trkpt lat="50.39906" lon="2.68264">
        <ele>108.29</ele>
        <time>2016-05-06T09:31:10Z</time>
      </trkpt>
      <trkpt lat="50.39896" lon="2.68293">
        <ele>108.29</ele>
        <time>2016-05-06T09:31:23Z</time>
      </trkpt>
      <trkpt lat="50.3989" lon="2.68318">
        <ele>108.29</ele>
        <time>2016-05-06T09:31:35Z</time>
      </trkpt>
      <trkpt lat="50.39885" lon="2.68339">
        <ele>107.32</ele>
        <time>2016-05-06T09:31:45Z</time>
      </trkpt>
      <trkpt lat="50.39886" lon="2.68354">
        <ele>106.84</ele>
        <time>2016-05-06T09:31:54Z</time>
      </trkpt>
      <trkpt lat="50.39881" lon="2.68387">
        <ele>106.84</ele>
        <time>2016-05-06T09:32:09Z</time>
      </trkpt>
      <trkpt lat="50.39884" lon="2.68409">
        <ele>106.84</ele>
        <time>2016-05-06T09:32:20Z</time>
      </trkpt>
      <trkpt lat="50.39886" lon="2.68431">
        <ele>106.84</ele>
        <time>2016-05-06T09:32:30Z</time>
      </trkpt>
      <trkpt lat="50.39887" lon="2.68455">
        <ele>106.36</ele>
        <time>2016-05-06T09:32:41Z</time>
      </trkpt>
      <trkpt lat="50.39882" lon="2.68487">
        <ele>105.4</ele>
        <time>2016-05-06T09:32:52Z</time>
      </trkpt>
      <trkpt lat="50.3988" lon="2.68494">
        <ele>105.4</ele>
        <time>2016-05-06T09:32:54Z</time>
      </trkpt>
      <trkpt lat="50.39879" lon="2.68499">
        <ele>105.4</ele>
        <time>2016-05-06T09:32:55Z</time>
      </trkpt>
      <trkpt lat="50.39875" lon="2.68514">
        <ele>104.92</ele>
        <time>2016-05-06T09:33:02Z</time>
      </trkpt>
      <trkpt lat="50.39869" lon="2.68533">
        <ele>104.92</ele>
        <time>2016-05-06T09:33:11Z</time>
      </trkpt>
      <trkpt lat="50.39868" lon="2.68536">
        <ele>104.92</ele>
        <time>2016-05-06T09:33:12Z</time>
      </trkpt>
      <trkpt lat="50.39865" lon="2.68544">
        <ele>104.92</ele>
        <time>2016-05-06T09:33:16Z</time>
      </trkpt>
      <trkpt lat="50.3986" lon="2.68569">
        <ele>104.44</ele>
        <time>2016-05-06T09:33:28Z</time>
      </trkpt>
      <trkpt lat="50.3986" lon="2.68592">
        <ele>103.96</ele>
        <time>2016-05-06T09:33:38Z</time>
      </trkpt>
      <trkpt lat="50.39858" lon="2.68626">
        <ele>103.96</ele>
        <time>2016-05-06T09:33:52Z</time>
      </trkpt>
      <trkpt lat="50.39859" lon="2.68646">
        <ele>103.96</ele>
        <time>2016-05-06T09:34:02Z</time>
      </trkpt>
      <trkpt lat="50.39865" lon="2.68674">
        <ele>103.48</ele>
        <time>2016-05-06T09:34:16Z</time>
      </trkpt>
      <trkpt lat="50.3987" lon="2.687">
        <ele>102.52</ele>
        <time>2016-05-06T09:34:28Z</time>
      </trkpt>
      <trkpt lat="50.39874" lon="2.68728">
        <ele>102.52</ele>
        <time>2016-05-06T09:34:40Z</time>
      </trkpt>
      <trkpt lat="50.39874" lon="2.68759">
        <ele>102.52</ele>
        <time>2016-05-06T09:34:52Z</time>
      </trkpt>
      <trkpt lat="50.39873" lon="2.68764">
        <ele>102.52</ele>
        <time>2016-05-06T09:34:53Z</time>
      </trkpt>
      <trkpt lat="50.39871" lon="2.68778">
        <ele>102.04</ele>
        <time>2016-05-06T09:34:59Z</time>
      </trkpt>
      <trkpt lat="50.39872" lon="2.6878">
        <ele>101.56</ele>
        <time>2016-05-06T09:35:00Z</time>
      </trkpt>
      <trkpt lat="50.39876" lon="2.68799">
        <ele>102.52</ele>
        <time>2016-05-06T09:35:13Z</time>
      </trkpt>
      <trkpt lat="50.3987" lon="2.68803">
        <ele>102.52</ele>
        <time>2016-05-06T09:35:27Z</time>
      </trkpt>
      <trkpt lat="50.39872" lon="2.68809">
        <ele>102.04</ele>
        <time>2016-05-06T09:35:52Z</time>
      </trkpt>
      <trkpt lat="50.39866" lon="2.68812">
        <ele>102.04</ele>
        <time>2016-05-06T09:36:12Z</time>
      </trkpt>
      <trkpt lat="50.39865" lon="2.68812">
        <ele>100.6</ele>
        <time>2016-05-06T09:36:14Z</time>
      </trkpt>
      <trkpt lat="50.39862" lon="2.68813">
        <ele>100.6</ele>
        <time>2016-05-06T09:36:32Z</time>
      </trkpt>
      <trkpt lat="50.3986" lon="2.68813">
        <ele>100.6</ele>
        <time>2016-05-06T09:36:46Z</time>
      </trkpt>
      <trkpt lat="50.3986" lon="2.68811">
        <ele>100.6</ele>
        <time>2016-05-06T09:37:00Z</time>
      </trkpt>
      <trkpt lat="50.39859" lon="2.68814">
        <ele>101.56</ele>
        <time>2016-05-06T09:37:14Z</time>
      </trkpt>
      <trkpt lat="50.39858" lon="2.68816">
        <ele>101.56</ele>
        <time>2016-05-06T09:37:27Z</time>
      </trkpt>
      <trkpt lat="50.39856" lon="2.68817">
        <ele>101.56</ele>
        <time>2016-05-06T09:37:35Z</time>
      </trkpt>
      <trkpt lat="50.39856" lon="2.68819">
        <ele>101.56</ele>
        <time>2016-05-06T09:37:36Z</time>
      </trkpt>
      <trkpt lat="50.39856" lon="2.68831">
        <ele>101.56</ele>
        <time>2016-05-06T09:37:43Z</time>
      </trkpt>
      <trkpt lat="50.39855" lon="2.68838">
        <ele>101.56</ele>
        <time>2016-05-06T09:37:47Z</time>
      </trkpt>
      <trkpt lat="50.39854" lon="2.68842">
        <ele>101.56</ele>
        <time>2016-05-06T09:37:49Z</time>
      </trkpt>
      <trkpt lat="50.39854" lon="2.68845">
        <ele>101.56</ele>
        <time>2016-05-06T09:37:50Z</time>
      </trkpt>
      <trkpt lat="50.39853" lon="2.68847">
        <ele>101.56</ele>
        <time>2016-05-06T09:37:51Z</time>
      </trkpt>
      <trkpt lat="50.39852" lon="2.68859">
        <ele>101.56</ele>
        <time>2016-05-06T09:37:56Z</time>
      </trkpt>
      <trkpt lat="50.39852" lon="2.68861">
        <ele>101.56</ele>
        <time>2016-05-06T09:37:57Z</time>
      </trkpt>
      <trkpt lat="50.39852" lon="2.68864">
        <ele>100.6</ele>
        <time>2016-05-06T09:37:58Z</time>
      </trkpt>
      <trkpt lat="50.39852" lon="2.68866">
        <ele>100.6</ele>
        <time>2016-05-06T09:37:59Z</time>
      </trkpt>
      <trkpt lat="50.39852" lon="2.68869">
        <ele>100.6</ele>
        <time>2016-05-06T09:38:00Z</time>
      </trkpt>
      <trkpt lat="50.3985" lon="2.68902">
        <ele>100.6</ele>
        <time>2016-05-06T09:38:15Z</time>
      </trkpt>
      <trkpt lat="50.39849" lon="2.68914">
        <ele>100.6</ele>
        <time>2016-05-06T09:38:20Z</time>
      </trkpt>
      <trkpt lat="50.39848" lon="2.68917">
        <ele>100.6</ele>
        <time>2016-05-06T09:38:21Z</time>
      </trkpt>
      <trkpt lat="50.39846" lon="2.68933">
        <ele>100.11</ele>
        <time>2016-05-06T09:38:34Z</time>
      </trkpt>
      <trkpt lat="50.39844" lon="2.68945">
        <ele>100.11</ele>
        <time>2016-05-06T09:38:40Z</time>
      </trkpt>
      <trkpt lat="50.39839" lon="2.68966">
        <ele>100.11</ele>
        <time>2016-05-06T09:38:51Z</time>
      </trkpt>
      <trkpt lat="50.39838" lon="2.68974">
        <ele>100.11</ele>
        <time>2016-05-06T09:38:54Z</time>
      </trkpt>
      <trkpt lat="50.39837" lon="2.68977">
        <ele>100.11</ele>
        <time>2016-05-06T09:38:55Z</time>
      </trkpt>
      <trkpt lat="50.39836" lon="2.6898">
        <ele>100.11</ele>
        <time>2016-05-06T09:38:56Z</time>
      </trkpt>
      <trkpt lat="50.39836" lon="2.68983">
        <ele>100.11</ele>
        <time>2016-05-06T09:38:57Z</time>
      </trkpt>
      <trkpt lat="50.39835" lon="2.68985">
        <ele>100.11</ele>
        <time>2016-05-06T09:38:58Z</time>
      </trkpt>
      <trkpt lat="50.39832" lon="2.68993">
        <ele>101.56</ele>
        <time>2016-05-06T09:39:01Z</time>
      </trkpt>
      <trkpt lat="50.39822" lon="2.69019">
        <ele>101.56</ele>
        <time>2016-05-06T09:39:13Z</time>
      </trkpt>
      <trkpt lat="50.39821" lon="2.69021">
        <ele>101.56</ele>
        <time>2016-05-06T09:39:14Z</time>
      </trkpt>
      <trkpt lat="50.3982" lon="2.69023">
        <ele>101.56</ele>
        <time>2016-05-06T09:39:15Z</time>
      </trkpt>
      <trkpt lat="50.39819" lon="2.69025">
        <ele>101.56</ele>
        <time>2016-05-06T09:39:16Z</time>
      </trkpt>
      <trkpt lat="50.39818" lon="2.69028">
        <ele>101.56</ele>
        <time>2016-05-06T09:39:17Z</time>
      </trkpt>
      <trkpt lat="50.39817" lon="2.6903">
        <ele>101.56</ele>
        <time>2016-05-06T09:39:18Z</time>
      </trkpt>
      <trkpt lat="50.39816" lon="2.69033">
        <ele>101.56</ele>
        <time>2016-05-06T09:39:19Z</time>
      </trkpt>
      <trkpt lat="50.39812" lon="2.69044">
        <ele>101.56</ele>
        <time>2016-05-06T09:39:24Z</time>
      </trkpt>
      <trkpt lat="50.39808" lon="2.69054">
        <ele>101.08</ele>
        <time>2016-05-06T09:39:30Z</time>
      </trkpt>
      <trkpt lat="50.39808" lon="2.69058">
        <ele>100.11</ele>
        <time>2016-05-06T09:39:32Z</time>
      </trkpt>
      <trkpt lat="50.39799" lon="2.69084">
        <ele>100.11</ele>
        <time>2016-05-06T09:39:43Z</time>
      </trkpt>
      <trkpt lat="50.39798" lon="2.69087">
        <ele>100.11</ele>
        <time>2016-05-06T09:39:44Z</time>
      </trkpt>
      <trkpt lat="50.39797" lon="2.69089">
        <ele>100.11</ele>
        <time>2016-05-06T09:39:45Z</time>
      </trkpt>
      <trkpt lat="50.39796" lon="2.69092">
        <ele>100.11</ele>
        <time>2016-05-06T09:39:46Z</time>
      </trkpt>
      <trkpt lat="50.39795" lon="2.69095">
        <ele>100.11</ele>
        <time>2016-05-06T09:39:47Z</time>
      </trkpt>
      <trkpt lat="50.39795" lon="2.69097">
        <ele>100.11</ele>
        <time>2016-05-06T09:39:48Z</time>
      </trkpt>
      <trkpt lat="50.39785" lon="2.69128">
        <ele>99.15</ele>
        <time>2016-05-06T09:40:02Z</time>
      </trkpt>
      <trkpt lat="50.39778" lon="2.6916">
        <ele>98.67</ele>
        <time>2016-05-06T09:40:16Z</time>
      </trkpt>
      <trkpt lat="50.39772" lon="2.6919">
        <ele>98.67</ele>
        <time>2016-05-06T09:40:29Z</time>
      </trkpt>
      <trkpt lat="50.39771" lon="2.69203">
        <ele>98.67</ele>
        <time>2016-05-06T09:40:34Z</time>
      </trkpt>
      <trkpt lat="50.39771" lon="2.69205">
        <ele>98.67</ele>
        <time>2016-05-06T09:40:35Z</time>
      </trkpt>
      <trkpt lat="50.39771" lon="2.69207">
        <ele>98.67</ele>
        <time>2016-05-06T09:40:36Z</time>
      </trkpt>
      <trkpt lat="50.39766" lon="2.69241">
        <ele>98.19</ele>
        <time>2016-05-06T09:40:50Z</time>
      </trkpt>
      <trkpt lat="50.39763" lon="2.69274">
        <ele>97.71</ele>
        <time>2016-05-06T09:41:04Z</time>
      </trkpt>
      <trkpt lat="50.39763" lon="2.69276">
        <ele>97.71</ele>
        <time>2016-05-06T09:41:05Z</time>
      </trkpt>
      <trkpt lat="50.39763" lon="2.69279">
        <ele>97.71</ele>
        <time>2016-05-06T09:41:06Z</time>
      </trkpt>
      <trkpt lat="50.39763" lon="2.69298">
        <ele>97.71</ele>
        <time>2016-05-06T09:41:14Z</time>
      </trkpt>
      <trkpt lat="50.39761" lon="2.69309">
        <ele>97.71</ele>
        <time>2016-05-06T09:41:19Z</time>
      </trkpt>
      <trkpt lat="50.3976" lon="2.6934">
        <ele>97.71</ele>
        <time>2016-05-06T09:41:31Z</time>
      </trkpt>
      <trkpt lat="50.3976" lon="2.69342">
        <ele>97.71</ele>
        <time>2016-05-06T09:41:32Z</time>
      </trkpt>
      <trkpt lat="50.3976" lon="2.69344">
        <ele>97.71</ele>
        <time>2016-05-06T09:41:33Z</time>
      </trkpt>
      <trkpt lat="50.39759" lon="2.69347">
        <ele>97.71</ele>
        <time>2016-05-06T09:41:34Z</time>
      </trkpt>
      <trkpt lat="50.39759" lon="2.69349">
        <ele>97.71</ele>
        <time>2016-05-06T09:41:35Z</time>
      </trkpt>
      <trkpt lat="50.39757" lon="2.6938">
        <ele>97.71</ele>
        <time>2016-05-06T09:41:48Z</time>
      </trkpt>
      <trkpt lat="50.39752" lon="2.69413">
        <ele>97.23</ele>
        <time>2016-05-06T09:42:02Z</time>
      </trkpt>
      <trkpt lat="50.39752" lon="2.69447">
        <ele>97.23</ele>
        <time>2016-05-06T09:42:16Z</time>
      </trkpt>
      <trkpt lat="50.39752" lon="2.69449">
        <ele>97.23</ele>
        <time>2016-05-06T09:42:17Z</time>
      </trkpt>
      <trkpt lat="50.39751" lon="2.69451">
        <ele>97.23</ele>
        <time>2016-05-06T09:42:18Z</time>
      </trkpt>
      <trkpt lat="50.3975" lon="2.69453">
        <ele>97.23</ele>
        <time>2016-05-06T09:42:19Z</time>
      </trkpt>
      <trkpt lat="50.39749" lon="2.69455">
        <ele>97.23</ele>
        <time>2016-05-06T09:42:20Z</time>
      </trkpt>
      <trkpt lat="50.39749" lon="2.69457">
        <ele>97.23</ele>
        <time>2016-05-06T09:42:21Z</time>
      </trkpt>
      <trkpt lat="50.39749" lon="2.6946">
        <ele>97.23</ele>
        <time>2016-05-06T09:42:22Z</time>
      </trkpt>
      <trkpt lat="50.39749" lon="2.69462">
        <ele>97.23</ele>
        <time>2016-05-06T09:42:23Z</time>
      </trkpt>
      <trkpt lat="50.39749" lon="2.69465">
        <ele>97.23</ele>
        <time>2016-05-06T09:42:24Z</time>
      </trkpt>
      <trkpt lat="50.39749" lon="2.69468">
        <ele>97.23</ele>
        <time>2016-05-06T09:42:25Z</time>
      </trkpt>
      <trkpt lat="50.39749" lon="2.6947">
        <ele>97.23</ele>
        <time>2016-05-06T09:42:26Z</time>
      </trkpt>
      <trkpt lat="50.39749" lon="2.69473">
        <ele>97.23</ele>
        <time>2016-05-06T09:42:27Z</time>
      </trkpt>
      <trkpt lat="50.39738" lon="2.69507">
        <ele>97.23</ele>
        <time>2016-05-06T09:42:42Z</time>
      </trkpt>
      <trkpt lat="50.39725" lon="2.69535">
        <ele>97.23</ele>
        <time>2016-05-06T09:42:56Z</time>
      </trkpt>
      <trkpt lat="50.39725" lon="2.69537">
        <ele>97.23</ele>
        <time>2016-05-06T09:42:57Z</time>
      </trkpt>
      <trkpt lat="50.39724" lon="2.6954">
        <ele>97.23</ele>
        <time>2016-05-06T09:42:58Z</time>
      </trkpt>
      <trkpt lat="50.39723" lon="2.69542">
        <ele>97.23</ele>
        <time>2016-05-06T09:42:59Z</time>
      </trkpt>
      <trkpt lat="50.39723" lon="2.69544">
        <ele>97.23</ele>
        <time>2016-05-06T09:43:00Z</time>
      </trkpt>
      <trkpt lat="50.39722" lon="2.69546">
        <ele>97.23</ele>
        <time>2016-05-06T09:43:01Z</time>
      </trkpt>
      <trkpt lat="50.39721" lon="2.69548">
        <ele>97.23</ele>
        <time>2016-05-06T09:43:02Z</time>
      </trkpt>
      <trkpt lat="50.39714" lon="2.69564">
        <ele>96.75</ele>
        <time>2016-05-06T09:43:10Z</time>
      </trkpt>
      <trkpt lat="50.39714" lon="2.69566">
        <ele>96.75</ele>
        <time>2016-05-06T09:43:11Z</time>
      </trkpt>
      <trkpt lat="50.39699" lon="2.69595">
        <ele>96.75</ele>
        <time>2016-05-06T09:43:26Z</time>
      </trkpt>
      <trkpt lat="50.39689" lon="2.69623">
        <ele>96.75</ele>
        <time>2016-05-06T09:43:40Z</time>
      </trkpt>
      <trkpt lat="50.39678" lon="2.69651">
        <ele>96.75</ele>
        <time>2016-05-06T09:43:54Z</time>
      </trkpt>
      <trkpt lat="50.39677" lon="2.69655">
        <ele>96.75</ele>
        <time>2016-05-06T09:43:56Z</time>
      </trkpt>
      <trkpt lat="50.39676" lon="2.69656">
        <ele>96.75</ele>
        <time>2016-05-06T09:43:57Z</time>
      </trkpt>
      <trkpt lat="50.39669" lon="2.69665">
        <ele>96.75</ele>
        <time>2016-05-06T09:44:12Z</time>
      </trkpt>
      <trkpt lat="50.39669" lon="2.69666">
        <ele>96.75</ele>
        <time>2016-05-06T09:44:31Z</time>
      </trkpt>
      <trkpt lat="50.39671" lon="2.69667">
        <ele>96.75</ele>
        <time>2016-05-06T09:44:49Z</time>
      </trkpt>
      <trkpt lat="50.39674" lon="2.69665">
        <ele>97.71</ele>
        <time>2016-05-06T09:45:15Z</time>
      </trkpt>
      <trkpt lat="50.39677" lon="2.69666">
        <ele>98.67</ele>
        <time>2016-05-06T09:45:37Z</time>
      </trkpt>
      <trkpt lat="50.39674" lon="2.69671">
        <ele>96.75</ele>
        <time>2016-05-06T09:45:44Z</time>
      </trkpt>
      <trkpt lat="50.39667" lon="2.69674">
        <ele>96.75</ele>
        <time>2016-05-06T09:46:03Z</time>
      </trkpt>
      <trkpt lat="50.39666" lon="2.69673">
        <ele>96.75</ele>
        <time>2016-05-06T09:46:04Z</time>
      </trkpt>
      <trkpt lat="50.39651" lon="2.69653">
        <ele>96.75</ele>
        <time>2016-05-06T09:46:18Z</time>
      </trkpt>
      <trkpt lat="50.39649" lon="2.69651">
        <ele>96.75</ele>
        <time>2016-05-06T09:46:20Z</time>
      </trkpt>
      <trkpt lat="50.39648" lon="2.6965">
        <ele>96.75</ele>
        <time>2016-05-06T09:46:21Z</time>
      </trkpt>
      <trkpt lat="50.39646" lon="2.69649">
        <ele>96.75</ele>
        <time>2016-05-06T09:46:22Z</time>
      </trkpt>
      <trkpt lat="50.39645" lon="2.69648">
        <ele>96.75</ele>
        <time>2016-05-06T09:46:23Z</time>
      </trkpt>
      <trkpt lat="50.39644" lon="2.69647">
        <ele>96.75</ele>
        <time>2016-05-06T09:46:24Z</time>
      </trkpt>
      <trkpt lat="50.39643" lon="2.69645">
        <ele>96.75</ele>
        <time>2016-05-06T09:46:25Z</time>
      </trkpt>
      <trkpt lat="50.39642" lon="2.69644">
        <ele>96.75</ele>
        <time>2016-05-06T09:46:26Z</time>
      </trkpt>
      <trkpt lat="50.39641" lon="2.69643">
        <ele>96.75</ele>
        <time>2016-05-06T09:46:27Z</time>
      </trkpt>
      <trkpt lat="50.39622" lon="2.69626">
        <ele>98.19</ele>
        <time>2016-05-06T09:46:43Z</time>
      </trkpt>
      <trkpt lat="50.39603" lon="2.6961">
        <ele>99.15</ele>
        <time>2016-05-06T09:46:58Z</time>
      </trkpt>
      <trkpt lat="50.39594" lon="2.696">
        <ele>99.63</ele>
        <time>2016-05-06T09:47:06Z</time>
      </trkpt>
      <trkpt lat="50.39592" lon="2.69599">
        <ele>99.63</ele>
        <time>2016-05-06T09:47:07Z</time>
      </trkpt>
      <trkpt lat="50.39585" lon="2.69593">
        <ele>99.15</ele>
        <time>2016-05-06T09:47:13Z</time>
      </trkpt>
      <trkpt lat="50.39584" lon="2.69592">
        <ele>99.15</ele>
        <time>2016-05-06T09:47:14Z</time>
      </trkpt>
      <trkpt lat="50.39583" lon="2.69591">
        <ele>99.15</ele>
        <time>2016-05-06T09:47:15Z</time>
      </trkpt>
      <trkpt lat="50.39582" lon="2.69589">
        <ele>99.15</ele>
        <time>2016-05-06T09:47:16Z</time>
      </trkpt>
      <trkpt lat="50.3958" lon="2.69588">
        <ele>99.15</ele>
        <time>2016-05-06T09:47:17Z</time>
      </trkpt>
      <trkpt lat="50.39579" lon="2.69586">
        <ele>99.15</ele>
        <time>2016-05-06T09:47:18Z</time>
      </trkpt>
      <trkpt lat="50.39578" lon="2.69585">
        <ele>99.15</ele>
        <time>2016-05-06T09:47:19Z</time>
      </trkpt>
      <trkpt lat="50.39572" lon="2.69579">
        <ele>101.08</ele>
        <time>2016-05-06T09:47:23Z</time>
      </trkpt>
      <trkpt lat="50.3955" lon="2.69561">
        <ele>102.52</ele>
        <time>2016-05-06T09:47:39Z</time>
      </trkpt>
      <trkpt lat="50.39531" lon="2.6954">
        <ele>103</ele>
        <time>2016-05-06T09:47:55Z</time>
      </trkpt>
      <trkpt lat="50.39525" lon="2.69535">
        <ele>104.44</ele>
        <time>2016-05-06T09:48:00Z</time>
      </trkpt>
      <trkpt lat="50.39524" lon="2.69534">
        <ele>104.44</ele>
        <time>2016-05-06T09:48:01Z</time>
      </trkpt>
      <trkpt lat="50.39522" lon="2.69533">
        <ele>104.44</ele>
        <time>2016-05-06T09:48:02Z</time>
      </trkpt>
      <trkpt lat="50.39521" lon="2.69532">
        <ele>104.44</ele>
        <time>2016-05-06T09:48:03Z</time>
      </trkpt>
      <trkpt lat="50.3952" lon="2.6953">
        <ele>104.44</ele>
        <time>2016-05-06T09:48:04Z</time>
      </trkpt>
      <trkpt lat="50.39519" lon="2.69528">
        <ele>104.44</ele>
        <time>2016-05-06T09:48:05Z</time>
      </trkpt>
      <trkpt lat="50.39518" lon="2.69527">
        <ele>104.44</ele>
        <time>2016-05-06T09:48:06Z</time>
      </trkpt>
      <trkpt lat="50.39517" lon="2.69526">
        <ele>104.44</ele>
        <time>2016-05-06T09:48:07Z</time>
      </trkpt>
      <trkpt lat="50.39516" lon="2.69524">
        <ele>104.44</ele>
        <time>2016-05-06T09:48:08Z</time>
      </trkpt>
      <trkpt lat="50.39514" lon="2.69521">
        <ele>104.92</ele>
        <time>2016-05-06T09:48:10Z</time>
      </trkpt>
      <trkpt lat="50.39512" lon="2.6952">
        <ele>104.92</ele>
        <time>2016-05-06T09:48:11Z</time>
      </trkpt>
      <trkpt lat="50.39511" lon="2.69518">
        <ele>105.4</ele>
        <time>2016-05-06T09:48:12Z</time>
      </trkpt>
      <trkpt lat="50.39509" lon="2.69517">
        <ele>105.4</ele>
        <time>2016-05-06T09:48:13Z</time>
      </trkpt>
      <trkpt lat="50.39508" lon="2.69516">
        <ele>105.4</ele>
        <time>2016-05-06T09:48:14Z</time>
      </trkpt>
      <trkpt lat="50.39484" lon="2.69493">
        <ele>106.84</ele>
        <time>2016-05-06T09:48:32Z</time>
      </trkpt>
      <trkpt lat="50.39481" lon="2.6949">
        <ele>106.84</ele>
        <time>2016-05-06T09:48:35Z</time>
      </trkpt>
      <trkpt lat="50.39479" lon="2.69488">
        <ele>106.84</ele>
        <time>2016-05-06T09:48:36Z</time>
      </trkpt>
      <trkpt lat="50.39478" lon="2.69487">
        <ele>106.84</ele>
        <time>2016-05-06T09:48:37Z</time>
      </trkpt>
      <trkpt lat="50.39476" lon="2.69486">
        <ele>106.84</ele>
        <time>2016-05-06T09:48:38Z</time>
      </trkpt>
      <trkpt lat="50.39475" lon="2.69484">
        <ele>106.84</ele>
        <time>2016-05-06T09:48:39Z</time>
      </trkpt>
      <trkpt lat="50.39474" lon="2.69483">
        <ele>106.84</ele>
        <time>2016-05-06T09:48:40Z</time>
      </trkpt>
      <trkpt lat="50.39455" lon="2.69464">
        <ele>108.29</ele>
        <time>2016-05-06T09:48:55Z</time>
      </trkpt>
      <trkpt lat="50.39438" lon="2.69447">
        <ele>109.25</ele>
        <time>2016-05-06T09:49:08Z</time>
      </trkpt>
      <trkpt lat="50.39424" lon="2.69429">
        <ele>109.73</ele>
        <time>2016-05-06T09:49:20Z</time>
      </trkpt>
      <trkpt lat="50.3942" lon="2.69428">
        <ele>110.69</ele>
        <time>2016-05-06T09:49:23Z</time>
      </trkpt>
      <trkpt lat="50.39418" lon="2.69428">
        <ele>110.69</ele>
        <time>2016-05-06T09:49:24Z</time>
      </trkpt>
      <trkpt lat="50.39417" lon="2.69428">
        <ele>110.69</ele>
        <time>2016-05-06T09:49:25Z</time>
      </trkpt>
      <trkpt lat="50.39415" lon="2.69427">
        <ele>111.17</ele>
        <time>2016-05-06T09:49:26Z</time>
      </trkpt>
      <trkpt lat="50.39414" lon="2.69427">
        <ele>111.17</ele>
        <time>2016-05-06T09:49:27Z</time>
      </trkpt>
      <trkpt lat="50.39412" lon="2.69425">
        <ele>111.17</ele>
        <time>2016-05-06T09:49:28Z</time>
      </trkpt>
      <trkpt lat="50.39411" lon="2.69424">
        <ele>111.17</ele>
        <time>2016-05-06T09:49:29Z</time>
      </trkpt>
      <trkpt lat="50.39409" lon="2.69423">
        <ele>111.65</ele>
        <time>2016-05-06T09:49:30Z</time>
      </trkpt>
      <trkpt lat="50.39408" lon="2.69422">
        <ele>111.65</ele>
        <time>2016-05-06T09:49:31Z</time>
      </trkpt>
      <trkpt lat="50.39407" lon="2.69421">
        <ele>111.65</ele>
        <time>2016-05-06T09:49:32Z</time>
      </trkpt>
      <trkpt lat="50.39406" lon="2.6942">
        <ele>111.65</ele>
        <time>2016-05-06T09:49:33Z</time>
      </trkpt>
      <trkpt lat="50.39394" lon="2.69401">
        <ele>112.61</ele>
        <time>2016-05-06T09:49:47Z</time>
      </trkpt>
      <trkpt lat="50.39394" lon="2.69402">
        <ele>112.61</ele>
        <time>2016-05-06T09:49:48Z</time>
      </trkpt>
      <trkpt lat="50.39389" lon="2.69405">
        <ele>113.09</ele>
        <time>2016-05-06T09:50:03Z</time>
      </trkpt>
      <trkpt lat="50.39388" lon="2.69402">
        <ele>113.09</ele>
        <time>2016-05-06T09:50:20Z</time>
      </trkpt>
      <trkpt lat="50.39389" lon="2.69397">
        <ele>113.09</ele>
        <time>2016-05-06T09:50:38Z</time>
      </trkpt>
      <trkpt lat="50.3939" lon="2.69395">
        <ele>113.09</ele>
        <time>2016-05-06T09:50:39Z</time>
      </trkpt>
      <trkpt lat="50.39391" lon="2.69393">
        <ele>113.09</ele>
        <time>2016-05-06T09:50:40Z</time>
      </trkpt>
      <trkpt lat="50.39391" lon="2.69392">
        <ele>113.09</ele>
        <time>2016-05-06T09:50:41Z</time>
      </trkpt>
      <trkpt lat="50.39392" lon="2.69391">
        <ele>113.09</ele>
        <time>2016-05-06T09:50:42Z</time>
      </trkpt>
      <trkpt lat="50.39393" lon="2.69389">
        <ele>113.09</ele>
        <time>2016-05-06T09:50:43Z</time>
      </trkpt>
      <trkpt lat="50.39393" lon="2.69387">
        <ele>113.09</ele>
        <time>2016-05-06T09:50:44Z</time>
      </trkpt>
      <trkpt lat="50.39392" lon="2.69384">
        <ele>113.09</ele>
        <time>2016-05-06T09:50:45Z</time>
      </trkpt>
      <trkpt lat="50.39392" lon="2.69383">
        <ele>113.09</ele>
        <time>2016-05-06T09:50:46Z</time>
      </trkpt>
      <trkpt lat="50.39384" lon="2.69358">
        <ele>114.53</ele>
        <time>2016-05-06T09:51:00Z</time>
      </trkpt>
      <trkpt lat="50.39384" lon="2.6932">
        <ele>115.98</ele>
        <time>2016-05-06T09:51:18Z</time>
      </trkpt>
      <trkpt lat="50.39387" lon="2.69291">
        <ele>116.94</ele>
        <time>2016-05-06T09:51:33Z</time>
      </trkpt>
      <trkpt lat="50.39388" lon="2.69249">
        <ele>118.86</ele>
        <time>2016-05-06T09:51:54Z</time>
      </trkpt>
      <trkpt lat="50.39389" lon="2.69219">
        <ele>119.82</ele>
        <time>2016-05-06T09:52:07Z</time>
      </trkpt>
      <trkpt lat="50.39389" lon="2.69217">
        <ele>119.82</ele>
        <time>2016-05-06T09:52:08Z</time>
      </trkpt>
      <trkpt lat="50.39389" lon="2.6918">
        <ele>120.78</ele>
        <time>2016-05-06T09:52:23Z</time>
      </trkpt>
      <trkpt lat="50.39391" lon="2.69148">
        <ele>122.22</ele>
        <time>2016-05-06T09:52:37Z</time>
      </trkpt>
      <trkpt lat="50.39391" lon="2.69146">
        <ele>121.74</ele>
        <time>2016-05-06T09:52:38Z</time>
      </trkpt>
      <trkpt lat="50.39391" lon="2.69143">
        <ele>121.74</ele>
        <time>2016-05-06T09:52:39Z</time>
      </trkpt>
      <trkpt lat="50.3939" lon="2.6914">
        <ele>121.74</ele>
        <time>2016-05-06T09:52:40Z</time>
      </trkpt>
      <trkpt lat="50.3939" lon="2.69138">
        <ele>121.74</ele>
        <time>2016-05-06T09:52:41Z</time>
      </trkpt>
      <trkpt lat="50.3939" lon="2.69136">
        <ele>122.22</ele>
        <time>2016-05-06T09:52:42Z</time>
      </trkpt>
      <trkpt lat="50.3939" lon="2.69133">
        <ele>122.22</ele>
        <time>2016-05-06T09:52:43Z</time>
      </trkpt>
      <trkpt lat="50.39385" lon="2.69093">
        <ele>123.19</ele>
        <time>2016-05-06T09:53:01Z</time>
      </trkpt>
      <trkpt lat="50.39383" lon="2.69056">
        <ele>124.15</ele>
        <time>2016-05-06T09:53:17Z</time>
      </trkpt>
      <trkpt lat="50.3938" lon="2.69013">
        <ele>124.63</ele>
        <time>2016-05-06T09:53:35Z</time>
      </trkpt>
      <trkpt lat="50.39377" lon="2.68989">
        <ele>125.11</ele>
        <time>2016-05-06T09:53:44Z</time>
      </trkpt>
      <trkpt lat="50.39377" lon="2.68986">
        <ele>125.11</ele>
        <time>2016-05-06T09:53:45Z</time>
      </trkpt>
      <trkpt lat="50.39378" lon="2.68984">
        <ele>125.11</ele>
        <time>2016-05-06T09:53:46Z</time>
      </trkpt>
      <trkpt lat="50.39378" lon="2.68981">
        <ele>125.11</ele>
        <time>2016-05-06T09:53:47Z</time>
      </trkpt>
      <trkpt lat="50.39377" lon="2.68979">
        <ele>125.11</ele>
        <time>2016-05-06T09:53:48Z</time>
      </trkpt>
      <trkpt lat="50.39377" lon="2.68976">
        <ele>125.59</ele>
        <time>2016-05-06T09:53:49Z</time>
      </trkpt>
      <trkpt lat="50.39366" lon="2.68941">
        <ele>126.07</ele>
        <time>2016-05-06T09:54:05Z</time>
      </trkpt>
      <trkpt lat="50.39357" lon="2.6893">
        <ele>127.99</ele>
        <time>2016-05-06T09:54:19Z</time>
      </trkpt>
      <trkpt lat="50.39357" lon="2.68929">
        <ele>127.51</ele>
        <time>2016-05-06T09:54:33Z</time>
      </trkpt>
      <trkpt lat="50.39356" lon="2.68929">
        <ele>127.51</ele>
        <time>2016-05-06T09:54:50Z</time>
      </trkpt>
      <trkpt lat="50.39355" lon="2.68929">
        <ele>127.03</ele>
        <time>2016-05-06T09:55:07Z</time>
      </trkpt>
      <trkpt lat="50.39355" lon="2.68931">
        <ele>127.03</ele>
        <time>2016-05-06T09:55:29Z</time>
      </trkpt>
      <trkpt lat="50.39356" lon="2.68933">
        <ele>127.03</ele>
        <time>2016-05-06T09:55:48Z</time>
      </trkpt>
      <trkpt lat="50.39356" lon="2.68934">
        <ele>127.03</ele>
        <time>2016-05-06T09:55:55Z</time>
      </trkpt>
      <trkpt lat="50.39355" lon="2.68935">
        <ele>127.03</ele>
        <time>2016-05-06T09:55:56Z</time>
      </trkpt>
      <trkpt lat="50.39354" lon="2.68934">
        <ele>127.03</ele>
        <time>2016-05-06T09:55:57Z</time>
      </trkpt>
      <trkpt lat="50.39352" lon="2.68933">
        <ele>127.51</ele>
        <time>2016-05-06T09:55:58Z</time>
      </trkpt>
      <trkpt lat="50.39351" lon="2.68933">
        <ele>127.51</ele>
        <time>2016-05-06T09:55:59Z</time>
      </trkpt>
      <trkpt lat="50.39327" lon="2.68924">
        <ele>129.43</ele>
        <time>2016-05-06T09:56:17Z</time>
      </trkpt>
      <trkpt lat="50.39312" lon="2.68916">
        <ele>130.4</ele>
        <time>2016-05-06T09:56:27Z</time>
      </trkpt>
      <trkpt lat="50.3931" lon="2.68916">
        <ele>130.4</ele>
        <time>2016-05-06T09:56:28Z</time>
      </trkpt>
      <trkpt lat="50.39308" lon="2.68916">
        <ele>130.4</ele>
        <time>2016-05-06T09:56:29Z</time>
      </trkpt>
      <trkpt lat="50.39307" lon="2.68915">
        <ele>130.4</ele>
        <time>2016-05-06T09:56:30Z</time>
      </trkpt>
      <trkpt lat="50.39305" lon="2.68915">
        <ele>130.4</ele>
        <time>2016-05-06T09:56:31Z</time>
      </trkpt>
      <trkpt lat="50.39284" lon="2.68907">
        <ele>131.84</ele>
        <time>2016-05-06T09:56:45Z</time>
      </trkpt>
      <trkpt lat="50.39261" lon="2.68897">
        <ele>132.32</ele>
        <time>2016-05-06T09:57:00Z</time>
      </trkpt>
      <trkpt lat="50.39238" lon="2.68888">
        <ele>133.28</ele>
        <time>2016-05-06T09:57:17Z</time>
      </trkpt>
      <trkpt lat="50.39214" lon="2.68876">
        <ele>134.72</ele>
        <time>2016-05-06T09:57:33Z</time>
      </trkpt>
      <trkpt lat="50.39213" lon="2.68874">
        <ele>134.72</ele>
        <time>2016-05-06T09:57:34Z</time>
      </trkpt>
      <trkpt lat="50.39212" lon="2.68873">
        <ele>134.72</ele>
        <time>2016-05-06T09:57:35Z</time>
      </trkpt>
      <trkpt lat="50.3921" lon="2.68873">
        <ele>134.72</ele>
        <time>2016-05-06T09:57:36Z</time>
      </trkpt>
      <trkpt lat="50.39208" lon="2.68872">
        <ele>134.72</ele>
        <time>2016-05-06T09:57:37Z</time>
      </trkpt>
      <trkpt lat="50.39206" lon="2.68872">
        <ele>135.2</ele>
        <time>2016-05-06T09:57:38Z</time>
      </trkpt>
      <trkpt lat="50.39205" lon="2.68871">
        <ele>135.2</ele>
        <time>2016-05-06T09:57:39Z</time>
      </trkpt>
      <trkpt lat="50.39203" lon="2.68871">
        <ele>135.2</ele>
        <time>2016-05-06T09:57:40Z</time>
      </trkpt>
      <trkpt lat="50.39177" lon="2.68863">
        <ele>136.64</ele>
        <time>2016-05-06T09:57:57Z</time>
      </trkpt>
      <trkpt lat="50.39154" lon="2.68851">
        <ele>136.64</ele>
        <time>2016-05-06T09:58:12Z</time>
      </trkpt>
      <trkpt lat="50.39132" lon="2.68839">
        <ele>137.61</ele>
        <time>2016-05-06T09:58:27Z</time>
      </trkpt>
      <trkpt lat="50.39103" lon="2.68828">
        <ele>138.09</ele>
        <time>2016-05-06T09:58:47Z</time>
      </trkpt>
      <trkpt lat="50.39096" lon="2.68824">
        <ele>138.09</ele>
        <time>2016-05-06T09:58:52Z</time>
      </trkpt>
      <trkpt lat="50.39094" lon="2.68823">
        <ele>138.57</ele>
        <time>2016-05-06T09:58:53Z</time>
      </trkpt>
      <trkpt lat="50.39092" lon="2.68822">
        <ele>138.57</ele>
        <time>2016-05-06T09:58:54Z</time>
      </trkpt>
      <trkpt lat="50.39091" lon="2.68821">
        <ele>138.57</ele>
        <time>2016-05-06T09:58:55Z</time>
      </trkpt>
      <trkpt lat="50.39089" lon="2.6882">
        <ele>138.57</ele>
        <time>2016-05-06T09:58:56Z</time>
      </trkpt>
      <trkpt lat="50.39088" lon="2.6882">
        <ele>138.57</ele>
        <time>2016-05-06T09:58:57Z</time>
      </trkpt>
      <trkpt lat="50.39064" lon="2.68809">
        <ele>139.05</ele>
        <time>2016-05-06T09:59:13Z</time>
      </trkpt>
      <trkpt lat="50.39046" lon="2.68799">
        <ele>139.53</ele>
        <time>2016-05-06T09:59:26Z</time>
      </trkpt>
      <trkpt lat="50.39027" lon="2.68794">
        <ele>140.01</ele>
        <time>2016-05-06T09:59:38Z</time>
      </trkpt>
      <trkpt lat="50.39026" lon="2.68793">
        <ele>140.01</ele>
        <time>2016-05-06T09:59:39Z</time>
      </trkpt>
      <trkpt lat="50.39024" lon="2.68792">
        <ele>140.01</ele>
        <time>2016-05-06T09:59:40Z</time>
      </trkpt>
      <trkpt lat="50.39023" lon="2.68791">
        <ele>140.01</ele>
        <time>2016-05-06T09:59:41Z</time>
      </trkpt>
      <trkpt lat="50.39022" lon="2.6879">
        <ele>140.01</ele>
        <time>2016-05-06T09:59:42Z</time>
      </trkpt>
      <trkpt lat="50.39" lon="2.6878">
        <ele>140.01</ele>
        <time>2016-05-06T09:59:57Z</time>
      </trkpt>
      <trkpt lat="50.38978" lon="2.6877">
        <ele>140.01</ele>
        <time>2016-05-06T10:00:11Z</time>
      </trkpt>
      <trkpt lat="50.38957" lon="2.6876">
        <ele>140.01</ele>
        <time>2016-05-06T10:00:26Z</time>
      </trkpt>
      <trkpt lat="50.38954" lon="2.68758">
        <ele>140.01</ele>
        <time>2016-05-06T10:00:28Z</time>
      </trkpt>
      <trkpt lat="50.38928" lon="2.68748">
        <ele>140.97</ele>
        <time>2016-05-06T10:00:45Z</time>
      </trkpt>
      <trkpt lat="50.38909" lon="2.68739">
        <ele>141.45</ele>
        <time>2016-05-06T10:00:58Z</time>
      </trkpt>
      <trkpt lat="50.38888" lon="2.6873">
        <ele>142.41</ele>
        <time>2016-05-06T10:01:12Z</time>
      </trkpt>
      <trkpt lat="50.38862" lon="2.68719">
        <ele>142.89</ele>
        <time>2016-05-06T10:01:30Z</time>
      </trkpt>
      <trkpt lat="50.38834" lon="2.68706">
        <ele>143.37</ele>
        <time>2016-05-06T10:01:49Z</time>
      </trkpt>
      <trkpt lat="50.3881" lon="2.68696">
        <ele>143.37</ele>
        <time>2016-05-06T10:02:05Z</time>
      </trkpt>
      <trkpt lat="50.38801" lon="2.68691">
        <ele>143.37</ele>
        <time>2016-05-06T10:02:20Z</time>
      </trkpt>
      <trkpt lat="50.388" lon="2.68691">
        <ele>143.37</ele>
        <time>2016-05-06T10:02:42Z</time>
      </trkpt>
      <trkpt lat="50.388" lon="2.68691">
        <ele>143.37</ele>
        <time>2016-05-06T10:03:11Z</time>
      </trkpt>
      <trkpt lat="50.388" lon="2.68692">
        <ele>143.37</ele>
        <time>2016-05-06T10:03:38Z</time>
      </trkpt>
      <trkpt lat="50.388" lon="2.68692">
        <ele>143.37</ele>
        <time>2016-05-06T10:04:07Z</time>
      </trkpt>
      <trkpt lat="50.38802" lon="2.68695">
        <ele>143.37</ele>
        <time>2016-05-06T10:04:30Z</time>
      </trkpt>
      <trkpt lat="50.38802" lon="2.68698">
        <ele>143.37</ele>
        <time>2016-05-06T10:04:31Z</time>
      </trkpt>
      <trkpt lat="50.38802" lon="2.68699">
        <ele>143.37</ele>
        <time>2016-05-06T10:04:32Z</time>
      </trkpt>
      <trkpt lat="50.38801" lon="2.68701">
        <ele>143.37</ele>
        <time>2016-05-06T10:04:33Z</time>
      </trkpt>
      <trkpt lat="50.38801" lon="2.68703">
        <ele>143.37</ele>
        <time>2016-05-06T10:04:34Z</time>
      </trkpt>
      <trkpt lat="50.388" lon="2.68705">
        <ele>143.37</ele>
        <time>2016-05-06T10:04:35Z</time>
      </trkpt>
      <trkpt lat="50.38798" lon="2.68715">
        <ele>143.37</ele>
        <time>2016-05-06T10:04:40Z</time>
      </trkpt>
      <trkpt lat="50.38798" lon="2.68717">
        <ele>143.37</ele>
        <time>2016-05-06T10:04:41Z</time>
      </trkpt>
      <trkpt lat="50.38797" lon="2.6872">
        <ele>143.37</ele>
        <time>2016-05-06T10:04:42Z</time>
      </trkpt>
      <trkpt lat="50.38797" lon="2.68722">
        <ele>141.93</ele>
        <time>2016-05-06T10:04:43Z</time>
      </trkpt>
      <trkpt lat="50.38797" lon="2.68725">
        <ele>141.93</ele>
        <time>2016-05-06T10:04:44Z</time>
      </trkpt>
      <trkpt lat="50.38791" lon="2.68758">
        <ele>141.45</ele>
        <time>2016-05-06T10:04:59Z</time>
      </trkpt>
      <trkpt lat="50.38785" lon="2.6879">
        <ele>141.45</ele>
        <time>2016-05-06T10:05:13Z</time>
      </trkpt>
      <trkpt lat="50.38783" lon="2.68802">
        <ele>141.45</ele>
        <time>2016-05-06T10:05:18Z</time>
      </trkpt>
      <trkpt lat="50.38782" lon="2.68804">
        <ele>141.45</ele>
        <time>2016-05-06T10:05:19Z</time>
      </trkpt>
      <trkpt lat="50.38781" lon="2.68806">
        <ele>141.45</ele>
        <time>2016-05-06T10:05:20Z</time>
      </trkpt>
      <trkpt lat="50.38781" lon="2.68808">
        <ele>141.45</ele>
        <time>2016-05-06T10:05:21Z</time>
      </trkpt>
      <trkpt lat="50.3878" lon="2.6881">
        <ele>141.45</ele>
        <time>2016-05-06T10:05:22Z</time>
      </trkpt>
      <trkpt lat="50.38774" lon="2.68842">
        <ele>141.45</ele>
        <time>2016-05-06T10:05:37Z</time>
      </trkpt>
      <trkpt lat="50.38769" lon="2.68874">
        <ele>141.45</ele>
        <time>2016-05-06T10:05:50Z</time>
      </trkpt>
      <trkpt lat="50.38769" lon="2.68876">
        <ele>141.45</ele>
        <time>2016-05-06T10:05:51Z</time>
      </trkpt>
      <trkpt lat="50.38768" lon="2.68879">
        <ele>141.45</ele>
        <time>2016-05-06T10:05:52Z</time>
      </trkpt>
      <trkpt lat="50.38767" lon="2.68881">
        <ele>141.45</ele>
        <time>2016-05-06T10:05:53Z</time>
      </trkpt>
      <trkpt lat="50.38766" lon="2.68883">
        <ele>141.45</ele>
        <time>2016-05-06T10:05:54Z</time>
      </trkpt>
      <trkpt lat="50.38762" lon="2.68911">
        <ele>141.93</ele>
        <time>2016-05-06T10:06:06Z</time>
      </trkpt>
      <trkpt lat="50.38756" lon="2.68941">
        <ele>141.93</ele>
        <time>2016-05-06T10:06:20Z</time>
      </trkpt>
      <trkpt lat="50.38747" lon="2.68966">
        <ele>141.93</ele>
        <time>2016-05-06T10:06:32Z</time>
      </trkpt>
      <trkpt lat="50.38746" lon="2.68965">
        <ele>141.93</ele>
        <time>2016-05-06T10:06:33Z</time>
      </trkpt>
      <trkpt lat="50.38732" lon="2.68937">
        <ele>141.93</ele>
        <time>2016-05-06T10:06:48Z</time>
      </trkpt>
      <trkpt lat="50.38723" lon="2.68916">
        <ele>141.93</ele>
        <time>2016-05-06T10:06:59Z</time>
      </trkpt>
      <trkpt lat="50.38722" lon="2.68914">
        <ele>141.93</ele>
        <time>2016-05-06T10:07:00Z</time>
      </trkpt>
      <trkpt lat="50.38708" lon="2.68888">
        <ele>141.45</ele>
        <time>2016-05-06T10:07:14Z</time>
      </trkpt>
      <trkpt lat="50.38693" lon="2.68865">
        <ele>141.45</ele>
        <time>2016-05-06T10:07:29Z</time>
      </trkpt>
      <trkpt lat="50.38678" lon="2.6884">
        <ele>140.49</ele>
        <time>2016-05-06T10:07:44Z</time>
      </trkpt>
      <trkpt lat="50.38667" lon="2.68821">
        <ele>140.01</ele>
        <time>2016-05-06T10:07:56Z</time>
      </trkpt>
      <trkpt lat="50.38654" lon="2.68806">
        <ele>140.01</ele>
        <time>2016-05-06T10:08:06Z</time>
      </trkpt>
      <trkpt lat="50.38651" lon="2.68802">
        <ele>140.01</ele>
        <time>2016-05-06T10:08:09Z</time>
      </trkpt>
      <trkpt lat="50.3865" lon="2.68801">
        <ele>140.01</ele>
        <time>2016-05-06T10:08:10Z</time>
      </trkpt>
      <trkpt lat="50.38648" lon="2.688">
        <ele>140.01</ele>
        <time>2016-05-06T10:08:11Z</time>
      </trkpt>
      <trkpt lat="50.38647" lon="2.688">
        <ele>140.01</ele>
        <time>2016-05-06T10:08:12Z</time>
      </trkpt>
      <trkpt lat="50.38646" lon="2.68799">
        <ele>140.01</ele>
        <time>2016-05-06T10:08:13Z</time>
      </trkpt>
      <trkpt lat="50.38645" lon="2.68799">
        <ele>140.01</ele>
        <time>2016-05-06T10:08:14Z</time>
      </trkpt>
      <trkpt lat="50.38643" lon="2.68799">
        <ele>140.01</ele>
        <time>2016-05-06T10:08:15Z</time>
      </trkpt>
      <trkpt lat="50.38642" lon="2.68798">
        <ele>140.01</ele>
        <time>2016-05-06T10:08:16Z</time>
      </trkpt>
      <trkpt lat="50.38619" lon="2.68801">
        <ele>139.05</ele>
        <time>2016-05-06T10:08:32Z</time>
      </trkpt>
      <trkpt lat="50.38594" lon="2.68829">
        <ele>139.05</ele>
        <time>2016-05-06T10:08:53Z</time>
      </trkpt>
      <trkpt lat="50.38583" lon="2.68861">
        <ele>138.57</ele>
        <time>2016-05-06T10:09:10Z</time>
      </trkpt>
      <trkpt lat="50.38585" lon="2.68866">
        <ele>140.01</ele>
        <time>2016-05-06T10:09:15Z</time>
      </trkpt>
      <trkpt lat="50.38586" lon="2.68867">
        <ele>140.01</ele>
        <time>2016-05-06T10:09:32Z</time>
      </trkpt>
      <trkpt lat="50.38588" lon="2.68867">
        <ele>140.01</ele>
        <time>2016-05-06T10:09:57Z</time>
      </trkpt>
      <trkpt lat="50.38588" lon="2.68867">
        <ele>140.01</ele>
        <time>2016-05-06T10:10:21Z</time>
      </trkpt>
      <trkpt lat="50.38588" lon="2.68866">
        <ele>139.53</ele>
        <time>2016-05-06T10:10:48Z</time>
      </trkpt>
      <trkpt lat="50.38588" lon="2.68867">
        <ele>139.53</ele>
        <time>2016-05-06T10:11:30Z</time>
      </trkpt>
      <trkpt lat="50.38586" lon="2.68868">
        <ele>140.49</ele>
        <time>2016-05-06T10:11:48Z</time>
      </trkpt>
      <trkpt lat="50.38586" lon="2.68868">
        <ele>139.05</ele>
        <time>2016-05-06T10:12:03Z</time>
      </trkpt>
      <trkpt lat="50.38585" lon="2.6887">
        <ele>139.05</ele>
        <time>2016-05-06T10:12:18Z</time>
      </trkpt>
      <trkpt lat="50.38584" lon="2.6887">
        <ele>139.05</ele>
        <time>2016-05-06T10:12:39Z</time>
      </trkpt>
      <trkpt lat="50.38584" lon="2.68871">
        <ele>139.05</ele>
        <time>2016-05-06T10:12:55Z</time>
      </trkpt>
      <trkpt lat="50.38585" lon="2.68869">
        <ele>140.49</ele>
        <time>2016-05-06T10:13:06Z</time>
      </trkpt>
      <trkpt lat="50.38585" lon="2.68863">
        <ele>139.05</ele>
        <time>2016-05-06T10:13:19Z</time>
      </trkpt>
      <trkpt lat="50.38586" lon="2.68868">
        <ele>139.05</ele>
        <time>2016-05-06T10:13:37Z</time>
      </trkpt>
      <trkpt lat="50.38585" lon="2.68866">
        <ele>139.05</ele>
        <time>2016-05-06T10:13:55Z</time>
      </trkpt>
      <trkpt lat="50.38585" lon="2.68868">
        <ele>139.05</ele>
        <time>2016-05-06T10:14:28Z</time>
      </trkpt>
      <trkpt lat="50.38586" lon="2.68869">
        <ele>139.05</ele>
        <time>2016-05-06T10:14:42Z</time>
      </trkpt>
      <trkpt lat="50.38586" lon="2.68867">
        <ele>140.49</ele>
        <time>2016-05-06T10:14:47Z</time>
      </trkpt>
      <trkpt lat="50.38586" lon="2.68868">
        <ele>138.57</ele>
        <time>2016-05-06T10:15:00Z</time>
      </trkpt>
      <trkpt lat="50.38586" lon="2.68869">
        <ele>138.57</ele>
        <time>2016-05-06T10:15:22Z</time>
      </trkpt>
      <trkpt lat="50.38586" lon="2.68865">
        <ele>138.57</ele>
        <time>2016-05-06T10:15:37Z</time>
      </trkpt>
      <trkpt lat="50.38586" lon="2.68864">
        <ele>138.57</ele>
        <time>2016-05-06T10:15:50Z</time>
      </trkpt>
      <trkpt lat="50.38584" lon="2.6887">
        <ele>140.01</ele>
        <time>2016-05-06T10:16:11Z</time>
      </trkpt>
      <trkpt lat="50.38584" lon="2.68871">
        <ele>138.57</ele>
        <time>2016-05-06T10:16:24Z</time>
      </trkpt>
      <trkpt lat="50.38585" lon="2.68871">
        <ele>138.57</ele>
        <time>2016-05-06T10:16:45Z</time>
      </trkpt>
      <trkpt lat="50.38585" lon="2.68867">
        <ele>139.53</ele>
        <time>2016-05-06T10:17:05Z</time>
      </trkpt>
      <trkpt lat="50.38586" lon="2.68868">
        <ele>139.53</ele>
        <time>2016-05-06T10:17:21Z</time>
      </trkpt>
      <trkpt lat="50.38587" lon="2.68868">
        <ele>139.53</ele>
        <time>2016-05-06T10:17:36Z</time>
      </trkpt>
      <trkpt lat="50.38586" lon="2.68869">
        <ele>139.53</ele>
        <time>2016-05-06T10:17:55Z</time>
      </trkpt>
      <trkpt lat="50.38586" lon="2.68869">
        <ele>138.09</ele>
        <time>2016-05-06T10:18:12Z</time>
      </trkpt>
      <trkpt lat="50.38586" lon="2.6887">
        <ele>138.09</ele>
        <time>2016-05-06T10:18:46Z</time>
      </trkpt>
      <trkpt lat="50.38585" lon="2.68867">
        <ele>137.61</ele>
        <time>2016-05-06T10:19:05Z</time>
      </trkpt>
      <trkpt lat="50.38585" lon="2.68866">
        <ele>139.05</ele>
        <time>2016-05-06T10:19:52Z</time>
      </trkpt>
      <trkpt lat="50.38585" lon="2.68868">
        <ele>139.05</ele>
        <time>2016-05-06T10:20:13Z</time>
      </trkpt>
      <trkpt lat="50.38584" lon="2.68868">
        <ele>139.05</ele>
        <time>2016-05-06T10:20:34Z</time>
      </trkpt>
      <trkpt lat="50.38584" lon="2.68864">
        <ele>138.09</ele>
        <time>2016-05-06T10:20:47Z</time>
      </trkpt>
      <trkpt lat="50.38585" lon="2.68863">
        <ele>138.09</ele>
        <time>2016-05-06T10:21:06Z</time>
      </trkpt>
      <trkpt lat="50.38585" lon="2.68869">
        <ele>139.05</ele>
        <time>2016-05-06T10:21:21Z</time>
      </trkpt>
      <trkpt lat="50.38584" lon="2.68868">
        <ele>139.05</ele>
        <time>2016-05-06T10:21:36Z</time>
      </trkpt>
      <trkpt lat="50.38585" lon="2.68871">
        <ele>139.05</ele>
        <time>2016-05-06T10:21:55Z</time>
      </trkpt>
      <trkpt lat="50.38585" lon="2.6887">
        <ele>139.05</ele>
        <time>2016-05-06T10:22:10Z</time>
      </trkpt>
      <trkpt lat="50.38585" lon="2.68869">
        <ele>139.05</ele>
        <time>2016-05-06T10:22:25Z</time>
      </trkpt>
      <trkpt lat="50.38585" lon="2.68867">
        <ele>139.05</ele>
        <time>2016-05-06T10:22:38Z</time>
      </trkpt>
      <trkpt lat="50.38585" lon="2.68868">
        <ele>139.05</ele>
        <time>2016-05-06T10:22:51Z</time>
      </trkpt>
      <trkpt lat="50.38587" lon="2.68866">
        <ele>139.05</ele>
        <time>2016-05-06T10:23:05Z</time>
      </trkpt>
      <trkpt lat="50.38586" lon="2.68869">
        <ele>139.05</ele>
        <time>2016-05-06T10:23:15Z</time>
      </trkpt>
      <trkpt lat="50.38587" lon="2.68868">
        <ele>139.05</ele>
        <time>2016-05-06T10:23:31Z</time>
      </trkpt>
      <trkpt lat="50.38589" lon="2.68868">
        <ele>139.05</ele>
        <time>2016-05-06T10:23:48Z</time>
      </trkpt>
      <trkpt lat="50.38588" lon="2.68869">
        <ele>139.53</ele>
        <time>2016-05-06T10:24:02Z</time>
      </trkpt>
      <trkpt lat="50.38588" lon="2.68864">
        <ele>139.53</ele>
        <time>2016-05-06T10:24:20Z</time>
      </trkpt>
      <trkpt lat="50.38588" lon="2.68862">
        <ele>140.01</ele>
        <time>2016-05-06T10:24:37Z</time>
      </trkpt>
      <trkpt lat="50.38588" lon="2.68863">
        <ele>140.01</ele>
        <time>2016-05-06T10:24:50Z</time>
      </trkpt>
      <trkpt lat="50.38587" lon="2.68864">
        <ele>140.01</ele>
        <time>2016-05-06T10:25:04Z</time>
      </trkpt>
      <trkpt lat="50.38587" lon="2.68869">
        <ele>140.01</ele>
        <time>2016-05-06T10:25:18Z</time>
      </trkpt>
      <trkpt lat="50.38587" lon="2.68867">
        <ele>139.05</ele>
        <time>2016-05-06T10:25:54Z</time>
      </trkpt>
      <trkpt lat="50.38586" lon="2.68865">
        <ele>139.05</ele>
        <time>2016-05-06T10:26:18Z</time>
      </trkpt>
      <trkpt lat="50.38585" lon="2.68866">
        <ele>139.05</ele>
        <time>2016-05-06T10:26:35Z</time>
      </trkpt>
      <trkpt lat="50.38584" lon="2.68865">
        <ele>139.05</ele>
        <time>2016-05-06T10:26:36Z</time>
      </trkpt>
      <trkpt lat="50.38582" lon="2.68869">
        <ele>139.05</ele>
        <time>2016-05-06T10:26:39Z</time>
      </trkpt>
      <trkpt lat="50.38577" lon="2.68901">
        <ele>139.05</ele>
        <time>2016-05-06T10:26:54Z</time>
      </trkpt>
      <trkpt lat="50.38572" lon="2.68943">
        <ele>138.09</ele>
        <time>2016-05-06T10:27:13Z</time>
      </trkpt>
      <trkpt lat="50.38569" lon="2.68979">
        <ele>139.05</ele>
        <time>2016-05-06T10:27:28Z</time>
      </trkpt>
      <trkpt lat="50.38565" lon="2.68995">
        <ele>140.01</ele>
        <time>2016-05-06T10:27:35Z</time>
      </trkpt>
      <trkpt lat="50.38565" lon="2.68997">
        <ele>140.01</ele>
        <time>2016-05-06T10:27:36Z</time>
      </trkpt>
      <trkpt lat="50.38564" lon="2.68999">
        <ele>140.49</ele>
        <time>2016-05-06T10:27:37Z</time>
      </trkpt>
      <trkpt lat="50.38564" lon="2.69001">
        <ele>140.49</ele>
        <time>2016-05-06T10:27:38Z</time>
      </trkpt>
      <trkpt lat="50.38564" lon="2.69003">
        <ele>140.49</ele>
        <time>2016-05-06T10:27:39Z</time>
      </trkpt>
      <trkpt lat="50.38563" lon="2.69005">
        <ele>140.49</ele>
        <time>2016-05-06T10:27:40Z</time>
      </trkpt>
      <trkpt lat="50.38563" lon="2.69007">
        <ele>140.49</ele>
        <time>2016-05-06T10:27:41Z</time>
      </trkpt>
      <trkpt lat="50.38562" lon="2.69009">
        <ele>140.49</ele>
        <time>2016-05-06T10:27:42Z</time>
      </trkpt>
      <trkpt lat="50.38561" lon="2.69011">
        <ele>140.49</ele>
        <time>2016-05-06T10:27:43Z</time>
      </trkpt>
      <trkpt lat="50.3856" lon="2.69013">
        <ele>140.49</ele>
        <time>2016-05-06T10:27:44Z</time>
      </trkpt>
      <trkpt lat="50.3856" lon="2.69015">
        <ele>140.49</ele>
        <time>2016-05-06T10:27:45Z</time>
      </trkpt>
      <trkpt lat="50.38559" lon="2.69017">
        <ele>140.49</ele>
        <time>2016-05-06T10:27:46Z</time>
      </trkpt>
      <trkpt lat="50.38559" lon="2.69019">
        <ele>140.49</ele>
        <time>2016-05-06T10:27:47Z</time>
      </trkpt>
      <trkpt lat="50.38548" lon="2.69051">
        <ele>139.05</ele>
        <time>2016-05-06T10:28:04Z</time>
      </trkpt>
      <trkpt lat="50.3854" lon="2.69071">
        <ele>138.57</ele>
        <time>2016-05-06T10:28:15Z</time>
      </trkpt>
      <trkpt lat="50.38538" lon="2.69078">
        <ele>139.05</ele>
        <time>2016-05-06T10:28:18Z</time>
      </trkpt>
      <trkpt lat="50.38537" lon="2.6908">
        <ele>139.05</ele>
        <time>2016-05-06T10:28:19Z</time>
      </trkpt>
      <trkpt lat="50.38536" lon="2.69082">
        <ele>138.09</ele>
        <time>2016-05-06T10:28:20Z</time>
      </trkpt>
      <trkpt lat="50.38535" lon="2.69085">
        <ele>138.09</ele>
        <time>2016-05-06T10:28:21Z</time>
      </trkpt>
      <trkpt lat="50.38535" lon="2.69088">
        <ele>138.09</ele>
        <time>2016-05-06T10:28:22Z</time>
      </trkpt>
      <trkpt lat="50.38534" lon="2.6909">
        <ele>138.09</ele>
        <time>2016-05-06T10:28:23Z</time>
      </trkpt>
      <trkpt lat="50.38534" lon="2.69093">
        <ele>138.09</ele>
        <time>2016-05-06T10:28:24Z</time>
      </trkpt>
      <trkpt lat="50.38533" lon="2.69095">
        <ele>138.09</ele>
        <time>2016-05-06T10:28:25Z</time>
      </trkpt>
      <trkpt lat="50.38533" lon="2.69097">
        <ele>138.09</ele>
        <time>2016-05-06T10:28:26Z</time>
      </trkpt>
      <trkpt lat="50.38532" lon="2.69099">
        <ele>138.09</ele>
        <time>2016-05-06T10:28:27Z</time>
      </trkpt>
      <trkpt lat="50.38531" lon="2.69101">
        <ele>138.09</ele>
        <time>2016-05-06T10:28:28Z</time>
      </trkpt>
      <trkpt lat="50.3853" lon="2.69103">
        <ele>138.09</ele>
        <time>2016-05-06T10:28:29Z</time>
      </trkpt>
      <trkpt lat="50.38514" lon="2.69149">
        <ele>136.64</ele>
        <time>2016-05-06T10:28:51Z</time>
      </trkpt>
      <trkpt lat="50.38511" lon="2.69156">
        <ele>136.64</ele>
        <time>2016-05-06T10:28:55Z</time>
      </trkpt>
      <trkpt lat="50.3851" lon="2.69158">
        <ele>136.64</ele>
        <time>2016-05-06T10:28:56Z</time>
      </trkpt>
      <trkpt lat="50.38501" lon="2.69189">
        <ele>135.68</ele>
        <time>2016-05-06T10:29:10Z</time>
      </trkpt>
      <trkpt lat="50.38497" lon="2.69202">
        <ele>137.13</ele>
        <time>2016-05-06T10:29:16Z</time>
      </trkpt>
      <trkpt lat="50.38496" lon="2.69204">
        <ele>137.13</ele>
        <time>2016-05-06T10:29:17Z</time>
      </trkpt>
      <trkpt lat="50.3849" lon="2.69228">
        <ele>137.13</ele>
        <time>2016-05-06T10:29:29Z</time>
      </trkpt>
      <trkpt lat="50.3849" lon="2.6923">
        <ele>137.13</ele>
        <time>2016-05-06T10:29:30Z</time>
      </trkpt>
      <trkpt lat="50.38482" lon="2.69258">
        <ele>137.61</ele>
        <time>2016-05-06T10:29:44Z</time>
      </trkpt>
      <trkpt lat="50.3848" lon="2.69262">
        <ele>136.16</ele>
        <time>2016-05-06T10:29:46Z</time>
      </trkpt>
      <trkpt lat="50.38471" lon="2.69291">
        <ele>135.68</ele>
        <time>2016-05-06T10:30:00Z</time>
      </trkpt>
      <trkpt lat="50.38459" lon="2.69319">
        <ele>134.24</ele>
        <time>2016-05-06T10:30:16Z</time>
      </trkpt>
      <trkpt lat="50.38448" lon="2.69339">
        <ele>134.24</ele>
        <time>2016-05-06T10:30:28Z</time>
      </trkpt>
      <trkpt lat="50.38448" lon="2.69341">
        <ele>134.24</ele>
        <time>2016-05-06T10:30:29Z</time>
      </trkpt>
      <trkpt lat="50.38443" lon="2.69352">
        <ele>134.72</ele>
        <time>2016-05-06T10:30:39Z</time>
      </trkpt>
      <trkpt lat="50.38442" lon="2.69352">
        <ele>134.72</ele>
        <time>2016-05-06T10:30:40Z</time>
      </trkpt>
      <trkpt lat="50.38438" lon="2.69357">
        <ele>134.72</ele>
        <time>2016-05-06T10:30:43Z</time>
      </trkpt>
      <trkpt lat="50.38437" lon="2.69358">
        <ele>134.72</ele>
        <time>2016-05-06T10:30:44Z</time>
      </trkpt>
      <trkpt lat="50.3843" lon="2.69369">
        <ele>134.72</ele>
        <time>2016-05-06T10:30:50Z</time>
      </trkpt>
      <trkpt lat="50.38429" lon="2.6937">
        <ele>134.72</ele>
        <time>2016-05-06T10:30:51Z</time>
      </trkpt>
      <trkpt lat="50.3841" lon="2.69389">
        <ele>134.24</ele>
        <time>2016-05-06T10:31:07Z</time>
      </trkpt>
      <trkpt lat="50.38394" lon="2.69406">
        <ele>133.28</ele>
        <time>2016-05-06T10:31:20Z</time>
      </trkpt>
      <trkpt lat="50.38373" lon="2.69425">
        <ele>131.84</ele>
        <time>2016-05-06T10:31:36Z</time>
      </trkpt>
      <trkpt lat="50.38355" lon="2.69441">
        <ele>131.84</ele>
        <time>2016-05-06T10:31:51Z</time>
      </trkpt>
      <trkpt lat="50.38341" lon="2.69467">
        <ele>130.88</ele>
        <time>2016-05-06T10:32:06Z</time>
      </trkpt>
      <trkpt lat="50.38329" lon="2.69493">
        <ele>130.88</ele>
        <time>2016-05-06T10:32:20Z</time>
      </trkpt>
      <trkpt lat="50.38319" lon="2.69516">
        <ele>130.88</ele>
        <time>2016-05-06T10:32:33Z</time>
      </trkpt>
      <trkpt lat="50.38306" lon="2.69541">
        <ele>130.4</ele>
        <time>2016-05-06T10:32:48Z</time>
      </trkpt>
      <trkpt lat="50.38306" lon="2.69543">
        <ele>130.4</ele>
        <time>2016-05-06T10:32:49Z</time>
      </trkpt>
      <trkpt lat="50.38305" lon="2.69546">
        <ele>130.4</ele>
        <time>2016-05-06T10:32:50Z</time>
      </trkpt>
      <trkpt lat="50.38294" lon="2.6957">
        <ele>129.92</ele>
        <time>2016-05-06T10:33:02Z</time>
      </trkpt>
      <trkpt lat="50.38279" lon="2.69601">
        <ele>129.43</ele>
        <time>2016-05-06T10:33:19Z</time>
      </trkpt>
      <trkpt lat="50.38262" lon="2.69635">
        <ele>128.47</ele>
        <time>2016-05-06T10:33:38Z</time>
      </trkpt>
      <trkpt lat="50.38248" lon="2.69657">
        <ele>127.99</ele>
        <time>2016-05-06T10:33:52Z</time>
      </trkpt>
      <trkpt lat="50.3823" lon="2.69684">
        <ele>127.99</ele>
        <time>2016-05-06T10:34:12Z</time>
      </trkpt>
      <trkpt lat="50.38227" lon="2.69684">
        <ele>127.99</ele>
        <time>2016-05-06T10:34:24Z</time>
      </trkpt>
      <trkpt lat="50.38228" lon="2.69682">
        <ele>127.03</ele>
        <time>2016-05-06T10:34:47Z</time>
      </trkpt>
      <trkpt lat="50.38227" lon="2.69679">
        <ele>126.55</ele>
        <time>2016-05-06T10:35:15Z</time>
      </trkpt>
      <trkpt lat="50.38227" lon="2.69676">
        <ele>126.55</ele>
        <time>2016-05-06T10:35:47Z</time>
      </trkpt>
      <trkpt lat="50.38227" lon="2.69681">
        <ele>126.55</ele>
        <time>2016-05-06T10:36:15Z</time>
      </trkpt>
      <trkpt lat="50.38226" lon="2.6969">
        <ele>126.55</ele>
        <time>2016-05-06T10:36:44Z</time>
      </trkpt>
      <trkpt lat="50.3822" lon="2.69699">
        <ele>126.55</ele>
        <time>2016-05-06T10:36:59Z</time>
      </trkpt>
      <trkpt lat="50.38207" lon="2.69719">
        <ele>126.07</ele>
        <time>2016-05-06T10:37:16Z</time>
      </trkpt>
      <trkpt lat="50.38196" lon="2.6974">
        <ele>125.59</ele>
        <time>2016-05-06T10:37:29Z</time>
      </trkpt>
      <trkpt lat="50.3819" lon="2.69761">
        <ele>125.11</ele>
        <time>2016-05-06T10:37:42Z</time>
      </trkpt>
      <trkpt lat="50.38184" lon="2.69789">
        <ele>124.15</ele>
        <time>2016-05-06T10:37:55Z</time>
      </trkpt>
      <trkpt lat="50.38178" lon="2.69837">
        <ele>123.67</ele>
        <time>2016-05-06T10:38:16Z</time>
      </trkpt>
      <trkpt lat="50.38174" lon="2.69886">
        <ele>121.74</ele>
        <time>2016-05-06T10:38:39Z</time>
      </trkpt>
      <trkpt lat="50.38168" lon="2.69924">
        <ele>119.34</ele>
        <time>2016-05-06T10:38:57Z</time>
      </trkpt>
      <trkpt lat="50.38165" lon="2.69963">
        <ele>116.94</ele>
        <time>2016-05-06T10:39:15Z</time>
      </trkpt>
      <trkpt lat="50.38163" lon="2.69983">
        <ele>115.98</ele>
        <time>2016-05-06T10:39:27Z</time>
      </trkpt>
      <trkpt lat="50.3816" lon="2.70013">
        <ele>114.05</ele>
        <time>2016-05-06T10:39:42Z</time>
      </trkpt>
      <trkpt lat="50.3816" lon="2.70015">
        <ele>114.05</ele>
        <time>2016-05-06T10:39:43Z</time>
      </trkpt>
      <trkpt lat="50.3816" lon="2.70017">
        <ele>114.05</ele>
        <time>2016-05-06T10:39:44Z</time>
      </trkpt>
      <trkpt lat="50.3816" lon="2.70019">
        <ele>113.57</ele>
        <time>2016-05-06T10:39:45Z</time>
      </trkpt>
      <trkpt lat="50.3816" lon="2.70021">
        <ele>113.57</ele>
        <time>2016-05-06T10:39:46Z</time>
      </trkpt>
      <trkpt lat="50.38159" lon="2.70024">
        <ele>113.57</ele>
        <time>2016-05-06T10:39:47Z</time>
      </trkpt>
      <trkpt lat="50.3816" lon="2.70026">
        <ele>113.57</ele>
        <time>2016-05-06T10:39:48Z</time>
      </trkpt>
      <trkpt lat="50.3816" lon="2.70028">
        <ele>113.09</ele>
        <time>2016-05-06T10:39:49Z</time>
      </trkpt>
      <trkpt lat="50.3816" lon="2.70031">
        <ele>113.09</ele>
        <time>2016-05-06T10:39:50Z</time>
      </trkpt>
      <trkpt lat="50.38159" lon="2.70036">
        <ele>112.13</ele>
        <time>2016-05-06T10:39:53Z</time>
      </trkpt>
      <trkpt lat="50.3816" lon="2.70038">
        <ele>112.13</ele>
        <time>2016-05-06T10:39:54Z</time>
      </trkpt>
      <trkpt lat="50.38163" lon="2.70039">
        <ele>112.13</ele>
        <time>2016-05-06T10:40:07Z</time>
      </trkpt>
      <trkpt lat="50.38158" lon="2.70036">
        <ele>112.13</ele>
        <time>2016-05-06T10:40:30Z</time>
      </trkpt>
      <trkpt lat="50.38163" lon="2.70046">
        <ele>112.13</ele>
        <time>2016-05-06T10:40:46Z</time>
      </trkpt>
      <trkpt lat="50.38167" lon="2.70047">
        <ele>112.13</ele>
        <time>2016-05-06T10:41:02Z</time>
      </trkpt>
      <trkpt lat="50.38165" lon="2.70049">
        <ele>113.09</ele>
        <time>2016-05-06T10:41:20Z</time>
      </trkpt>
      <trkpt lat="50.38163" lon="2.70045">
        <ele>113.09</ele>
        <time>2016-05-06T10:41:41Z</time>
      </trkpt>
      <trkpt lat="50.38162" lon="2.70045">
        <ele>113.09</ele>
        <time>2016-05-06T10:42:07Z</time>
      </trkpt>
      <trkpt lat="50.38165" lon="2.70045">
        <ele>113.57</ele>
        <time>2016-05-06T10:42:23Z</time>
      </trkpt>
      <trkpt lat="50.38168" lon="2.70046">
        <ele>113.57</ele>
        <time>2016-05-06T10:42:40Z</time>
      </trkpt>
      <trkpt lat="50.38167" lon="2.70044">
        <ele>113.57</ele>
        <time>2016-05-06T10:42:56Z</time>
      </trkpt>
      <trkpt lat="50.38169" lon="2.70045">
        <ele>113.09</ele>
        <time>2016-05-06T10:43:15Z</time>
      </trkpt>
      <trkpt lat="50.38167" lon="2.70042">
        <ele>113.09</ele>
        <time>2016-05-06T10:43:32Z</time>
      </trkpt>
      <trkpt lat="50.38166" lon="2.70039">
        <ele>113.09</ele>
        <time>2016-05-06T10:44:02Z</time>
      </trkpt>
      <trkpt lat="50.38166" lon="2.70041">
        <ele>113.09</ele>
        <time>2016-05-06T10:44:30Z</time>
      </trkpt>
      <trkpt lat="50.38165" lon="2.70042">
        <ele>113.09</ele>
        <time>2016-05-06T10:45:03Z</time>
      </trkpt>
      <trkpt lat="50.38167" lon="2.70042">
        <ele>113.09</ele>
        <time>2016-05-06T10:45:25Z</time>
      </trkpt>
      <trkpt lat="50.38168" lon="2.70041">
        <ele>114.53</ele>
        <time>2016-05-06T10:45:44Z</time>
      </trkpt>
      <trkpt lat="50.38171" lon="2.70039">
        <ele>114.53</ele>
        <time>2016-05-06T10:46:07Z</time>
      </trkpt>
      <trkpt lat="50.38179" lon="2.70031">
        <ele>117.42</ele>
        <time>2016-05-06T10:46:18Z</time>
      </trkpt>
      <trkpt lat="50.38194" lon="2.70015">
        <ele>120.78</ele>
        <time>2016-05-06T10:46:35Z</time>
      </trkpt>
      <trkpt lat="50.3821" lon="2.70003">
        <ele>122.71</ele>
        <time>2016-05-06T10:46:46Z</time>
      </trkpt>
      <trkpt lat="50.38231" lon="2.69985">
        <ele>125.11</ele>
        <time>2016-05-06T10:47:01Z</time>
      </trkpt>
      <trkpt lat="50.38246" lon="2.69971">
        <ele>126.07</ele>
        <time>2016-05-06T10:47:16Z</time>
      </trkpt>
      <trkpt lat="50.38262" lon="2.69964">
        <ele>127.03</ele>
        <time>2016-05-06T10:47:29Z</time>
      </trkpt>
      <trkpt lat="50.3828" lon="2.69955">
        <ele>127.99</ele>
        <time>2016-05-06T10:47:42Z</time>
      </trkpt>
      <trkpt lat="50.38299" lon="2.69947">
        <ele>128.95</ele>
        <time>2016-05-06T10:47:56Z</time>
      </trkpt>
      <trkpt lat="50.38301" lon="2.69946">
        <ele>129.43</ele>
        <time>2016-05-06T10:47:58Z</time>
      </trkpt>
      <trkpt lat="50.38303" lon="2.69945">
        <ele>129.43</ele>
        <time>2016-05-06T10:47:59Z</time>
      </trkpt>
      <trkpt lat="50.38304" lon="2.69944">
        <ele>129.43</ele>
        <time>2016-05-06T10:48:00Z</time>
      </trkpt>
      <trkpt lat="50.38306" lon="2.69944">
        <ele>129.43</ele>
        <time>2016-05-06T10:48:01Z</time>
      </trkpt>
      <trkpt lat="50.38308" lon="2.69943">
        <ele>130.4</ele>
        <time>2016-05-06T10:48:02Z</time>
      </trkpt>
      <trkpt lat="50.38334" lon="2.69933">
        <ele>130.88</ele>
        <time>2016-05-06T10:48:21Z</time>
      </trkpt>
      <trkpt lat="50.38338" lon="2.69931">
        <ele>130.88</ele>
        <time>2016-05-06T10:48:24Z</time>
      </trkpt>
      <trkpt lat="50.38339" lon="2.6993">
        <ele>131.36</ele>
        <time>2016-05-06T10:48:25Z</time>
      </trkpt>
      <trkpt lat="50.3834" lon="2.6993">
        <ele>131.36</ele>
        <time>2016-05-06T10:48:26Z</time>
      </trkpt>
      <trkpt lat="50.38341" lon="2.6993">
        <ele>131.36</ele>
        <time>2016-05-06T10:48:27Z</time>
      </trkpt>
      <trkpt lat="50.38343" lon="2.6993">
        <ele>131.36</ele>
        <time>2016-05-06T10:48:28Z</time>
      </trkpt>
      <trkpt lat="50.38344" lon="2.69929">
        <ele>131.36</ele>
        <time>2016-05-06T10:48:29Z</time>
      </trkpt>
      <trkpt lat="50.38364" lon="2.69923">
        <ele>131.84</ele>
        <time>2016-05-06T10:48:43Z</time>
      </trkpt>
      <trkpt lat="50.3839" lon="2.69915">
        <ele>132.8</ele>
        <time>2016-05-06T10:49:00Z</time>
      </trkpt>
      <trkpt lat="50.38412" lon="2.6991">
        <ele>133.28</ele>
        <time>2016-05-06T10:49:17Z</time>
      </trkpt>
      <trkpt lat="50.38411" lon="2.69911">
        <ele>133.28</ele>
        <time>2016-05-06T10:49:31Z</time>
      </trkpt>
      <trkpt lat="50.38409" lon="2.69912">
        <ele>133.28</ele>
        <time>2016-05-06T10:49:48Z</time>
      </trkpt>
      <trkpt lat="50.3841" lon="2.69912">
        <ele>132.8</ele>
        <time>2016-05-06T10:50:17Z</time>
      </trkpt>
      <trkpt lat="50.3841" lon="2.69912">
        <ele>132.8</ele>
        <time>2016-05-06T10:50:40Z</time>
      </trkpt>
      <trkpt lat="50.38413" lon="2.69909">
        <ele>131.84</ele>
        <time>2016-05-06T10:50:49Z</time>
      </trkpt>
      <trkpt lat="50.38414" lon="2.69908">
        <ele>132.8</ele>
        <time>2016-05-06T10:50:51Z</time>
      </trkpt>
      <trkpt lat="50.38416" lon="2.69908">
        <ele>132.8</ele>
        <time>2016-05-06T10:50:52Z</time>
      </trkpt>
      <trkpt lat="50.38434" lon="2.69903">
        <ele>133.76</ele>
        <time>2016-05-06T10:51:10Z</time>
      </trkpt>
      <trkpt lat="50.38435" lon="2.69902">
        <ele>133.76</ele>
        <time>2016-05-06T10:51:11Z</time>
      </trkpt>
      <trkpt lat="50.38446" lon="2.699">
        <ele>133.28</ele>
        <time>2016-05-06T10:51:22Z</time>
      </trkpt>
      <trkpt lat="50.38461" lon="2.69896">
        <ele>133.28</ele>
        <time>2016-05-06T10:51:35Z</time>
      </trkpt>
      <trkpt lat="50.38462" lon="2.69895">
        <ele>133.76</ele>
        <time>2016-05-06T10:51:36Z</time>
      </trkpt>
      <trkpt lat="50.38473" lon="2.69892">
        <ele>133.76</ele>
        <time>2016-05-06T10:51:44Z</time>
      </trkpt>
      <trkpt lat="50.38474" lon="2.69892">
        <ele>133.76</ele>
        <time>2016-05-06T10:51:45Z</time>
      </trkpt>
      <trkpt lat="50.38475" lon="2.69892">
        <ele>133.76</ele>
        <time>2016-05-06T10:51:46Z</time>
      </trkpt>
      <trkpt lat="50.38476" lon="2.69891">
        <ele>133.76</ele>
        <time>2016-05-06T10:51:47Z</time>
      </trkpt>
      <trkpt lat="50.38478" lon="2.69891">
        <ele>133.76</ele>
        <time>2016-05-06T10:51:48Z</time>
      </trkpt>
      <trkpt lat="50.3848" lon="2.6989">
        <ele>133.76</ele>
        <time>2016-05-06T10:51:49Z</time>
      </trkpt>
      <trkpt lat="50.38482" lon="2.69889">
        <ele>133.76</ele>
        <time>2016-05-06T10:51:50Z</time>
      </trkpt>
      <trkpt lat="50.38502" lon="2.69881">
        <ele>133.76</ele>
        <time>2016-05-06T10:52:04Z</time>
      </trkpt>
      <trkpt lat="50.38533" lon="2.69872">
        <ele>134.24</ele>
        <time>2016-05-06T10:52:24Z</time>
      </trkpt>
      <trkpt lat="50.38563" lon="2.69865">
        <ele>134.72</ele>
        <time>2016-05-06T10:52:43Z</time>
      </trkpt>
      <trkpt lat="50.38593" lon="2.69862">
        <ele>134.72</ele>
        <time>2016-05-06T10:53:02Z</time>
      </trkpt>
      <trkpt lat="50.38619" lon="2.6986">
        <ele>134.72</ele>
        <time>2016-05-06T10:53:20Z</time>
      </trkpt>
      <trkpt lat="50.3863" lon="2.69858">
        <ele>134.72</ele>
        <time>2016-05-06T10:53:37Z</time>
      </trkpt>
      <trkpt lat="50.38628" lon="2.69858">
        <ele>134.72</ele>
        <time>2016-05-06T10:53:54Z</time>
      </trkpt>
      <trkpt lat="50.38628" lon="2.69858">
        <ele>134.72</ele>
        <time>2016-05-06T10:54:14Z</time>
      </trkpt>
      <trkpt lat="50.38628" lon="2.69858">
        <ele>133.28</ele>
        <time>2016-05-06T10:54:21Z</time>
      </trkpt>
      <trkpt lat="50.3863" lon="2.69857">
        <ele>133.28</ele>
        <time>2016-05-06T10:54:40Z</time>
      </trkpt>
      <trkpt lat="50.3863" lon="2.69857">
        <ele>133.28</ele>
        <time>2016-05-06T10:54:59Z</time>
      </trkpt>
      <trkpt lat="50.38632" lon="2.69858">
        <ele>133.28</ele>
        <time>2016-05-06T10:55:24Z</time>
      </trkpt>
      <trkpt lat="50.38631" lon="2.69859">
        <ele>133.28</ele>
        <time>2016-05-06T10:55:53Z</time>
      </trkpt>
      <trkpt lat="50.38632" lon="2.69861">
        <ele>133.28</ele>
        <time>2016-05-06T10:56:23Z</time>
      </trkpt>
      <trkpt lat="50.38633" lon="2.69862">
        <ele>133.28</ele>
        <time>2016-05-06T10:56:24Z</time>
      </trkpt>
      <trkpt lat="50.38635" lon="2.69862">
        <ele>133.28</ele>
        <time>2016-05-06T10:56:25Z</time>
      </trkpt>
      <trkpt lat="50.38636" lon="2.69862">
        <ele>133.28</ele>
        <time>2016-05-06T10:56:26Z</time>
      </trkpt>
      <trkpt lat="50.38637" lon="2.69862">
        <ele>133.28</ele>
        <time>2016-05-06T10:56:27Z</time>
      </trkpt>
      <trkpt lat="50.3866" lon="2.69866">
        <ele>132.32</ele>
        <time>2016-05-06T10:56:45Z</time>
      </trkpt>
      <trkpt lat="50.38686" lon="2.69867">
        <ele>131.36</ele>
        <time>2016-05-06T10:57:02Z</time>
      </trkpt>
      <trkpt lat="50.38709" lon="2.6986">
        <ele>129.92</ele>
        <time>2016-05-06T10:57:18Z</time>
      </trkpt>
      <trkpt lat="50.38736" lon="2.69865">
        <ele>128.95</ele>
        <time>2016-05-06T10:57:37Z</time>
      </trkpt>
      <trkpt lat="50.38757" lon="2.69881">
        <ele>127.99</ele>
        <time>2016-05-06T10:57:53Z</time>
      </trkpt>
      <trkpt lat="50.38778" lon="2.69897">
        <ele>127.99</ele>
        <time>2016-05-06T10:58:08Z</time>
      </trkpt>
      <trkpt lat="50.388" lon="2.69913">
        <ele>127.03</ele>
        <time>2016-05-06T10:58:24Z</time>
      </trkpt>
      <trkpt lat="50.38819" lon="2.69927">
        <ele>126.07</ele>
        <time>2016-05-06T10:58:39Z</time>
      </trkpt>
      <trkpt lat="50.38848" lon="2.69947">
        <ele>125.59</ele>
        <time>2016-05-06T10:59:00Z</time>
      </trkpt>
      <trkpt lat="50.38867" lon="2.69967">
        <ele>125.11</ele>
        <time>2016-05-06T10:59:15Z</time>
      </trkpt>
      <trkpt lat="50.38882" lon="2.69984">
        <ele>124.63</ele>
        <time>2016-05-06T10:59:32Z</time>
      </trkpt>
      <trkpt lat="50.38882" lon="2.69985">
        <ele>124.63</ele>
        <time>2016-05-06T10:59:48Z</time>
      </trkpt>
      <trkpt lat="50.38882" lon="2.69985">
        <ele>124.63</ele>
        <time>2016-05-06T11:00:06Z</time>
      </trkpt>
      <trkpt lat="50.38882" lon="2.69984">
        <ele>124.63</ele>
        <time>2016-05-06T11:00:47Z</time>
      </trkpt>
      <trkpt lat="50.38882" lon="2.69987">
        <ele>124.63</ele>
        <time>2016-05-06T11:01:05Z</time>
      </trkpt>
      <trkpt lat="50.38882" lon="2.69988">
        <ele>124.63</ele>
        <time>2016-05-06T11:01:24Z</time>
      </trkpt>
      <trkpt lat="50.38882" lon="2.69988">
        <ele>124.63</ele>
        <time>2016-05-06T11:01:47Z</time>
      </trkpt>
      <trkpt lat="50.3888" lon="2.69988">
        <ele>124.63</ele>
        <time>2016-05-06T11:02:19Z</time>
      </trkpt>
      <trkpt lat="50.38886" lon="2.69989">
        <ele>124.15</ele>
        <time>2016-05-06T11:02:45Z</time>
      </trkpt>
      <trkpt lat="50.38898" lon="2.69999">
        <ele>123.67</ele>
        <time>2016-05-06T11:02:56Z</time>
      </trkpt>
      <trkpt lat="50.38918" lon="2.70021">
        <ele>123.19</ele>
        <time>2016-05-06T11:03:12Z</time>
      </trkpt>
      <trkpt lat="50.38943" lon="2.70047">
        <ele>121.74</ele>
        <time>2016-05-06T11:03:33Z</time>
      </trkpt>
      <trkpt lat="50.38963" lon="2.70072">
        <ele>120.78</ele>
        <time>2016-05-06T11:03:50Z</time>
      </trkpt>
      <trkpt lat="50.38979" lon="2.7009">
        <ele>120.3</ele>
        <time>2016-05-06T11:04:03Z</time>
      </trkpt>
      <trkpt lat="50.39" lon="2.70106">
        <ele>118.38</ele>
        <time>2016-05-06T11:04:20Z</time>
      </trkpt>
      <trkpt lat="50.39019" lon="2.70095">
        <ele>117.42</ele>
        <time>2016-05-06T11:04:38Z</time>
      </trkpt>
      <trkpt lat="50.39016" lon="2.70058">
        <ele>119.34</ele>
        <time>2016-05-06T11:04:54Z</time>
      </trkpt>
      <trkpt lat="50.39013" lon="2.70018">
        <ele>121.26</ele>
        <time>2016-05-06T11:05:11Z</time>
      </trkpt>
      <trkpt lat="50.39004" lon="2.69972">
        <ele>122.71</ele>
        <time>2016-05-06T11:05:32Z</time>
      </trkpt>
      <trkpt lat="50.38991" lon="2.69931">
        <ele>123.67</ele>
        <time>2016-05-06T11:05:52Z</time>
      </trkpt>
      <trkpt lat="50.38983" lon="2.69902">
        <ele>124.15</ele>
        <time>2016-05-06T11:06:06Z</time>
      </trkpt>
      <trkpt lat="50.38973" lon="2.69876">
        <ele>125.11</ele>
        <time>2016-05-06T11:06:20Z</time>
      </trkpt>
      <trkpt lat="50.38963" lon="2.69844">
        <ele>126.07</ele>
        <time>2016-05-06T11:06:36Z</time>
      </trkpt>
      <trkpt lat="50.38952" lon="2.69812">
        <ele>126.55</ele>
        <time>2016-05-06T11:06:51Z</time>
      </trkpt>
      <trkpt lat="50.38949" lon="2.69801">
        <ele>127.03</ele>
        <time>2016-05-06T11:06:56Z</time>
      </trkpt>
      <trkpt lat="50.38948" lon="2.69799">
        <ele>127.03</ele>
        <time>2016-05-06T11:06:57Z</time>
      </trkpt>
      <trkpt lat="50.38947" lon="2.69797">
        <ele>127.03</ele>
        <time>2016-05-06T11:06:58Z</time>
      </trkpt>
      <trkpt lat="50.38946" lon="2.69795">
        <ele>127.03</ele>
        <time>2016-05-06T11:06:59Z</time>
      </trkpt>
      <trkpt lat="50.38945" lon="2.69793">
        <ele>127.03</ele>
        <time>2016-05-06T11:07:00Z</time>
      </trkpt>
      <trkpt lat="50.38944" lon="2.69791">
        <ele>127.03</ele>
        <time>2016-05-06T11:07:01Z</time>
      </trkpt>
      <trkpt lat="50.38934" lon="2.69761">
        <ele>127.99</ele>
        <time>2016-05-06T11:07:15Z</time>
      </trkpt>
      <trkpt lat="50.38919" lon="2.69716">
        <ele>128.95</ele>
        <time>2016-05-06T11:07:37Z</time>
      </trkpt>
      <trkpt lat="50.3891" lon="2.69676">
        <ele>129.92</ele>
        <time>2016-05-06T11:07:56Z</time>
      </trkpt>
      <trkpt lat="50.38909" lon="2.69672">
        <ele>129.92</ele>
        <time>2016-05-06T11:07:58Z</time>
      </trkpt>
      <trkpt lat="50.3891" lon="2.6967">
        <ele>129.92</ele>
        <time>2016-05-06T11:07:59Z</time>
      </trkpt>
      <trkpt lat="50.3891" lon="2.69668">
        <ele>129.92</ele>
        <time>2016-05-06T11:08:00Z</time>
      </trkpt>
      <trkpt lat="50.38911" lon="2.69666">
        <ele>129.92</ele>
        <time>2016-05-06T11:08:01Z</time>
      </trkpt>
      <trkpt lat="50.38911" lon="2.69664">
        <ele>129.92</ele>
        <time>2016-05-06T11:08:02Z</time>
      </trkpt>
      <trkpt lat="50.38919" lon="2.6962">
        <ele>130.4</ele>
        <time>2016-05-06T11:08:24Z</time>
      </trkpt>
      <trkpt lat="50.38921" lon="2.6961">
        <ele>131.36</ele>
        <time>2016-05-06T11:08:38Z</time>
      </trkpt>
      <trkpt lat="50.38923" lon="2.69611">
        <ele>130.88</ele>
        <time>2016-05-06T11:08:56Z</time>
      </trkpt>
      <trkpt lat="50.38923" lon="2.69611">
        <ele>130.88</ele>
        <time>2016-05-06T11:09:14Z</time>
      </trkpt>
      <trkpt lat="50.38922" lon="2.6961">
        <ele>130.88</ele>
        <time>2016-05-06T11:09:35Z</time>
      </trkpt>
      <trkpt lat="50.38921" lon="2.69613">
        <ele>130.88</ele>
        <time>2016-05-06T11:10:00Z</time>
      </trkpt>
      <trkpt lat="50.38923" lon="2.6961">
        <ele>131.36</ele>
        <time>2016-05-06T11:10:22Z</time>
      </trkpt>
      <trkpt lat="50.38928" lon="2.69611">
        <ele>131.36</ele>
        <time>2016-05-06T11:10:42Z</time>
      </trkpt>
      <trkpt lat="50.38929" lon="2.6961">
        <ele>130.4</ele>
        <time>2016-05-06T11:10:56Z</time>
      </trkpt>
      <trkpt lat="50.3893" lon="2.69611">
        <ele>129.92</ele>
        <time>2016-05-06T11:10:57Z</time>
      </trkpt>
      <trkpt lat="50.38933" lon="2.69613">
        <ele>129.92</ele>
        <time>2016-05-06T11:10:59Z</time>
      </trkpt>
      <trkpt lat="50.3895" lon="2.69624">
        <ele>129.43</ele>
        <time>2016-05-06T11:11:14Z</time>
      </trkpt>
      <trkpt lat="50.38968" lon="2.69634">
        <ele>127.99</ele>
        <time>2016-05-06T11:11:29Z</time>
      </trkpt>
      <trkpt lat="50.38988" lon="2.69649">
        <ele>126.07</ele>
        <time>2016-05-06T11:11:44Z</time>
      </trkpt>
      <trkpt lat="50.39004" lon="2.69661">
        <ele>125.59</ele>
        <time>2016-05-06T11:11:56Z</time>
      </trkpt>
      <trkpt lat="50.39023" lon="2.69671">
        <ele>125.11</ele>
        <time>2016-05-06T11:12:11Z</time>
      </trkpt>
      <trkpt lat="50.39046" lon="2.69683">
        <ele>123.19</ele>
        <time>2016-05-06T11:12:28Z</time>
      </trkpt>
      <trkpt lat="50.39072" lon="2.69702">
        <ele>121.74</ele>
        <time>2016-05-06T11:12:47Z</time>
      </trkpt>
      <trkpt lat="50.39087" lon="2.69713">
        <ele>120.3</ele>
        <time>2016-05-06T11:12:59Z</time>
      </trkpt>
      <trkpt lat="50.39105" lon="2.69723">
        <ele>120.3</ele>
        <time>2016-05-06T11:13:12Z</time>
      </trkpt>
      <trkpt lat="50.3913" lon="2.69736">
        <ele>118.86</ele>
        <time>2016-05-06T11:13:33Z</time>
      </trkpt>
      <trkpt lat="50.39152" lon="2.69746">
        <ele>117.42</ele>
        <time>2016-05-06T11:13:51Z</time>
      </trkpt>
      <trkpt lat="50.3918" lon="2.69762">
        <ele>116.46</ele>
        <time>2016-05-06T11:14:14Z</time>
      </trkpt>
      <trkpt lat="50.39201" lon="2.69771">
        <ele>115.5</ele>
        <time>2016-05-06T11:14:31Z</time>
      </trkpt>
      <trkpt lat="50.39219" lon="2.69778">
        <ele>114.05</ele>
        <time>2016-05-06T11:14:47Z</time>
      </trkpt>
      <trkpt lat="50.39243" lon="2.69789">
        <ele>112.61</ele>
        <time>2016-05-06T11:15:06Z</time>
      </trkpt>
      <trkpt lat="50.39263" lon="2.69799">
        <ele>111.65</ele>
        <time>2016-05-06T11:15:23Z</time>
      </trkpt>
      <trkpt lat="50.39283" lon="2.69816">
        <ele>109.73</ele>
        <time>2016-05-06T11:15:41Z</time>
      </trkpt>
      <trkpt lat="50.39304" lon="2.69837">
        <ele>109.25</ele>
        <time>2016-05-06T11:15:59Z</time>
      </trkpt>
      <trkpt lat="50.39323" lon="2.69857">
        <ele>106.84</ele>
        <time>2016-05-06T11:16:16Z</time>
      </trkpt>
      <trkpt lat="50.39325" lon="2.69859">
        <ele>108.77</ele>
        <time>2016-05-06T11:16:18Z</time>
      </trkpt>
      <trkpt lat="50.39347" lon="2.69885">
        <ele>106.36</ele>
        <time>2016-05-06T11:16:38Z</time>
      </trkpt>
      <trkpt lat="50.39368" lon="2.69906">
        <ele>105.4</ele>
        <time>2016-05-06T11:16:59Z</time>
      </trkpt>
      <trkpt lat="50.39378" lon="2.69915">
        <ele>104.44</ele>
        <time>2016-05-06T11:17:14Z</time>
      </trkpt>
      <trkpt lat="50.39379" lon="2.69918">
        <ele>103.96</ele>
        <time>2016-05-06T11:17:25Z</time>
      </trkpt>
      <trkpt lat="50.39374" lon="2.69912">
        <ele>103.96</ele>
        <time>2016-05-06T11:17:38Z</time>
      </trkpt>
      <trkpt lat="50.39373" lon="2.69907">
        <ele>103.96</ele>
        <time>2016-05-06T11:17:50Z</time>
      </trkpt>
      <trkpt lat="50.39373" lon="2.69908">
        <ele>103.96</ele>
        <time>2016-05-06T11:18:16Z</time>
      </trkpt>
      <trkpt lat="50.39373" lon="2.69908">
        <ele>105.88</ele>
        <time>2016-05-06T11:18:44Z</time>
      </trkpt>
      <trkpt lat="50.39372" lon="2.6991">
        <ele>104.44</ele>
        <time>2016-05-06T11:19:11Z</time>
      </trkpt>
      <trkpt lat="50.39389" lon="2.69928">
        <ele>103.96</ele>
        <time>2016-05-06T11:19:30Z</time>
      </trkpt>
      <trkpt lat="50.39391" lon="2.69929">
        <ele>103.48</ele>
        <time>2016-05-06T11:19:48Z</time>
      </trkpt>
      <trkpt lat="50.39392" lon="2.6993">
        <ele>103.48</ele>
        <time>2016-05-06T11:20:06Z</time>
      </trkpt>
      <trkpt lat="50.39392" lon="2.6993">
        <ele>103</ele>
        <time>2016-05-06T11:20:46Z</time>
      </trkpt>
      <trkpt lat="50.39393" lon="2.69929">
        <ele>104.92</ele>
        <time>2016-05-06T11:21:09Z</time>
      </trkpt>
      <trkpt lat="50.39392" lon="2.6993">
        <ele>104.92</ele>
        <time>2016-05-06T11:21:32Z</time>
      </trkpt>
      <trkpt lat="50.39391" lon="2.69931">
        <ele>104.92</ele>
        <time>2016-05-06T11:21:44Z</time>
      </trkpt>
      <trkpt lat="50.39374" lon="2.69912">
        <ele>104.44</ele>
        <time>2016-05-06T11:22:03Z</time>
      </trkpt>
      <trkpt lat="50.39355" lon="2.69893">
        <ele>105.88</ele>
        <time>2016-05-06T11:22:21Z</time>
      </trkpt>
      <trkpt lat="50.39339" lon="2.69878">
        <ele>105.88</ele>
        <time>2016-05-06T11:22:36Z</time>
      </trkpt>
      <trkpt lat="50.39322" lon="2.69857">
        <ele>106.84</ele>
        <time>2016-05-06T11:22:52Z</time>
      </trkpt>
      <trkpt lat="50.39305" lon="2.69841">
        <ele>108.29</ele>
        <time>2016-05-06T11:23:08Z</time>
      </trkpt>
      <trkpt lat="50.39285" lon="2.6982">
        <ele>109.25</ele>
        <time>2016-05-06T11:23:28Z</time>
      </trkpt>
      <trkpt lat="50.39268" lon="2.69801">
        <ele>110.69</ele>
        <time>2016-05-06T11:23:44Z</time>
      </trkpt>
      <trkpt lat="50.39245" lon="2.6979">
        <ele>112.13</ele>
        <time>2016-05-06T11:24:02Z</time>
      </trkpt>
      <trkpt lat="50.39232" lon="2.6978">
        <ele>113.57</ele>
        <time>2016-05-06T11:24:18Z</time>
      </trkpt>
      <trkpt lat="50.3922" lon="2.69777">
        <ele>113.57</ele>
        <time>2016-05-06T11:24:32Z</time>
      </trkpt>
      <trkpt lat="50.3922" lon="2.69774">
        <ele>114.53</ele>
        <time>2016-05-06T11:24:42Z</time>
      </trkpt>
      <trkpt lat="50.3922" lon="2.69774">
        <ele>114.53</ele>
        <time>2016-05-06T11:24:43Z</time>
      </trkpt>
      <trkpt lat="50.3922" lon="2.69775">
        <ele>113.57</ele>
        <time>2016-05-06T11:24:56Z</time>
      </trkpt>
      <trkpt lat="50.39221" lon="2.69773">
        <ele>113.57</ele>
        <time>2016-05-06T11:25:08Z</time>
      </trkpt>
      <trkpt lat="50.3922" lon="2.69774">
        <ele>113.57</ele>
        <time>2016-05-06T11:25:26Z</time>
      </trkpt>
      <trkpt lat="50.3922" lon="2.69773">
        <ele>113.57</ele>
        <time>2016-05-06T11:26:04Z</time>
      </trkpt>
      <trkpt lat="50.3922" lon="2.69771">
        <ele>113.09</ele>
        <time>2016-05-06T11:26:37Z</time>
      </trkpt>
      <trkpt lat="50.39222" lon="2.69778">
        <ele>113.09</ele>
        <time>2016-05-06T11:26:53Z</time>
      </trkpt>
      <trkpt lat="50.39228" lon="2.69781">
        <ele>113.09</ele>
        <time>2016-05-06T11:26:59Z</time>
      </trkpt>
      <trkpt lat="50.39249" lon="2.69792">
        <ele>112.13</ele>
        <time>2016-05-06T11:27:16Z</time>
      </trkpt>
      <trkpt lat="50.39273" lon="2.69805">
        <ele>110.21</ele>
        <time>2016-05-06T11:27:36Z</time>
      </trkpt>
      <trkpt lat="50.3929" lon="2.69823">
        <ele>108.77</ele>
        <time>2016-05-06T11:27:54Z</time>
      </trkpt>
      <trkpt lat="50.39307" lon="2.69841">
        <ele>107.81</ele>
        <time>2016-05-06T11:28:10Z</time>
      </trkpt>
      <trkpt lat="50.39326" lon="2.69862">
        <ele>106.84</ele>
        <time>2016-05-06T11:28:28Z</time>
      </trkpt>
      <trkpt lat="50.39333" lon="2.6987">
        <ele>106.84</ele>
        <time>2016-05-06T11:28:35Z</time>
      </trkpt>
      <trkpt lat="50.39352" lon="2.69891">
        <ele>105.4</ele>
        <time>2016-05-06T11:28:52Z</time>
      </trkpt>
      <trkpt lat="50.39369" lon="2.69909">
        <ele>104.92</ele>
        <time>2016-05-06T11:29:08Z</time>
      </trkpt>
      <trkpt lat="50.3939" lon="2.6993">
        <ele>103</ele>
        <time>2016-05-06T11:29:26Z</time>
      </trkpt>
      <trkpt lat="50.39408" lon="2.69951">
        <ele>102.52</ele>
        <time>2016-05-06T11:29:41Z</time>
      </trkpt>
      <trkpt lat="50.39427" lon="2.69969">
        <ele>101.08</ele>
        <time>2016-05-06T11:29:58Z</time>
      </trkpt>
      <trkpt lat="50.39445" lon="2.69987">
        <ele>99.63</ele>
        <time>2016-05-06T11:30:15Z</time>
      </trkpt>
      <trkpt lat="50.39466" lon="2.70008">
        <ele>98.67</ele>
        <time>2016-05-06T11:30:32Z</time>
      </trkpt>
      <trkpt lat="50.39484" lon="2.70026">
        <ele>97.23</ele>
        <time>2016-05-06T11:30:47Z</time>
      </trkpt>
      <trkpt lat="50.39505" lon="2.70048">
        <ele>95.79</ele>
        <time>2016-05-06T11:31:03Z</time>
      </trkpt>
      <trkpt lat="50.39523" lon="2.70066">
        <ele>95.31</ele>
        <time>2016-05-06T11:31:18Z</time>
      </trkpt>
      <trkpt lat="50.3953" lon="2.70075">
        <ele>94.35</ele>
        <time>2016-05-06T11:31:25Z</time>
      </trkpt>
      <trkpt lat="50.39549" lon="2.7009">
        <ele>93.39</ele>
        <time>2016-05-06T11:31:39Z</time>
      </trkpt>
      <trkpt lat="50.39553" lon="2.70094">
        <ele>92.9</ele>
        <time>2016-05-06T11:31:43Z</time>
      </trkpt>
      <trkpt lat="50.39572" lon="2.70074">
        <ele>92.42</ele>
        <time>2016-05-06T11:32:01Z</time>
      </trkpt>
      <trkpt lat="50.39585" lon="2.70036">
        <ele>91.94</ele>
        <time>2016-05-06T11:32:22Z</time>
      </trkpt>
      <trkpt lat="50.39588" lon="2.7003">
        <ele>91.94</ele>
        <time>2016-05-06T11:32:25Z</time>
      </trkpt>
      <trkpt lat="50.39591" lon="2.70021">
        <ele>91.94</ele>
        <time>2016-05-06T11:32:30Z</time>
      </trkpt>
      <trkpt lat="50.39601" lon="2.69993">
        <ele>91.94</ele>
        <time>2016-05-06T11:32:45Z</time>
      </trkpt>
      <trkpt lat="50.39609" lon="2.69973">
        <ele>91.94</ele>
        <time>2016-05-06T11:32:57Z</time>
      </trkpt>
      <trkpt lat="50.39611" lon="2.6997">
        <ele>91.94</ele>
        <time>2016-05-06T11:32:59Z</time>
      </trkpt>
      <trkpt lat="50.39617" lon="2.69957">
        <ele>91.94</ele>
        <time>2016-05-06T11:33:07Z</time>
      </trkpt>
      <trkpt lat="50.39626" lon="2.69915">
        <ele>92.9</ele>
        <time>2016-05-06T11:33:24Z</time>
      </trkpt>
      <trkpt lat="50.39633" lon="2.69876">
        <ele>92.9</ele>
        <time>2016-05-06T11:33:42Z</time>
      </trkpt>
      <trkpt lat="50.39639" lon="2.69847">
        <ele>92.9</ele>
        <time>2016-05-06T11:33:55Z</time>
      </trkpt>
      <trkpt lat="50.39645" lon="2.69815">
        <ele>92.9</ele>
        <time>2016-05-06T11:34:10Z</time>
      </trkpt>
      <trkpt lat="50.39647" lon="2.69808">
        <ele>94.35</ele>
        <time>2016-05-06T11:34:13Z</time>
      </trkpt>
      <trkpt lat="50.39653" lon="2.69783">
        <ele>93.87</ele>
        <time>2016-05-06T11:34:25Z</time>
      </trkpt>
      <trkpt lat="50.39658" lon="2.69755">
        <ele>95.31</ele>
        <time>2016-05-06T11:34:38Z</time>
      </trkpt>
      <trkpt lat="50.39659" lon="2.69746">
        <ele>95.31</ele>
        <time>2016-05-06T11:34:42Z</time>
      </trkpt>
      <trkpt lat="50.39662" lon="2.69714">
        <ele>94.83</ele>
        <time>2016-05-06T11:34:58Z</time>
      </trkpt>
      <trkpt lat="50.39661" lon="2.6971">
        <ele>94.83</ele>
        <time>2016-05-06T11:35:09Z</time>
      </trkpt>
      <trkpt lat="50.3966" lon="2.69707">
        <ele>94.83</ele>
        <time>2016-05-06T11:35:39Z</time>
      </trkpt>
      <trkpt lat="50.39664" lon="2.69707">
        <ele>94.35</ele>
        <time>2016-05-06T11:36:08Z</time>
      </trkpt>
    </trkseg>
  </trk>
</gpx>